﻿<?xml version="1.0" encoding="UTF-8" standalone="no" ?>
<gpx xmlns="http://www.topografix.com/GPX/1/1" creator="CompeGPS" version="1.1" xmlns:xsi="http://www.w3.org/2001/XMLSchema-instance" xsi:schemaLocation="http://www.topografix.com/GPX/1/1 http://www.topografix.com/GPX/1/1/gpx.xsd http://www.garmin.com/xmlschemas/GpxExtensions/v3 http://www.garmin.com/xmlschemas/GpxExtensionsv3.xsd http://www.garmin.com/xmlschemas/TrackPointExtension/v1 http://www.garmin.com/xmlschemas/TrackPointExtensionv1.xsd" xmlns:gpxtpx="http://www.garmin.com/xmlschemas/TrackPointExtension/v1">
  <metadata>
    <link href="http://www.compegps.com">
      <text>CompeGPS TEAM, SL</text>
    </link>
    <time>2017-07-27T22:12:27Z</time>
    <bounds maxlat="42.113513" maxlon="1.643609" minlat="42.101319" minlon="1.599802"/>
  </metadata>
  <trk>
    <name>Track_RUTA Cases Posada a Busa pel Grau de l&apos;Areny</name>
    <trkseg>
      <trkpt lat="42.109366" lon="1.601803">
        <ele>823.5</ele>
        <time>2017-07-27T05:46:59Z</time>
      </trkpt>
      <trkpt lat="42.109366" lon="1.601803">
        <ele>827.3</ele>
        <time>2017-07-27T05:47:00Z</time>
      </trkpt>
      <trkpt lat="42.109365" lon="1.601802">
        <ele>827.3</ele>
        <time>2017-07-27T05:47:02Z</time>
      </trkpt>
      <trkpt lat="42.109345" lon="1.601813">
        <ele>824.5</ele>
        <time>2017-07-27T05:47:19Z</time>
      </trkpt>
      <trkpt lat="42.109348" lon="1.601843">
        <ele>825.0</ele>
        <time>2017-07-27T05:47:42Z</time>
      </trkpt>
      <trkpt lat="42.109357" lon="1.601890">
        <ele>824.5</ele>
        <time>2017-07-27T05:48:01Z</time>
      </trkpt>
      <trkpt lat="42.109403" lon="1.601940">
        <ele>825.0</ele>
        <time>2017-07-27T05:48:12Z</time>
      </trkpt>
      <trkpt lat="42.109458" lon="1.602016">
        <ele>828.3</ele>
        <time>2017-07-27T05:48:23Z</time>
      </trkpt>
      <trkpt lat="42.109445" lon="1.602013">
        <ele>827.3</ele>
        <time>2017-07-27T05:48:36Z</time>
      </trkpt>
      <trkpt lat="42.109438" lon="1.602001">
        <ele>826.9</ele>
        <time>2017-07-27T05:48:55Z</time>
      </trkpt>
      <trkpt lat="42.109496" lon="1.602018">
        <ele>828.3</ele>
        <time>2017-07-27T05:49:10Z</time>
      </trkpt>
      <trkpt lat="42.109415" lon="1.602105">
        <ele>829.8</ele>
        <time>2017-07-27T05:49:20Z</time>
      </trkpt>
      <trkpt lat="42.109405" lon="1.602113">
        <ele>830.2</ele>
        <time>2017-07-27T05:49:21Z</time>
      </trkpt>
      <trkpt lat="42.109344" lon="1.602238">
        <ele>831.7</ele>
        <time>2017-07-27T05:49:35Z</time>
      </trkpt>
      <trkpt lat="42.109343" lon="1.602270">
        <ele>832.6</ele>
        <time>2017-07-27T05:49:38Z</time>
      </trkpt>
      <trkpt lat="42.109337" lon="1.602416">
        <ele>835.0</ele>
        <time>2017-07-27T05:49:51Z</time>
      </trkpt>
      <trkpt lat="42.109281" lon="1.602527">
        <ele>836.5</ele>
        <time>2017-07-27T05:50:01Z</time>
      </trkpt>
      <trkpt lat="42.109247" lon="1.602606">
        <ele>838.9</ele>
        <time>2017-07-27T05:50:10Z</time>
      </trkpt>
      <trkpt lat="42.109251" lon="1.602715">
        <ele>841.8</ele>
        <time>2017-07-27T05:50:23Z</time>
      </trkpt>
      <trkpt lat="42.109267" lon="1.602763">
        <ele>842.2</ele>
        <time>2017-07-27T05:50:28Z</time>
      </trkpt>
      <trkpt lat="42.109183" lon="1.602810">
        <ele>843.7</ele>
        <time>2017-07-27T05:50:37Z</time>
      </trkpt>
      <trkpt lat="42.109071" lon="1.602833">
        <ele>843.7</ele>
        <time>2017-07-27T05:50:46Z</time>
      </trkpt>
      <trkpt lat="42.109032" lon="1.602844">
        <ele>844.7</ele>
        <time>2017-07-27T05:50:51Z</time>
      </trkpt>
      <trkpt lat="42.109000" lon="1.602851">
        <ele>845.6</ele>
        <time>2017-07-27T05:50:54Z</time>
      </trkpt>
      <trkpt lat="42.108938" lon="1.602931">
        <ele>847.1</ele>
        <time>2017-07-27T05:51:04Z</time>
      </trkpt>
      <trkpt lat="42.108888" lon="1.602988">
        <ele>848.5</ele>
        <time>2017-07-27T05:51:11Z</time>
      </trkpt>
      <trkpt lat="42.108862" lon="1.602998">
        <ele>848.5</ele>
        <time>2017-07-27T05:51:13Z</time>
      </trkpt>
      <trkpt lat="42.108772" lon="1.602980">
        <ele>848.5</ele>
        <time>2017-07-27T05:51:20Z</time>
      </trkpt>
      <trkpt lat="42.108661" lon="1.603039">
        <ele>850.4</ele>
        <time>2017-07-27T05:51:30Z</time>
      </trkpt>
      <trkpt lat="42.108610" lon="1.603116">
        <ele>851.4</ele>
        <time>2017-07-27T05:51:40Z</time>
      </trkpt>
      <trkpt lat="42.108568" lon="1.603181">
        <ele>853.8</ele>
        <time>2017-07-27T05:51:50Z</time>
      </trkpt>
      <trkpt lat="42.108643" lon="1.603177">
        <ele>855.2</ele>
        <time>2017-07-27T05:52:01Z</time>
      </trkpt>
      <trkpt lat="42.108685" lon="1.603221">
        <ele>857.6</ele>
        <time>2017-07-27T05:52:11Z</time>
      </trkpt>
      <trkpt lat="42.108675" lon="1.603252">
        <ele>859.1</ele>
        <time>2017-07-27T05:52:16Z</time>
      </trkpt>
      <trkpt lat="42.108720" lon="1.603288">
        <ele>860.5</ele>
        <time>2017-07-27T05:52:27Z</time>
      </trkpt>
      <trkpt lat="42.108687" lon="1.603365">
        <ele>863.4</ele>
        <time>2017-07-27T05:52:39Z</time>
      </trkpt>
      <trkpt lat="42.108684" lon="1.603373">
        <ele>863.9</ele>
        <time>2017-07-27T05:52:40Z</time>
      </trkpt>
      <trkpt lat="42.108696" lon="1.603453">
        <ele>866.3</ele>
        <time>2017-07-27T05:52:52Z</time>
      </trkpt>
      <trkpt lat="42.108766" lon="1.603466">
        <ele>868.7</ele>
        <time>2017-07-27T05:53:05Z</time>
      </trkpt>
      <trkpt lat="42.108752" lon="1.603508">
        <ele>871.1</ele>
        <time>2017-07-27T05:53:18Z</time>
      </trkpt>
      <trkpt lat="42.108726" lon="1.603560">
        <ele>874.0</ele>
        <time>2017-07-27T05:53:29Z</time>
      </trkpt>
      <trkpt lat="42.108661" lon="1.603604">
        <ele>875.9</ele>
        <time>2017-07-27T05:53:39Z</time>
      </trkpt>
      <trkpt lat="42.108559" lon="1.603657">
        <ele>878.3</ele>
        <time>2017-07-27T05:53:50Z</time>
      </trkpt>
      <trkpt lat="42.108476" lon="1.603739">
        <ele>880.7</ele>
        <time>2017-07-27T05:54:03Z</time>
      </trkpt>
      <trkpt lat="42.108431" lon="1.603786">
        <ele>883.1</ele>
        <time>2017-07-27T05:54:13Z</time>
      </trkpt>
      <trkpt lat="42.108377" lon="1.603793">
        <ele>886.0</ele>
        <time>2017-07-27T05:54:24Z</time>
      </trkpt>
      <trkpt lat="42.108320" lon="1.603793">
        <ele>888.4</ele>
        <time>2017-07-27T05:54:34Z</time>
      </trkpt>
      <trkpt lat="42.108236" lon="1.603823">
        <ele>890.3</ele>
        <time>2017-07-27T05:54:46Z</time>
      </trkpt>
      <trkpt lat="42.108136" lon="1.603854">
        <ele>893.2</ele>
        <time>2017-07-27T05:54:57Z</time>
      </trkpt>
      <trkpt lat="42.108111" lon="1.603865">
        <ele>896.1</ele>
        <time>2017-07-27T05:54:59Z</time>
      </trkpt>
      <trkpt lat="42.108011" lon="1.603925">
        <ele>896.1</ele>
        <time>2017-07-27T05:55:13Z</time>
      </trkpt>
      <trkpt lat="42.107920" lon="1.603937">
        <ele>898.5</ele>
        <time>2017-07-27T05:55:24Z</time>
      </trkpt>
      <trkpt lat="42.107854" lon="1.603961">
        <ele>900.4</ele>
        <time>2017-07-27T05:55:34Z</time>
      </trkpt>
      <trkpt lat="42.107842" lon="1.603982">
        <ele>900.9</ele>
        <time>2017-07-27T05:55:37Z</time>
      </trkpt>
      <trkpt lat="42.107802" lon="1.604010">
        <ele>901.8</ele>
        <time>2017-07-27T05:55:41Z</time>
      </trkpt>
      <trkpt lat="42.107661" lon="1.604106">
        <ele>904.3</ele>
        <time>2017-07-27T05:55:56Z</time>
      </trkpt>
      <trkpt lat="42.107602" lon="1.604175">
        <ele>905.7</ele>
        <time>2017-07-27T05:56:03Z</time>
      </trkpt>
      <trkpt lat="42.107553" lon="1.604239">
        <ele>906.7</ele>
        <time>2017-07-27T05:56:10Z</time>
      </trkpt>
      <trkpt lat="42.107524" lon="1.604353">
        <ele>909.1</ele>
        <time>2017-07-27T05:56:20Z</time>
      </trkpt>
      <trkpt lat="42.107522" lon="1.604371">
        <ele>909.5</ele>
        <time>2017-07-27T05:56:24Z</time>
      </trkpt>
      <trkpt lat="42.107453" lon="1.604483">
        <ele>912.4</ele>
        <time>2017-07-27T05:56:37Z</time>
      </trkpt>
      <trkpt lat="42.107429" lon="1.604499">
        <ele>912.0</ele>
        <time>2017-07-27T05:56:39Z</time>
      </trkpt>
      <trkpt lat="42.107413" lon="1.604518">
        <ele>912.4</ele>
        <time>2017-07-27T05:56:41Z</time>
      </trkpt>
      <trkpt lat="42.107337" lon="1.604588">
        <ele>914.3</ele>
        <time>2017-07-27T05:56:52Z</time>
      </trkpt>
      <trkpt lat="42.107228" lon="1.604643">
        <ele>915.8</ele>
        <time>2017-07-27T05:57:04Z</time>
      </trkpt>
      <trkpt lat="42.107143" lon="1.604695">
        <ele>916.7</ele>
        <time>2017-07-27T05:57:11Z</time>
      </trkpt>
      <trkpt lat="42.107091" lon="1.604734">
        <ele>919.2</ele>
        <time>2017-07-27T05:57:19Z</time>
      </trkpt>
      <trkpt lat="42.107000" lon="1.604819">
        <ele>919.6</ele>
        <time>2017-07-27T05:57:30Z</time>
      </trkpt>
      <trkpt lat="42.106952" lon="1.604901">
        <ele>921.1</ele>
        <time>2017-07-27T05:57:40Z</time>
      </trkpt>
      <trkpt lat="42.106749" lon="1.605017">
        <ele>923.5</ele>
        <time>2017-07-27T05:57:51Z</time>
      </trkpt>
      <trkpt lat="42.106639" lon="1.605002">
        <ele>923.5</ele>
        <time>2017-07-27T05:58:04Z</time>
      </trkpt>
      <trkpt lat="42.106648" lon="1.604970">
        <ele>923.5</ele>
        <time>2017-07-27T05:58:34Z</time>
      </trkpt>
      <trkpt lat="42.106659" lon="1.604996">
        <ele>924.0</ele>
        <time>2017-07-27T05:59:04Z</time>
      </trkpt>
      <trkpt lat="42.106650" lon="1.604996">
        <ele>924.0</ele>
        <time>2017-07-27T05:59:38Z</time>
      </trkpt>
      <trkpt lat="42.106647" lon="1.605006">
        <ele>924.5</ele>
        <time>2017-07-27T05:59:49Z</time>
      </trkpt>
      <trkpt lat="42.106625" lon="1.605020">
        <ele>925.4</ele>
        <time>2017-07-27T05:59:51Z</time>
      </trkpt>
      <trkpt lat="42.106611" lon="1.605020">
        <ele>924.9</ele>
        <time>2017-07-27T05:59:52Z</time>
      </trkpt>
      <trkpt lat="42.106485" lon="1.605106">
        <ele>926.4</ele>
        <time>2017-07-27T06:00:03Z</time>
      </trkpt>
      <trkpt lat="42.106445" lon="1.605151">
        <ele>925.9</ele>
        <time>2017-07-27T06:00:13Z</time>
      </trkpt>
      <trkpt lat="42.106407" lon="1.605226">
        <ele>925.9</ele>
        <time>2017-07-27T06:00:18Z</time>
      </trkpt>
      <trkpt lat="42.106363" lon="1.605290">
        <ele>926.4</ele>
        <time>2017-07-27T06:00:24Z</time>
      </trkpt>
      <trkpt lat="42.106287" lon="1.605381">
        <ele>925.4</ele>
        <time>2017-07-27T06:00:32Z</time>
      </trkpt>
      <trkpt lat="42.106228" lon="1.605488">
        <ele>925.4</ele>
        <time>2017-07-27T06:00:46Z</time>
      </trkpt>
      <trkpt lat="42.106214" lon="1.605514">
        <ele>925.9</ele>
        <time>2017-07-27T06:00:49Z</time>
      </trkpt>
      <trkpt lat="42.106161" lon="1.605690">
        <ele>927.3</ele>
        <time>2017-07-27T06:01:01Z</time>
      </trkpt>
      <trkpt lat="42.106082" lon="1.605869">
        <ele>928.8</ele>
        <time>2017-07-27T06:01:14Z</time>
      </trkpt>
      <trkpt lat="42.106026" lon="1.605930">
        <ele>929.7</ele>
        <time>2017-07-27T06:01:20Z</time>
      </trkpt>
      <trkpt lat="42.106011" lon="1.605987">
        <ele>930.2</ele>
        <time>2017-07-27T06:01:23Z</time>
      </trkpt>
      <trkpt lat="42.105949" lon="1.606054">
        <ele>930.7</ele>
        <time>2017-07-27T06:01:29Z</time>
      </trkpt>
      <trkpt lat="42.105917" lon="1.606108">
        <ele>931.7</ele>
        <time>2017-07-27T06:01:34Z</time>
      </trkpt>
      <trkpt lat="42.105824" lon="1.606223">
        <ele>934.1</ele>
        <time>2017-07-27T06:01:46Z</time>
      </trkpt>
      <trkpt lat="42.105818" lon="1.606256">
        <ele>934.5</ele>
        <time>2017-07-27T06:01:48Z</time>
      </trkpt>
      <trkpt lat="42.105796" lon="1.606403">
        <ele>936.0</ele>
        <time>2017-07-27T06:01:59Z</time>
      </trkpt>
      <trkpt lat="42.105784" lon="1.606456">
        <ele>937.4</ele>
        <time>2017-07-27T06:02:05Z</time>
      </trkpt>
      <trkpt lat="42.105758" lon="1.606600">
        <ele>937.9</ele>
        <time>2017-07-27T06:02:13Z</time>
      </trkpt>
      <trkpt lat="42.105709" lon="1.606788">
        <ele>938.9</ele>
        <time>2017-07-27T06:02:24Z</time>
      </trkpt>
      <trkpt lat="42.105701" lon="1.606827">
        <ele>938.9</ele>
        <time>2017-07-27T06:02:26Z</time>
      </trkpt>
      <trkpt lat="42.105643" lon="1.606941">
        <ele>938.4</ele>
        <time>2017-07-27T06:02:34Z</time>
      </trkpt>
      <trkpt lat="42.105622" lon="1.606969">
        <ele>938.9</ele>
        <time>2017-07-27T06:02:36Z</time>
      </trkpt>
      <trkpt lat="42.105602" lon="1.607104">
        <ele>939.8</ele>
        <time>2017-07-27T06:02:43Z</time>
      </trkpt>
      <trkpt lat="42.105607" lon="1.607150">
        <ele>940.3</ele>
        <time>2017-07-27T06:02:46Z</time>
      </trkpt>
      <trkpt lat="42.105604" lon="1.607205">
        <ele>940.3</ele>
        <time>2017-07-27T06:02:50Z</time>
      </trkpt>
      <trkpt lat="42.105608" lon="1.607230">
        <ele>940.8</ele>
        <time>2017-07-27T06:02:52Z</time>
      </trkpt>
      <trkpt lat="42.105641" lon="1.607265">
        <ele>941.3</ele>
        <time>2017-07-27T06:02:57Z</time>
      </trkpt>
      <trkpt lat="42.105722" lon="1.607331">
        <ele>944.2</ele>
        <time>2017-07-27T06:03:09Z</time>
      </trkpt>
      <trkpt lat="42.105724" lon="1.607328">
        <ele>944.2</ele>
        <time>2017-07-27T06:03:11Z</time>
      </trkpt>
      <trkpt lat="42.105726" lon="1.607297">
        <ele>945.1</ele>
        <time>2017-07-27T06:03:14Z</time>
      </trkpt>
      <trkpt lat="42.105678" lon="1.607214">
        <ele>947.0</ele>
        <time>2017-07-27T06:03:24Z</time>
      </trkpt>
      <trkpt lat="42.105657" lon="1.607176">
        <ele>947.5</ele>
        <time>2017-07-27T06:03:27Z</time>
      </trkpt>
      <trkpt lat="42.105670" lon="1.607079">
        <ele>950.9</ele>
        <time>2017-07-27T06:03:40Z</time>
      </trkpt>
      <trkpt lat="42.105685" lon="1.607039">
        <ele>952.3</ele>
        <time>2017-07-27T06:03:44Z</time>
      </trkpt>
      <trkpt lat="42.105726" lon="1.606944">
        <ele>954.7</ele>
        <time>2017-07-27T06:03:56Z</time>
      </trkpt>
      <trkpt lat="42.105727" lon="1.606946">
        <ele>954.7</ele>
        <time>2017-07-27T06:04:00Z</time>
      </trkpt>
      <trkpt lat="42.105728" lon="1.607021">
        <ele>956.7</ele>
        <time>2017-07-27T06:04:09Z</time>
      </trkpt>
      <trkpt lat="42.105741" lon="1.607066">
        <ele>956.7</ele>
        <time>2017-07-27T06:04:13Z</time>
      </trkpt>
      <trkpt lat="42.105749" lon="1.607110">
        <ele>957.1</ele>
        <time>2017-07-27T06:04:16Z</time>
      </trkpt>
      <trkpt lat="42.105768" lon="1.607166">
        <ele>956.7</ele>
        <time>2017-07-27T06:04:21Z</time>
      </trkpt>
      <trkpt lat="42.105876" lon="1.607268">
        <ele>958.1</ele>
        <time>2017-07-27T06:04:33Z</time>
      </trkpt>
      <trkpt lat="42.105941" lon="1.607290">
        <ele>960.5</ele>
        <time>2017-07-27T06:04:40Z</time>
      </trkpt>
      <trkpt lat="42.105985" lon="1.607333">
        <ele>961.0</ele>
        <time>2017-07-27T06:04:45Z</time>
      </trkpt>
      <trkpt lat="42.106115" lon="1.607399">
        <ele>963.9</ele>
        <time>2017-07-27T06:04:58Z</time>
      </trkpt>
      <trkpt lat="42.106203" lon="1.607487">
        <ele>964.3</ele>
        <time>2017-07-27T06:05:09Z</time>
      </trkpt>
      <trkpt lat="42.106205" lon="1.607489">
        <ele>965.3</ele>
        <time>2017-07-27T06:05:10Z</time>
      </trkpt>
      <trkpt lat="42.106305" lon="1.607561">
        <ele>966.3</ele>
        <time>2017-07-27T06:05:20Z</time>
      </trkpt>
      <trkpt lat="42.106437" lon="1.607605">
        <ele>969.2</ele>
        <time>2017-07-27T06:05:33Z</time>
      </trkpt>
      <trkpt lat="42.106516" lon="1.607640">
        <ele>971.1</ele>
        <time>2017-07-27T06:05:45Z</time>
      </trkpt>
      <trkpt lat="42.106578" lon="1.607609">
        <ele>973.0</ele>
        <time>2017-07-27T06:05:56Z</time>
      </trkpt>
      <trkpt lat="42.106606" lon="1.607597">
        <ele>974.4</ele>
        <time>2017-07-27T06:06:00Z</time>
      </trkpt>
      <trkpt lat="42.106691" lon="1.607734">
        <ele>974.4</ele>
        <time>2017-07-27T06:06:13Z</time>
      </trkpt>
      <trkpt lat="42.106787" lon="1.607862">
        <ele>975.4</ele>
        <time>2017-07-27T06:06:24Z</time>
      </trkpt>
      <trkpt lat="42.106809" lon="1.607904">
        <ele>975.4</ele>
        <time>2017-07-27T06:06:27Z</time>
      </trkpt>
      <trkpt lat="42.106844" lon="1.607935">
        <ele>975.4</ele>
        <time>2017-07-27T06:06:30Z</time>
      </trkpt>
      <trkpt lat="42.106934" lon="1.607965">
        <ele>975.9</ele>
        <time>2017-07-27T06:06:37Z</time>
      </trkpt>
      <trkpt lat="42.107103" lon="1.608076">
        <ele>975.9</ele>
        <time>2017-07-27T06:06:50Z</time>
      </trkpt>
      <trkpt lat="42.107139" lon="1.608105">
        <ele>976.4</ele>
        <time>2017-07-27T06:06:54Z</time>
      </trkpt>
      <trkpt lat="42.107173" lon="1.608103">
        <ele>976.8</ele>
        <time>2017-07-27T06:06:57Z</time>
      </trkpt>
      <trkpt lat="42.107296" lon="1.608087">
        <ele>977.3</ele>
        <time>2017-07-27T06:07:06Z</time>
      </trkpt>
      <trkpt lat="42.107322" lon="1.608091">
        <ele>977.3</ele>
        <time>2017-07-27T06:07:08Z</time>
      </trkpt>
      <trkpt lat="42.107419" lon="1.608138">
        <ele>978.3</ele>
        <time>2017-07-27T06:07:17Z</time>
      </trkpt>
      <trkpt lat="42.107510" lon="1.608067">
        <ele>979.7</ele>
        <time>2017-07-27T06:07:26Z</time>
      </trkpt>
      <trkpt lat="42.107465" lon="1.607976">
        <ele>982.6</ele>
        <time>2017-07-27T06:07:36Z</time>
      </trkpt>
      <trkpt lat="42.107431" lon="1.607950">
        <ele>983.6</ele>
        <time>2017-07-27T06:07:41Z</time>
      </trkpt>
      <trkpt lat="42.107453" lon="1.607918">
        <ele>985.0</ele>
        <time>2017-07-27T06:07:47Z</time>
      </trkpt>
      <trkpt lat="42.107537" lon="1.607918">
        <ele>986.0</ele>
        <time>2017-07-27T06:07:55Z</time>
      </trkpt>
      <trkpt lat="42.107598" lon="1.607923">
        <ele>986.0</ele>
        <time>2017-07-27T06:08:00Z</time>
      </trkpt>
      <trkpt lat="42.107653" lon="1.607942">
        <ele>987.4</ele>
        <time>2017-07-27T06:08:06Z</time>
      </trkpt>
      <trkpt lat="42.107670" lon="1.607947">
        <ele>988.4</ele>
        <time>2017-07-27T06:08:08Z</time>
      </trkpt>
      <trkpt lat="42.107734" lon="1.607899">
        <ele>988.8</ele>
        <time>2017-07-27T06:08:14Z</time>
      </trkpt>
      <trkpt lat="42.107774" lon="1.607893">
        <ele>989.8</ele>
        <time>2017-07-27T06:08:18Z</time>
      </trkpt>
      <trkpt lat="42.107825" lon="1.607955">
        <ele>990.8</ele>
        <time>2017-07-27T06:08:24Z</time>
      </trkpt>
      <trkpt lat="42.107860" lon="1.607963">
        <ele>991.7</ele>
        <time>2017-07-27T06:08:28Z</time>
      </trkpt>
      <trkpt lat="42.107881" lon="1.608021">
        <ele>991.7</ele>
        <time>2017-07-27T06:08:33Z</time>
      </trkpt>
      <trkpt lat="42.107907" lon="1.608088">
        <ele>991.7</ele>
        <time>2017-07-27T06:08:37Z</time>
      </trkpt>
      <trkpt lat="42.108008" lon="1.608338">
        <ele>992.2</ele>
        <time>2017-07-27T06:08:51Z</time>
      </trkpt>
      <trkpt lat="42.108036" lon="1.608381">
        <ele>992.2</ele>
        <time>2017-07-27T06:08:54Z</time>
      </trkpt>
      <trkpt lat="42.108059" lon="1.608425">
        <ele>991.7</ele>
        <time>2017-07-27T06:08:57Z</time>
      </trkpt>
      <trkpt lat="42.108095" lon="1.608488">
        <ele>992.2</ele>
        <time>2017-07-27T06:09:01Z</time>
      </trkpt>
      <trkpt lat="42.108141" lon="1.608631">
        <ele>992.7</ele>
        <time>2017-07-27T06:09:09Z</time>
      </trkpt>
      <trkpt lat="42.108240" lon="1.608787">
        <ele>993.7</ele>
        <time>2017-07-27T06:09:21Z</time>
      </trkpt>
      <trkpt lat="42.108280" lon="1.608863">
        <ele>995.1</ele>
        <time>2017-07-27T06:09:33Z</time>
      </trkpt>
      <trkpt lat="42.108285" lon="1.608868">
        <ele>994.6</ele>
        <time>2017-07-27T06:09:37Z</time>
      </trkpt>
      <trkpt lat="42.108384" lon="1.608908">
        <ele>996.1</ele>
        <time>2017-07-27T06:09:47Z</time>
      </trkpt>
      <trkpt lat="42.108395" lon="1.608931">
        <ele>997.0</ele>
        <time>2017-07-27T06:09:50Z</time>
      </trkpt>
      <trkpt lat="42.108405" lon="1.608957">
        <ele>997.0</ele>
        <time>2017-07-27T06:09:52Z</time>
      </trkpt>
      <trkpt lat="42.108457" lon="1.609064">
        <ele>998.0</ele>
        <time>2017-07-27T06:10:01Z</time>
      </trkpt>
      <trkpt lat="42.108533" lon="1.609255">
        <ele>999.9</ele>
        <time>2017-07-27T06:10:16Z</time>
      </trkpt>
      <trkpt lat="42.108574" lon="1.609242">
        <ele>1001.3</ele>
        <time>2017-07-27T06:10:20Z</time>
      </trkpt>
      <trkpt lat="42.108684" lon="1.609274">
        <ele>1001.8</ele>
        <time>2017-07-27T06:10:29Z</time>
      </trkpt>
      <trkpt lat="42.108717" lon="1.609304">
        <ele>1002.8</ele>
        <time>2017-07-27T06:10:32Z</time>
      </trkpt>
      <trkpt lat="42.108759" lon="1.609403">
        <ele>1003.3</ele>
        <time>2017-07-27T06:10:40Z</time>
      </trkpt>
      <trkpt lat="42.108767" lon="1.609420">
        <ele>1003.3</ele>
        <time>2017-07-27T06:10:58Z</time>
      </trkpt>
      <trkpt lat="42.108768" lon="1.609423">
        <ele>1003.7</ele>
        <time>2017-07-27T06:11:32Z</time>
      </trkpt>
      <trkpt lat="42.108769" lon="1.609435">
        <ele>1004.7</ele>
        <time>2017-07-27T06:11:36Z</time>
      </trkpt>
      <trkpt lat="42.108792" lon="1.609501">
        <ele>1005.2</ele>
        <time>2017-07-27T06:11:41Z</time>
      </trkpt>
      <trkpt lat="42.108903" lon="1.609681">
        <ele>1005.7</ele>
        <time>2017-07-27T06:11:54Z</time>
      </trkpt>
      <trkpt lat="42.108907" lon="1.609766">
        <ele>1006.2</ele>
        <time>2017-07-27T06:12:02Z</time>
      </trkpt>
      <trkpt lat="42.108850" lon="1.609871">
        <ele>1005.7</ele>
        <time>2017-07-27T06:12:13Z</time>
      </trkpt>
      <trkpt lat="42.108862" lon="1.609897">
        <ele>1005.7</ele>
        <time>2017-07-27T06:12:31Z</time>
      </trkpt>
      <trkpt lat="42.108868" lon="1.609898">
        <ele>1005.2</ele>
        <time>2017-07-27T06:12:43Z</time>
      </trkpt>
      <trkpt lat="42.108867" lon="1.609896">
        <ele>1004.7</ele>
        <time>2017-07-27T06:13:01Z</time>
      </trkpt>
      <trkpt lat="42.108863" lon="1.609906">
        <ele>1006.2</ele>
        <time>2017-07-27T06:13:22Z</time>
      </trkpt>
      <trkpt lat="42.108864" lon="1.609914">
        <ele>1006.2</ele>
        <time>2017-07-27T06:13:40Z</time>
      </trkpt>
      <trkpt lat="42.108863" lon="1.609914">
        <ele>1006.2</ele>
        <time>2017-07-27T06:13:41Z</time>
      </trkpt>
      <trkpt lat="42.108867" lon="1.609903">
        <ele>1005.7</ele>
        <time>2017-07-27T06:13:46Z</time>
      </trkpt>
      <trkpt lat="42.108840" lon="1.609892">
        <ele>1005.7</ele>
        <time>2017-07-27T06:13:57Z</time>
      </trkpt>
      <trkpt lat="42.108841" lon="1.609898">
        <ele>1006.2</ele>
        <time>2017-07-27T06:13:59Z</time>
      </trkpt>
      <trkpt lat="42.108729" lon="1.610052">
        <ele>1004.7</ele>
        <time>2017-07-27T06:14:11Z</time>
      </trkpt>
      <trkpt lat="42.108640" lon="1.610311">
        <ele>1003.3</ele>
        <time>2017-07-27T06:14:27Z</time>
      </trkpt>
      <trkpt lat="42.108574" lon="1.610347">
        <ele>1003.3</ele>
        <time>2017-07-27T06:14:35Z</time>
      </trkpt>
      <trkpt lat="42.108522" lon="1.610387">
        <ele>1002.8</ele>
        <time>2017-07-27T06:14:39Z</time>
      </trkpt>
      <trkpt lat="42.108399" lon="1.610488">
        <ele>1001.8</ele>
        <time>2017-07-27T06:14:50Z</time>
      </trkpt>
      <trkpt lat="42.108357" lon="1.610582">
        <ele>1001.3</ele>
        <time>2017-07-27T06:14:55Z</time>
      </trkpt>
      <trkpt lat="42.108267" lon="1.610792">
        <ele>999.4</ele>
        <time>2017-07-27T06:15:07Z</time>
      </trkpt>
      <trkpt lat="42.108170" lon="1.611012">
        <ele>999.9</ele>
        <time>2017-07-27T06:15:21Z</time>
      </trkpt>
      <trkpt lat="42.108092" lon="1.611262">
        <ele>999.0</ele>
        <time>2017-07-27T06:15:35Z</time>
      </trkpt>
      <trkpt lat="42.107949" lon="1.611416">
        <ele>998.5</ele>
        <time>2017-07-27T06:15:49Z</time>
      </trkpt>
      <trkpt lat="42.107873" lon="1.611571">
        <ele>998.0</ele>
        <time>2017-07-27T06:15:58Z</time>
      </trkpt>
      <trkpt lat="42.107875" lon="1.611659">
        <ele>998.0</ele>
        <time>2017-07-27T06:16:03Z</time>
      </trkpt>
      <trkpt lat="42.107878" lon="1.611762">
        <ele>998.5</ele>
        <time>2017-07-27T06:16:10Z</time>
      </trkpt>
      <trkpt lat="42.107933" lon="1.611867">
        <ele>999.9</ele>
        <time>2017-07-27T06:16:20Z</time>
      </trkpt>
      <trkpt lat="42.107990" lon="1.611892">
        <ele>1000.4</ele>
        <time>2017-07-27T06:16:26Z</time>
      </trkpt>
      <trkpt lat="42.108014" lon="1.612011">
        <ele>1003.3</ele>
        <time>2017-07-27T06:16:36Z</time>
      </trkpt>
      <trkpt lat="42.108048" lon="1.612034">
        <ele>1005.2</ele>
        <time>2017-07-27T06:16:44Z</time>
      </trkpt>
      <trkpt lat="42.108207" lon="1.612016">
        <ele>1006.6</ele>
        <time>2017-07-27T06:16:57Z</time>
      </trkpt>
      <trkpt lat="42.108236" lon="1.612010">
        <ele>1006.2</ele>
        <time>2017-07-27T06:17:00Z</time>
      </trkpt>
      <trkpt lat="42.108350" lon="1.612036">
        <ele>1008.1</ele>
        <time>2017-07-27T06:17:11Z</time>
      </trkpt>
      <trkpt lat="42.108375" lon="1.612040">
        <ele>1008.6</ele>
        <time>2017-07-27T06:17:13Z</time>
      </trkpt>
      <trkpt lat="42.108496" lon="1.612125">
        <ele>1009.5</ele>
        <time>2017-07-27T06:17:24Z</time>
      </trkpt>
      <trkpt lat="42.108548" lon="1.612127">
        <ele>1010.5</ele>
        <time>2017-07-27T06:17:34Z</time>
      </trkpt>
      <trkpt lat="42.108610" lon="1.612171">
        <ele>1010.5</ele>
        <time>2017-07-27T06:17:40Z</time>
      </trkpt>
      <trkpt lat="42.108712" lon="1.612256">
        <ele>1012.9</ele>
        <time>2017-07-27T06:17:51Z</time>
      </trkpt>
      <trkpt lat="42.108729" lon="1.612276">
        <ele>1013.4</ele>
        <time>2017-07-27T06:17:53Z</time>
      </trkpt>
      <trkpt lat="42.108763" lon="1.612316">
        <ele>1013.8</ele>
        <time>2017-07-27T06:17:57Z</time>
      </trkpt>
      <trkpt lat="42.108792" lon="1.612340">
        <ele>1014.3</ele>
        <time>2017-07-27T06:18:00Z</time>
      </trkpt>
      <trkpt lat="42.108865" lon="1.612402">
        <ele>1015.3</ele>
        <time>2017-07-27T06:18:07Z</time>
      </trkpt>
      <trkpt lat="42.108907" lon="1.612465">
        <ele>1015.3</ele>
        <time>2017-07-27T06:18:12Z</time>
      </trkpt>
      <trkpt lat="42.108920" lon="1.612490">
        <ele>1015.8</ele>
        <time>2017-07-27T06:18:14Z</time>
      </trkpt>
      <trkpt lat="42.109011" lon="1.612594">
        <ele>1016.7</ele>
        <time>2017-07-27T06:18:24Z</time>
      </trkpt>
      <trkpt lat="42.109050" lon="1.612649">
        <ele>1017.7</ele>
        <time>2017-07-27T06:18:29Z</time>
      </trkpt>
      <trkpt lat="42.109123" lon="1.612681">
        <ele>1019.1</ele>
        <time>2017-07-27T06:18:36Z</time>
      </trkpt>
      <trkpt lat="42.109217" lon="1.612693">
        <ele>1020.6</ele>
        <time>2017-07-27T06:18:43Z</time>
      </trkpt>
      <trkpt lat="42.109264" lon="1.612754">
        <ele>1022.5</ele>
        <time>2017-07-27T06:18:50Z</time>
      </trkpt>
      <trkpt lat="42.109270" lon="1.612794">
        <ele>1022.0</ele>
        <time>2017-07-27T06:18:54Z</time>
      </trkpt>
      <trkpt lat="42.109287" lon="1.612832">
        <ele>1022.0</ele>
        <time>2017-07-27T06:19:03Z</time>
      </trkpt>
      <trkpt lat="42.109352" lon="1.612801">
        <ele>1023.0</ele>
        <time>2017-07-27T06:19:13Z</time>
      </trkpt>
      <trkpt lat="42.109362" lon="1.612800">
        <ele>1023.0</ele>
        <time>2017-07-27T06:19:28Z</time>
      </trkpt>
      <trkpt lat="42.109377" lon="1.612835">
        <ele>1023.5</ele>
        <time>2017-07-27T06:19:34Z</time>
      </trkpt>
      <trkpt lat="42.109352" lon="1.612877">
        <ele>1023.9</ele>
        <time>2017-07-27T06:19:38Z</time>
      </trkpt>
      <trkpt lat="42.109300" lon="1.612962">
        <ele>1023.5</ele>
        <time>2017-07-27T06:19:44Z</time>
      </trkpt>
      <trkpt lat="42.109279" lon="1.612973">
        <ele>1023.5</ele>
        <time>2017-07-27T06:19:46Z</time>
      </trkpt>
      <trkpt lat="42.109253" lon="1.613021">
        <ele>1023.0</ele>
        <time>2017-07-27T06:19:49Z</time>
      </trkpt>
      <trkpt lat="42.109121" lon="1.613026">
        <ele>1023.9</ele>
        <time>2017-07-27T06:20:01Z</time>
      </trkpt>
      <trkpt lat="42.109033" lon="1.613034">
        <ele>1024.9</ele>
        <time>2017-07-27T06:20:13Z</time>
      </trkpt>
      <trkpt lat="42.109023" lon="1.613029">
        <ele>1024.4</ele>
        <time>2017-07-27T06:20:19Z</time>
      </trkpt>
      <trkpt lat="42.108937" lon="1.613073">
        <ele>1024.9</ele>
        <time>2017-07-27T06:20:26Z</time>
      </trkpt>
      <trkpt lat="42.108847" lon="1.613149">
        <ele>1023.0</ele>
        <time>2017-07-27T06:20:34Z</time>
      </trkpt>
      <trkpt lat="42.108793" lon="1.613142">
        <ele>1025.4</ele>
        <time>2017-07-27T06:20:39Z</time>
      </trkpt>
      <trkpt lat="42.108659" lon="1.613091">
        <ele>1027.3</ele>
        <time>2017-07-27T06:20:51Z</time>
      </trkpt>
      <trkpt lat="42.108508" lon="1.613037">
        <ele>1027.8</ele>
        <time>2017-07-27T06:21:02Z</time>
      </trkpt>
      <trkpt lat="42.108321" lon="1.613083">
        <ele>1027.8</ele>
        <time>2017-07-27T06:21:17Z</time>
      </trkpt>
      <trkpt lat="42.108167" lon="1.613144">
        <ele>1028.3</ele>
        <time>2017-07-27T06:21:30Z</time>
      </trkpt>
      <trkpt lat="42.108122" lon="1.613186">
        <ele>1028.7</ele>
        <time>2017-07-27T06:21:35Z</time>
      </trkpt>
      <trkpt lat="42.108111" lon="1.613228">
        <ele>1028.7</ele>
        <time>2017-07-27T06:21:38Z</time>
      </trkpt>
      <trkpt lat="42.108076" lon="1.613299">
        <ele>1030.2</ele>
        <time>2017-07-27T06:21:44Z</time>
      </trkpt>
      <trkpt lat="42.108055" lon="1.613344">
        <ele>1030.7</ele>
        <time>2017-07-27T06:21:47Z</time>
      </trkpt>
      <trkpt lat="42.108009" lon="1.613388">
        <ele>1031.2</ele>
        <time>2017-07-27T06:21:52Z</time>
      </trkpt>
      <trkpt lat="42.107983" lon="1.613418">
        <ele>1031.6</ele>
        <time>2017-07-27T06:21:55Z</time>
      </trkpt>
      <trkpt lat="42.107792" lon="1.613513">
        <ele>1033.1</ele>
        <time>2017-07-27T06:22:10Z</time>
      </trkpt>
      <trkpt lat="42.107785" lon="1.613521">
        <ele>1033.1</ele>
        <time>2017-07-27T06:22:11Z</time>
      </trkpt>
      <trkpt lat="42.107688" lon="1.613647">
        <ele>1034.5</ele>
        <time>2017-07-27T06:22:21Z</time>
      </trkpt>
      <trkpt lat="42.107632" lon="1.613733">
        <ele>1035.0</ele>
        <time>2017-07-27T06:22:28Z</time>
      </trkpt>
      <trkpt lat="42.107470" lon="1.613750">
        <ele>1036.0</ele>
        <time>2017-07-27T06:22:40Z</time>
      </trkpt>
      <trkpt lat="42.107383" lon="1.613758">
        <ele>1036.9</ele>
        <time>2017-07-27T06:22:46Z</time>
      </trkpt>
      <trkpt lat="42.107356" lon="1.613779">
        <ele>1036.9</ele>
        <time>2017-07-27T06:22:48Z</time>
      </trkpt>
      <trkpt lat="42.107257" lon="1.613810">
        <ele>1037.9</ele>
        <time>2017-07-27T06:22:56Z</time>
      </trkpt>
      <trkpt lat="42.107231" lon="1.613807">
        <ele>1038.4</ele>
        <time>2017-07-27T06:22:58Z</time>
      </trkpt>
      <trkpt lat="42.107072" lon="1.613902">
        <ele>1039.8</ele>
        <time>2017-07-27T06:23:12Z</time>
      </trkpt>
      <trkpt lat="42.106957" lon="1.613996">
        <ele>1040.3</ele>
        <time>2017-07-27T06:23:23Z</time>
      </trkpt>
      <trkpt lat="42.106780" lon="1.614184">
        <ele>1040.8</ele>
        <time>2017-07-27T06:23:39Z</time>
      </trkpt>
      <trkpt lat="42.106766" lon="1.614191">
        <ele>1041.2</ele>
        <time>2017-07-27T06:23:40Z</time>
      </trkpt>
      <trkpt lat="42.106709" lon="1.614228">
        <ele>1041.2</ele>
        <time>2017-07-27T06:23:45Z</time>
      </trkpt>
      <trkpt lat="42.106635" lon="1.614324">
        <ele>1043.2</ele>
        <time>2017-07-27T06:23:54Z</time>
      </trkpt>
      <trkpt lat="42.106554" lon="1.614492">
        <ele>1044.6</ele>
        <time>2017-07-27T06:24:07Z</time>
      </trkpt>
      <trkpt lat="42.106547" lon="1.614507">
        <ele>1045.1</ele>
        <time>2017-07-27T06:24:08Z</time>
      </trkpt>
      <trkpt lat="42.106516" lon="1.614539">
        <ele>1045.6</ele>
        <time>2017-07-27T06:24:11Z</time>
      </trkpt>
      <trkpt lat="42.106489" lon="1.614599">
        <ele>1046.1</ele>
        <time>2017-07-27T06:24:16Z</time>
      </trkpt>
      <trkpt lat="42.106458" lon="1.614687">
        <ele>1047.5</ele>
        <time>2017-07-27T06:24:22Z</time>
      </trkpt>
      <trkpt lat="42.106439" lon="1.614743">
        <ele>1047.5</ele>
        <time>2017-07-27T06:24:26Z</time>
      </trkpt>
      <trkpt lat="42.106387" lon="1.614913">
        <ele>1048.4</ele>
        <time>2017-07-27T06:24:37Z</time>
      </trkpt>
      <trkpt lat="42.106373" lon="1.615013">
        <ele>1048.9</ele>
        <time>2017-07-27T06:24:44Z</time>
      </trkpt>
      <trkpt lat="42.106356" lon="1.615165">
        <ele>1051.8</ele>
        <time>2017-07-27T06:24:56Z</time>
      </trkpt>
      <trkpt lat="42.106349" lon="1.615283">
        <ele>1054.7</ele>
        <time>2017-07-27T06:25:07Z</time>
      </trkpt>
      <trkpt lat="42.106351" lon="1.615406">
        <ele>1055.7</ele>
        <time>2017-07-27T06:25:17Z</time>
      </trkpt>
      <trkpt lat="42.106342" lon="1.615456">
        <ele>1057.1</ele>
        <time>2017-07-27T06:25:21Z</time>
      </trkpt>
      <trkpt lat="42.106346" lon="1.615515">
        <ele>1058.1</ele>
        <time>2017-07-27T06:25:26Z</time>
      </trkpt>
      <trkpt lat="42.106344" lon="1.615573">
        <ele>1059.0</ele>
        <time>2017-07-27T06:25:31Z</time>
      </trkpt>
      <trkpt lat="42.106336" lon="1.615618">
        <ele>1060.5</ele>
        <time>2017-07-27T06:25:35Z</time>
      </trkpt>
      <trkpt lat="42.106327" lon="1.615685">
        <ele>1060.9</ele>
        <time>2017-07-27T06:25:39Z</time>
      </trkpt>
      <trkpt lat="42.106324" lon="1.615812">
        <ele>1061.9</ele>
        <time>2017-07-27T06:25:51Z</time>
      </trkpt>
      <trkpt lat="42.106311" lon="1.615849">
        <ele>1063.4</ele>
        <time>2017-07-27T06:25:56Z</time>
      </trkpt>
      <trkpt lat="42.106265" lon="1.615929">
        <ele>1064.3</ele>
        <time>2017-07-27T06:26:02Z</time>
      </trkpt>
      <trkpt lat="42.106250" lon="1.615954">
        <ele>1063.8</ele>
        <time>2017-07-27T06:26:04Z</time>
      </trkpt>
      <trkpt lat="42.106226" lon="1.615979">
        <ele>1064.3</ele>
        <time>2017-07-27T06:26:06Z</time>
      </trkpt>
      <trkpt lat="42.106181" lon="1.616087">
        <ele>1065.3</ele>
        <time>2017-07-27T06:26:14Z</time>
      </trkpt>
      <trkpt lat="42.106160" lon="1.616299">
        <ele>1067.7</ele>
        <time>2017-07-27T06:26:29Z</time>
      </trkpt>
      <trkpt lat="42.106138" lon="1.616438">
        <ele>1068.6</ele>
        <time>2017-07-27T06:26:38Z</time>
      </trkpt>
      <trkpt lat="42.106129" lon="1.616621">
        <ele>1070.1</ele>
        <time>2017-07-27T06:26:51Z</time>
      </trkpt>
      <trkpt lat="42.106118" lon="1.616693">
        <ele>1070.6</ele>
        <time>2017-07-27T06:26:56Z</time>
      </trkpt>
      <trkpt lat="42.106113" lon="1.616719">
        <ele>1070.6</ele>
        <time>2017-07-27T06:26:58Z</time>
      </trkpt>
      <trkpt lat="42.106088" lon="1.616897">
        <ele>1072.0</ele>
        <time>2017-07-27T06:27:10Z</time>
      </trkpt>
      <trkpt lat="42.106094" lon="1.616978">
        <ele>1073.0</ele>
        <time>2017-07-27T06:27:15Z</time>
      </trkpt>
      <trkpt lat="42.106075" lon="1.617179">
        <ele>1075.4</ele>
        <time>2017-07-27T06:27:29Z</time>
      </trkpt>
      <trkpt lat="42.106064" lon="1.617208">
        <ele>1075.8</ele>
        <time>2017-07-27T06:27:31Z</time>
      </trkpt>
      <trkpt lat="42.106060" lon="1.617353">
        <ele>1078.7</ele>
        <time>2017-07-27T06:27:44Z</time>
      </trkpt>
      <trkpt lat="42.106074" lon="1.617502">
        <ele>1080.7</ele>
        <time>2017-07-27T06:27:57Z</time>
      </trkpt>
      <trkpt lat="42.106105" lon="1.617617">
        <ele>1083.5</ele>
        <time>2017-07-27T06:28:08Z</time>
      </trkpt>
      <trkpt lat="42.106123" lon="1.617772">
        <ele>1085.9</ele>
        <time>2017-07-27T06:28:20Z</time>
      </trkpt>
      <trkpt lat="42.106097" lon="1.617945">
        <ele>1086.9</ele>
        <time>2017-07-27T06:28:32Z</time>
      </trkpt>
      <trkpt lat="42.106118" lon="1.617953">
        <ele>1087.4</ele>
        <time>2017-07-27T06:28:41Z</time>
      </trkpt>
      <trkpt lat="42.106065" lon="1.618064">
        <ele>1088.8</ele>
        <time>2017-07-27T06:28:52Z</time>
      </trkpt>
      <trkpt lat="42.106035" lon="1.618127">
        <ele>1089.3</ele>
        <time>2017-07-27T06:28:57Z</time>
      </trkpt>
      <trkpt lat="42.106003" lon="1.618203">
        <ele>1090.3</ele>
        <time>2017-07-27T06:29:02Z</time>
      </trkpt>
      <trkpt lat="42.106002" lon="1.618405">
        <ele>1092.7</ele>
        <time>2017-07-27T06:29:17Z</time>
      </trkpt>
      <trkpt lat="42.105986" lon="1.618484">
        <ele>1093.6</ele>
        <time>2017-07-27T06:29:23Z</time>
      </trkpt>
      <trkpt lat="42.105908" lon="1.618671">
        <ele>1095.1</ele>
        <time>2017-07-27T06:29:38Z</time>
      </trkpt>
      <trkpt lat="42.105889" lon="1.618693">
        <ele>1095.6</ele>
        <time>2017-07-27T06:29:41Z</time>
      </trkpt>
      <trkpt lat="42.105851" lon="1.618785">
        <ele>1097.5</ele>
        <time>2017-07-27T06:29:49Z</time>
      </trkpt>
      <trkpt lat="42.105840" lon="1.618977">
        <ele>1098.9</ele>
        <time>2017-07-27T06:30:03Z</time>
      </trkpt>
      <trkpt lat="42.105841" lon="1.619122">
        <ele>1098.9</ele>
        <time>2017-07-27T06:30:12Z</time>
      </trkpt>
      <trkpt lat="42.105872" lon="1.619331">
        <ele>1099.9</ele>
        <time>2017-07-27T06:30:25Z</time>
      </trkpt>
      <trkpt lat="42.105853" lon="1.619480">
        <ele>1102.8</ele>
        <time>2017-07-27T06:30:36Z</time>
      </trkpt>
      <trkpt lat="42.105814" lon="1.619627">
        <ele>1104.7</ele>
        <time>2017-07-27T06:30:48Z</time>
      </trkpt>
      <trkpt lat="42.105811" lon="1.619814">
        <ele>1107.1</ele>
        <time>2017-07-27T06:31:00Z</time>
      </trkpt>
      <trkpt lat="42.105805" lon="1.619890">
        <ele>1108.1</ele>
        <time>2017-07-27T06:31:07Z</time>
      </trkpt>
      <trkpt lat="42.105784" lon="1.620039">
        <ele>1110.5</ele>
        <time>2017-07-27T06:31:20Z</time>
      </trkpt>
      <trkpt lat="42.105764" lon="1.620109">
        <ele>1112.4</ele>
        <time>2017-07-27T06:31:30Z</time>
      </trkpt>
      <trkpt lat="42.105702" lon="1.620276">
        <ele>1114.3</ele>
        <time>2017-07-27T06:31:43Z</time>
      </trkpt>
      <trkpt lat="42.105654" lon="1.620401">
        <ele>1116.2</ele>
        <time>2017-07-27T06:31:54Z</time>
      </trkpt>
      <trkpt lat="42.105658" lon="1.620520">
        <ele>1119.1</ele>
        <time>2017-07-27T06:32:06Z</time>
      </trkpt>
      <trkpt lat="42.105675" lon="1.620699">
        <ele>1121.0</ele>
        <time>2017-07-27T06:32:16Z</time>
      </trkpt>
      <trkpt lat="42.105721" lon="1.620831">
        <ele>1123.9</ele>
        <time>2017-07-27T06:32:27Z</time>
      </trkpt>
      <trkpt lat="42.105763" lon="1.620996">
        <ele>1125.8</ele>
        <time>2017-07-27T06:32:39Z</time>
      </trkpt>
      <trkpt lat="42.105765" lon="1.621013">
        <ele>1125.8</ele>
        <time>2017-07-27T06:32:40Z</time>
      </trkpt>
      <trkpt lat="42.105775" lon="1.621151">
        <ele>1127.8</ele>
        <time>2017-07-27T06:32:53Z</time>
      </trkpt>
      <trkpt lat="42.105748" lon="1.621290">
        <ele>1127.8</ele>
        <time>2017-07-27T06:33:05Z</time>
      </trkpt>
      <trkpt lat="42.105732" lon="1.621287">
        <ele>1128.2</ele>
        <time>2017-07-27T06:33:18Z</time>
      </trkpt>
      <trkpt lat="42.105746" lon="1.621343">
        <ele>1128.7</ele>
        <time>2017-07-27T06:33:26Z</time>
      </trkpt>
      <trkpt lat="42.105739" lon="1.621355">
        <ele>1129.2</ele>
        <time>2017-07-27T06:33:28Z</time>
      </trkpt>
      <trkpt lat="42.105718" lon="1.621439">
        <ele>1130.7</ele>
        <time>2017-07-27T06:33:35Z</time>
      </trkpt>
      <trkpt lat="42.105702" lon="1.621525">
        <ele>1130.7</ele>
        <time>2017-07-27T06:33:42Z</time>
      </trkpt>
      <trkpt lat="42.105650" lon="1.621660">
        <ele>1132.6</ele>
        <time>2017-07-27T06:33:54Z</time>
      </trkpt>
      <trkpt lat="42.105630" lon="1.621708">
        <ele>1133.1</ele>
        <time>2017-07-27T06:33:57Z</time>
      </trkpt>
      <trkpt lat="42.105559" lon="1.621804">
        <ele>1134.0</ele>
        <time>2017-07-27T06:34:05Z</time>
      </trkpt>
      <trkpt lat="42.105523" lon="1.621858">
        <ele>1134.0</ele>
        <time>2017-07-27T06:34:09Z</time>
      </trkpt>
      <trkpt lat="42.105462" lon="1.621937">
        <ele>1135.0</ele>
        <time>2017-07-27T06:34:15Z</time>
      </trkpt>
      <trkpt lat="42.105381" lon="1.622008">
        <ele>1135.4</ele>
        <time>2017-07-27T06:34:22Z</time>
      </trkpt>
      <trkpt lat="42.105255" lon="1.622168">
        <ele>1135.4</ele>
        <time>2017-07-27T06:34:34Z</time>
      </trkpt>
      <trkpt lat="42.105208" lon="1.622281">
        <ele>1135.9</ele>
        <time>2017-07-27T06:34:44Z</time>
      </trkpt>
      <trkpt lat="42.105109" lon="1.622443">
        <ele>1135.9</ele>
        <time>2017-07-27T06:34:56Z</time>
      </trkpt>
      <trkpt lat="42.104980" lon="1.622482">
        <ele>1135.0</ele>
        <time>2017-07-27T06:35:05Z</time>
      </trkpt>
      <trkpt lat="42.104833" lon="1.622697">
        <ele>1136.4</ele>
        <time>2017-07-27T06:35:22Z</time>
      </trkpt>
      <trkpt lat="42.104804" lon="1.622740">
        <ele>1137.4</ele>
        <time>2017-07-27T06:35:27Z</time>
      </trkpt>
      <trkpt lat="42.104738" lon="1.622812">
        <ele>1139.8</ele>
        <time>2017-07-27T06:35:35Z</time>
      </trkpt>
      <trkpt lat="42.104693" lon="1.622888">
        <ele>1140.7</ele>
        <time>2017-07-27T06:35:41Z</time>
      </trkpt>
      <trkpt lat="42.104707" lon="1.622945">
        <ele>1143.1</ele>
        <time>2017-07-27T06:35:52Z</time>
      </trkpt>
      <trkpt lat="42.104731" lon="1.622955">
        <ele>1145.1</ele>
        <time>2017-07-27T06:36:00Z</time>
      </trkpt>
      <trkpt lat="42.104702" lon="1.623048">
        <ele>1147.5</ele>
        <time>2017-07-27T06:36:10Z</time>
      </trkpt>
      <trkpt lat="42.104668" lon="1.623125">
        <ele>1148.4</ele>
        <time>2017-07-27T06:36:18Z</time>
      </trkpt>
      <trkpt lat="42.104649" lon="1.623157">
        <ele>1148.9</ele>
        <time>2017-07-27T06:36:21Z</time>
      </trkpt>
      <trkpt lat="42.104653" lon="1.623236">
        <ele>1150.3</ele>
        <time>2017-07-27T06:36:27Z</time>
      </trkpt>
      <trkpt lat="42.104651" lon="1.623288">
        <ele>1151.3</ele>
        <time>2017-07-27T06:36:31Z</time>
      </trkpt>
      <trkpt lat="42.104634" lon="1.623349">
        <ele>1152.3</ele>
        <time>2017-07-27T06:36:35Z</time>
      </trkpt>
      <trkpt lat="42.104617" lon="1.623375">
        <ele>1153.7</ele>
        <time>2017-07-27T06:36:38Z</time>
      </trkpt>
      <trkpt lat="42.104562" lon="1.623454">
        <ele>1155.6</ele>
        <time>2017-07-27T06:36:47Z</time>
      </trkpt>
      <trkpt lat="42.104556" lon="1.623559">
        <ele>1156.1</ele>
        <time>2017-07-27T06:36:54Z</time>
      </trkpt>
      <trkpt lat="42.104612" lon="1.623693">
        <ele>1158.5</ele>
        <time>2017-07-27T06:37:06Z</time>
      </trkpt>
      <trkpt lat="42.104658" lon="1.623785">
        <ele>1160.9</ele>
        <time>2017-07-27T06:37:17Z</time>
      </trkpt>
      <trkpt lat="42.104690" lon="1.623856">
        <ele>1163.8</ele>
        <time>2017-07-27T06:37:29Z</time>
      </trkpt>
      <trkpt lat="42.104765" lon="1.623893">
        <ele>1166.2</ele>
        <time>2017-07-27T06:37:40Z</time>
      </trkpt>
      <trkpt lat="42.104823" lon="1.623976">
        <ele>1167.2</ele>
        <time>2017-07-27T06:37:50Z</time>
      </trkpt>
      <trkpt lat="42.104868" lon="1.624048">
        <ele>1169.1</ele>
        <time>2017-07-27T06:38:03Z</time>
      </trkpt>
      <trkpt lat="42.104877" lon="1.624238">
        <ele>1170.1</ele>
        <time>2017-07-27T06:38:15Z</time>
      </trkpt>
      <trkpt lat="42.104843" lon="1.624343">
        <ele>1170.5</ele>
        <time>2017-07-27T06:38:19Z</time>
      </trkpt>
      <trkpt lat="42.104896" lon="1.624574">
        <ele>1171.0</ele>
        <time>2017-07-27T06:38:31Z</time>
      </trkpt>
      <trkpt lat="42.104983" lon="1.624662">
        <ele>1172.5</ele>
        <time>2017-07-27T06:38:42Z</time>
      </trkpt>
      <trkpt lat="42.105069" lon="1.624793">
        <ele>1173.9</ele>
        <time>2017-07-27T06:38:54Z</time>
      </trkpt>
      <trkpt lat="42.105119" lon="1.624877">
        <ele>1173.9</ele>
        <time>2017-07-27T06:39:00Z</time>
      </trkpt>
      <trkpt lat="42.105178" lon="1.624995">
        <ele>1175.3</ele>
        <time>2017-07-27T06:39:09Z</time>
      </trkpt>
      <trkpt lat="42.105258" lon="1.625109">
        <ele>1175.8</ele>
        <time>2017-07-27T06:39:18Z</time>
      </trkpt>
      <trkpt lat="42.105286" lon="1.625169">
        <ele>1175.8</ele>
        <time>2017-07-27T06:39:21Z</time>
      </trkpt>
      <trkpt lat="42.105319" lon="1.625325">
        <ele>1176.3</ele>
        <time>2017-07-27T06:39:30Z</time>
      </trkpt>
      <trkpt lat="42.105328" lon="1.625386">
        <ele>1176.8</ele>
        <time>2017-07-27T06:39:33Z</time>
      </trkpt>
      <trkpt lat="42.105367" lon="1.625504">
        <ele>1174.9</ele>
        <time>2017-07-27T06:39:43Z</time>
      </trkpt>
      <trkpt lat="42.105388" lon="1.625526">
        <ele>1175.3</ele>
        <time>2017-07-27T06:39:45Z</time>
      </trkpt>
      <trkpt lat="42.105404" lon="1.625560">
        <ele>1176.3</ele>
        <time>2017-07-27T06:39:47Z</time>
      </trkpt>
      <trkpt lat="42.105411" lon="1.625588">
        <ele>1177.3</ele>
        <time>2017-07-27T06:39:49Z</time>
      </trkpt>
      <trkpt lat="42.105451" lon="1.625652">
        <ele>1177.7</ele>
        <time>2017-07-27T06:39:54Z</time>
      </trkpt>
      <trkpt lat="42.105499" lon="1.625770">
        <ele>1180.2</ele>
        <time>2017-07-27T06:40:04Z</time>
      </trkpt>
      <trkpt lat="42.105551" lon="1.625938">
        <ele>1180.6</ele>
        <time>2017-07-27T06:40:14Z</time>
      </trkpt>
      <trkpt lat="42.105645" lon="1.626038">
        <ele>1182.1</ele>
        <time>2017-07-27T06:40:23Z</time>
      </trkpt>
      <trkpt lat="42.105675" lon="1.626099">
        <ele>1183.5</ele>
        <time>2017-07-27T06:40:27Z</time>
      </trkpt>
      <trkpt lat="42.105721" lon="1.626204">
        <ele>1184.0</ele>
        <time>2017-07-27T06:40:34Z</time>
      </trkpt>
      <trkpt lat="42.105796" lon="1.626323">
        <ele>1185.0</ele>
        <time>2017-07-27T06:40:44Z</time>
      </trkpt>
      <trkpt lat="42.105887" lon="1.626483">
        <ele>1186.4</ele>
        <time>2017-07-27T06:40:56Z</time>
      </trkpt>
      <trkpt lat="42.105976" lon="1.626545">
        <ele>1187.4</ele>
        <time>2017-07-27T06:41:05Z</time>
      </trkpt>
      <trkpt lat="42.106073" lon="1.626648">
        <ele>1190.7</ele>
        <time>2017-07-27T06:41:17Z</time>
      </trkpt>
      <trkpt lat="42.106117" lon="1.626813">
        <ele>1192.2</ele>
        <time>2017-07-27T06:41:28Z</time>
      </trkpt>
      <trkpt lat="42.106111" lon="1.626874">
        <ele>1194.6</ele>
        <time>2017-07-27T06:41:41Z</time>
      </trkpt>
      <trkpt lat="42.106014" lon="1.626924">
        <ele>1196.5</ele>
        <time>2017-07-27T06:41:51Z</time>
      </trkpt>
      <trkpt lat="42.105917" lon="1.626941">
        <ele>1198.4</ele>
        <time>2017-07-27T06:42:01Z</time>
      </trkpt>
      <trkpt lat="42.105894" lon="1.626979">
        <ele>1199.4</ele>
        <time>2017-07-27T06:42:06Z</time>
      </trkpt>
      <trkpt lat="42.105858" lon="1.626993">
        <ele>1201.3</ele>
        <time>2017-07-27T06:42:17Z</time>
      </trkpt>
      <trkpt lat="42.105874" lon="1.627051">
        <ele>1203.2</ele>
        <time>2017-07-27T06:42:27Z</time>
      </trkpt>
      <trkpt lat="42.105854" lon="1.627079">
        <ele>1204.2</ele>
        <time>2017-07-27T06:42:35Z</time>
      </trkpt>
      <trkpt lat="42.105826" lon="1.627071">
        <ele>1206.1</ele>
        <time>2017-07-27T06:42:41Z</time>
      </trkpt>
      <trkpt lat="42.105801" lon="1.627027">
        <ele>1208.5</ele>
        <time>2017-07-27T06:42:52Z</time>
      </trkpt>
      <trkpt lat="42.105754" lon="1.626964">
        <ele>1211.9</ele>
        <time>2017-07-27T06:43:04Z</time>
      </trkpt>
      <trkpt lat="42.105732" lon="1.627009">
        <ele>1213.3</ele>
        <time>2017-07-27T06:43:20Z</time>
      </trkpt>
      <trkpt lat="42.105715" lon="1.626969">
        <ele>1214.3</ele>
        <time>2017-07-27T06:43:27Z</time>
      </trkpt>
      <trkpt lat="42.105630" lon="1.626956">
        <ele>1218.1</ele>
        <time>2017-07-27T06:43:37Z</time>
      </trkpt>
      <trkpt lat="42.105565" lon="1.626942">
        <ele>1219.1</ele>
        <time>2017-07-27T06:43:46Z</time>
      </trkpt>
      <trkpt lat="42.105533" lon="1.626930">
        <ele>1220.1</ele>
        <time>2017-07-27T06:43:50Z</time>
      </trkpt>
      <trkpt lat="42.105452" lon="1.626880">
        <ele>1222.9</ele>
        <time>2017-07-27T06:44:02Z</time>
      </trkpt>
      <trkpt lat="42.105386" lon="1.626854">
        <ele>1224.4</ele>
        <time>2017-07-27T06:44:12Z</time>
      </trkpt>
      <trkpt lat="42.105288" lon="1.626841">
        <ele>1226.3</ele>
        <time>2017-07-27T06:44:23Z</time>
      </trkpt>
      <trkpt lat="42.105174" lon="1.626820">
        <ele>1228.7</ele>
        <time>2017-07-27T06:44:36Z</time>
      </trkpt>
      <trkpt lat="42.105093" lon="1.626773">
        <ele>1230.6</ele>
        <time>2017-07-27T06:44:45Z</time>
      </trkpt>
      <trkpt lat="42.105036" lon="1.626751">
        <ele>1232.1</ele>
        <time>2017-07-27T06:44:53Z</time>
      </trkpt>
      <trkpt lat="42.105089" lon="1.626848">
        <ele>1234.5</ele>
        <time>2017-07-27T06:45:08Z</time>
      </trkpt>
      <trkpt lat="42.105031" lon="1.626852">
        <ele>1235.9</ele>
        <time>2017-07-27T06:45:20Z</time>
      </trkpt>
      <trkpt lat="42.105003" lon="1.626821">
        <ele>1236.4</ele>
        <time>2017-07-27T06:45:25Z</time>
      </trkpt>
      <trkpt lat="42.104959" lon="1.626775">
        <ele>1236.9</ele>
        <time>2017-07-27T06:45:30Z</time>
      </trkpt>
      <trkpt lat="42.104825" lon="1.626629">
        <ele>1237.3</ele>
        <time>2017-07-27T06:45:45Z</time>
      </trkpt>
      <trkpt lat="42.104743" lon="1.626562">
        <ele>1238.8</ele>
        <time>2017-07-27T06:45:55Z</time>
      </trkpt>
      <trkpt lat="42.104639" lon="1.626520">
        <ele>1241.7</ele>
        <time>2017-07-27T06:46:06Z</time>
      </trkpt>
      <trkpt lat="42.104628" lon="1.626519">
        <ele>1241.7</ele>
        <time>2017-07-27T06:46:07Z</time>
      </trkpt>
      <trkpt lat="42.104605" lon="1.626506">
        <ele>1242.2</ele>
        <time>2017-07-27T06:46:11Z</time>
      </trkpt>
      <trkpt lat="42.104595" lon="1.626529">
        <ele>1244.6</ele>
        <time>2017-07-27T06:46:23Z</time>
      </trkpt>
      <trkpt lat="42.104591" lon="1.626525">
        <ele>1245.0</ele>
        <time>2017-07-27T06:46:25Z</time>
      </trkpt>
      <trkpt lat="42.104508" lon="1.626474">
        <ele>1246.0</ele>
        <time>2017-07-27T06:46:33Z</time>
      </trkpt>
      <trkpt lat="42.104408" lon="1.626440">
        <ele>1247.9</ele>
        <time>2017-07-27T06:46:42Z</time>
      </trkpt>
      <trkpt lat="42.104383" lon="1.626434">
        <ele>1247.4</ele>
        <time>2017-07-27T06:46:44Z</time>
      </trkpt>
      <trkpt lat="42.104349" lon="1.626435">
        <ele>1247.9</ele>
        <time>2017-07-27T06:46:47Z</time>
      </trkpt>
      <trkpt lat="42.104299" lon="1.626475">
        <ele>1248.9</ele>
        <time>2017-07-27T06:46:54Z</time>
      </trkpt>
      <trkpt lat="42.104288" lon="1.626549">
        <ele>1250.3</ele>
        <time>2017-07-27T06:47:03Z</time>
      </trkpt>
      <trkpt lat="42.104266" lon="1.626654">
        <ele>1249.8</ele>
        <time>2017-07-27T06:47:10Z</time>
      </trkpt>
      <trkpt lat="42.104267" lon="1.626697">
        <ele>1250.8</ele>
        <time>2017-07-27T06:47:13Z</time>
      </trkpt>
      <trkpt lat="42.104261" lon="1.626805">
        <ele>1250.8</ele>
        <time>2017-07-27T06:47:20Z</time>
      </trkpt>
      <trkpt lat="42.104256" lon="1.626953">
        <ele>1251.3</ele>
        <time>2017-07-27T06:47:28Z</time>
      </trkpt>
      <trkpt lat="42.104272" lon="1.627089">
        <ele>1250.3</ele>
        <time>2017-07-27T06:47:36Z</time>
      </trkpt>
      <trkpt lat="42.104256" lon="1.627247">
        <ele>1250.3</ele>
        <time>2017-07-27T06:47:46Z</time>
      </trkpt>
      <trkpt lat="42.104257" lon="1.627449">
        <ele>1251.3</ele>
        <time>2017-07-27T06:47:58Z</time>
      </trkpt>
      <trkpt lat="42.104216" lon="1.627687">
        <ele>1253.2</ele>
        <time>2017-07-27T06:48:13Z</time>
      </trkpt>
      <trkpt lat="42.104205" lon="1.627708">
        <ele>1253.2</ele>
        <time>2017-07-27T06:48:15Z</time>
      </trkpt>
      <trkpt lat="42.104171" lon="1.627769">
        <ele>1252.7</ele>
        <time>2017-07-27T06:48:20Z</time>
      </trkpt>
      <trkpt lat="42.104166" lon="1.627797">
        <ele>1253.2</ele>
        <time>2017-07-27T06:48:22Z</time>
      </trkpt>
      <trkpt lat="42.104130" lon="1.627882">
        <ele>1253.7</ele>
        <time>2017-07-27T06:48:28Z</time>
      </trkpt>
      <trkpt lat="42.104117" lon="1.627965">
        <ele>1254.7</ele>
        <time>2017-07-27T06:48:33Z</time>
      </trkpt>
      <trkpt lat="42.104125" lon="1.628128">
        <ele>1257.1</ele>
        <time>2017-07-27T06:48:45Z</time>
      </trkpt>
      <trkpt lat="42.104123" lon="1.628161">
        <ele>1258.0</ele>
        <time>2017-07-27T06:48:47Z</time>
      </trkpt>
      <trkpt lat="42.104140" lon="1.628237">
        <ele>1258.5</ele>
        <time>2017-07-27T06:48:52Z</time>
      </trkpt>
      <trkpt lat="42.104145" lon="1.628287">
        <ele>1259.5</ele>
        <time>2017-07-27T06:48:56Z</time>
      </trkpt>
      <trkpt lat="42.104118" lon="1.628310">
        <ele>1260.4</ele>
        <time>2017-07-27T06:49:00Z</time>
      </trkpt>
      <trkpt lat="42.103996" lon="1.628241">
        <ele>1262.8</ele>
        <time>2017-07-27T06:49:13Z</time>
      </trkpt>
      <trkpt lat="42.103902" lon="1.628153">
        <ele>1265.7</ele>
        <time>2017-07-27T06:49:27Z</time>
      </trkpt>
      <trkpt lat="42.103885" lon="1.628129">
        <ele>1266.7</ele>
        <time>2017-07-27T06:49:31Z</time>
      </trkpt>
      <trkpt lat="42.103807" lon="1.628145">
        <ele>1269.1</ele>
        <time>2017-07-27T06:49:42Z</time>
      </trkpt>
      <trkpt lat="42.103803" lon="1.628196">
        <ele>1269.1</ele>
        <time>2017-07-27T06:49:53Z</time>
      </trkpt>
      <trkpt lat="42.103806" lon="1.628207">
        <ele>1268.6</ele>
        <time>2017-07-27T06:50:09Z</time>
      </trkpt>
      <trkpt lat="42.103806" lon="1.628208">
        <ele>1269.1</ele>
        <time>2017-07-27T06:50:10Z</time>
      </trkpt>
      <trkpt lat="42.103811" lon="1.628234">
        <ele>1269.6</ele>
        <time>2017-07-27T06:50:12Z</time>
      </trkpt>
      <trkpt lat="42.103803" lon="1.628279">
        <ele>1269.6</ele>
        <time>2017-07-27T06:50:15Z</time>
      </trkpt>
      <trkpt lat="42.103765" lon="1.628429">
        <ele>1272.0</ele>
        <time>2017-07-27T06:50:26Z</time>
      </trkpt>
      <trkpt lat="42.103753" lon="1.628468">
        <ele>1272.0</ele>
        <time>2017-07-27T06:50:29Z</time>
      </trkpt>
      <trkpt lat="42.103748" lon="1.628520">
        <ele>1271.5</ele>
        <time>2017-07-27T06:50:42Z</time>
      </trkpt>
      <trkpt lat="42.103730" lon="1.628649">
        <ele>1273.4</ele>
        <time>2017-07-27T06:50:53Z</time>
      </trkpt>
      <trkpt lat="42.103714" lon="1.628850">
        <ele>1275.3</ele>
        <time>2017-07-27T06:51:06Z</time>
      </trkpt>
      <trkpt lat="42.103689" lon="1.628972">
        <ele>1276.3</ele>
        <time>2017-07-27T06:51:13Z</time>
      </trkpt>
      <trkpt lat="42.103662" lon="1.629058">
        <ele>1276.3</ele>
        <time>2017-07-27T06:51:18Z</time>
      </trkpt>
      <trkpt lat="42.103629" lon="1.629107">
        <ele>1276.8</ele>
        <time>2017-07-27T06:51:21Z</time>
      </trkpt>
      <trkpt lat="42.103601" lon="1.629184">
        <ele>1277.2</ele>
        <time>2017-07-27T06:51:26Z</time>
      </trkpt>
      <trkpt lat="42.103563" lon="1.629259">
        <ele>1277.7</ele>
        <time>2017-07-27T06:51:37Z</time>
      </trkpt>
      <trkpt lat="42.103528" lon="1.629262">
        <ele>1277.7</ele>
        <time>2017-07-27T06:51:51Z</time>
      </trkpt>
      <trkpt lat="42.103529" lon="1.629356">
        <ele>1278.2</ele>
        <time>2017-07-27T06:52:04Z</time>
      </trkpt>
      <trkpt lat="42.103469" lon="1.629508">
        <ele>1279.2</ele>
        <time>2017-07-27T06:52:17Z</time>
      </trkpt>
      <trkpt lat="42.103471" lon="1.629528">
        <ele>1278.7</ele>
        <time>2017-07-27T06:52:32Z</time>
      </trkpt>
      <trkpt lat="42.103474" lon="1.629525">
        <ele>1278.7</ele>
        <time>2017-07-27T06:52:43Z</time>
      </trkpt>
      <trkpt lat="42.103478" lon="1.629520">
        <ele>1278.7</ele>
        <time>2017-07-27T06:52:57Z</time>
      </trkpt>
      <trkpt lat="42.103474" lon="1.629534">
        <ele>1278.7</ele>
        <time>2017-07-27T06:53:22Z</time>
      </trkpt>
      <trkpt lat="42.103470" lon="1.629522">
        <ele>1278.7</ele>
        <time>2017-07-27T06:53:37Z</time>
      </trkpt>
      <trkpt lat="42.103474" lon="1.629526">
        <ele>1280.1</ele>
        <time>2017-07-27T06:53:53Z</time>
      </trkpt>
      <trkpt lat="42.103471" lon="1.629520">
        <ele>1279.7</ele>
        <time>2017-07-27T06:54:07Z</time>
      </trkpt>
      <trkpt lat="42.103463" lon="1.629515">
        <ele>1279.7</ele>
        <time>2017-07-27T06:54:17Z</time>
      </trkpt>
      <trkpt lat="42.103459" lon="1.629538">
        <ele>1280.1</ele>
        <time>2017-07-27T06:54:19Z</time>
      </trkpt>
      <trkpt lat="42.103455" lon="1.629598">
        <ele>1280.6</ele>
        <time>2017-07-27T06:54:23Z</time>
      </trkpt>
      <trkpt lat="42.103402" lon="1.629679">
        <ele>1280.1</ele>
        <time>2017-07-27T06:54:30Z</time>
      </trkpt>
      <trkpt lat="42.103296" lon="1.629857">
        <ele>1280.6</ele>
        <time>2017-07-27T06:54:45Z</time>
      </trkpt>
      <trkpt lat="42.103222" lon="1.630074">
        <ele>1281.1</ele>
        <time>2017-07-27T06:54:58Z</time>
      </trkpt>
      <trkpt lat="42.103197" lon="1.630362">
        <ele>1282.1</ele>
        <time>2017-07-27T06:55:14Z</time>
      </trkpt>
      <trkpt lat="42.103222" lon="1.630490">
        <ele>1282.1</ele>
        <time>2017-07-27T06:55:21Z</time>
      </trkpt>
      <trkpt lat="42.103233" lon="1.630572">
        <ele>1283.0</ele>
        <time>2017-07-27T06:55:26Z</time>
      </trkpt>
      <trkpt lat="42.103268" lon="1.630681">
        <ele>1283.5</ele>
        <time>2017-07-27T06:55:33Z</time>
      </trkpt>
      <trkpt lat="42.103271" lon="1.630726">
        <ele>1283.0</ele>
        <time>2017-07-27T06:55:36Z</time>
      </trkpt>
      <trkpt lat="42.103310" lon="1.630861">
        <ele>1284.0</ele>
        <time>2017-07-27T06:55:50Z</time>
      </trkpt>
      <trkpt lat="42.103322" lon="1.630903">
        <ele>1284.5</ele>
        <time>2017-07-27T06:56:06Z</time>
      </trkpt>
      <trkpt lat="42.103323" lon="1.630903">
        <ele>1284.9</ele>
        <time>2017-07-27T06:56:08Z</time>
      </trkpt>
      <trkpt lat="42.103344" lon="1.631017">
        <ele>1284.9</ele>
        <time>2017-07-27T06:56:20Z</time>
      </trkpt>
      <trkpt lat="42.103340" lon="1.631218">
        <ele>1285.4</ele>
        <time>2017-07-27T06:56:31Z</time>
      </trkpt>
      <trkpt lat="42.103348" lon="1.631285">
        <ele>1285.4</ele>
        <time>2017-07-27T06:56:35Z</time>
      </trkpt>
      <trkpt lat="42.103357" lon="1.631324">
        <ele>1285.9</ele>
        <time>2017-07-27T06:56:37Z</time>
      </trkpt>
      <trkpt lat="42.103351" lon="1.631608">
        <ele>1285.9</ele>
        <time>2017-07-27T06:56:54Z</time>
      </trkpt>
      <trkpt lat="42.103248" lon="1.631864">
        <ele>1285.4</ele>
        <time>2017-07-27T06:57:10Z</time>
      </trkpt>
      <trkpt lat="42.103129" lon="1.632046">
        <ele>1285.9</ele>
        <time>2017-07-27T06:57:24Z</time>
      </trkpt>
      <trkpt lat="42.103050" lon="1.632158">
        <ele>1286.4</ele>
        <time>2017-07-27T06:57:33Z</time>
      </trkpt>
      <trkpt lat="42.102886" lon="1.632366">
        <ele>1285.4</ele>
        <time>2017-07-27T06:57:48Z</time>
      </trkpt>
      <trkpt lat="42.102821" lon="1.632446">
        <ele>1285.4</ele>
        <time>2017-07-27T06:57:54Z</time>
      </trkpt>
      <trkpt lat="42.102700" lon="1.632611">
        <ele>1285.4</ele>
        <time>2017-07-27T06:58:06Z</time>
      </trkpt>
      <trkpt lat="42.102500" lon="1.632582">
        <ele>1284.9</ele>
        <time>2017-07-27T06:58:22Z</time>
      </trkpt>
      <trkpt lat="42.102392" lon="1.632494">
        <ele>1284.9</ele>
        <time>2017-07-27T06:58:31Z</time>
      </trkpt>
      <trkpt lat="42.102197" lon="1.632445">
        <ele>1284.9</ele>
        <time>2017-07-27T06:58:45Z</time>
      </trkpt>
      <trkpt lat="42.101992" lon="1.632531">
        <ele>1284.9</ele>
        <time>2017-07-27T06:59:00Z</time>
      </trkpt>
      <trkpt lat="42.101962" lon="1.632535">
        <ele>1285.4</ele>
        <time>2017-07-27T06:59:03Z</time>
      </trkpt>
      <trkpt lat="42.101737" lon="1.632672">
        <ele>1285.4</ele>
        <time>2017-07-27T06:59:20Z</time>
      </trkpt>
      <trkpt lat="42.101596" lon="1.632812">
        <ele>1285.9</ele>
        <time>2017-07-27T06:59:32Z</time>
      </trkpt>
      <trkpt lat="42.101574" lon="1.632835">
        <ele>1285.9</ele>
        <time>2017-07-27T06:59:35Z</time>
      </trkpt>
      <trkpt lat="42.101456" lon="1.632993">
        <ele>1285.9</ele>
        <time>2017-07-27T06:59:48Z</time>
      </trkpt>
      <trkpt lat="42.101319" lon="1.633220">
        <ele>1286.9</ele>
        <time>2017-07-27T07:00:03Z</time>
      </trkpt>
      <trkpt lat="42.101353" lon="1.633515">
        <ele>1287.3</ele>
        <time>2017-07-27T07:00:19Z</time>
      </trkpt>
      <trkpt lat="42.101388" lon="1.633622">
        <ele>1287.8</ele>
        <time>2017-07-27T07:00:28Z</time>
      </trkpt>
      <trkpt lat="42.101483" lon="1.633868">
        <ele>1289.3</ele>
        <time>2017-07-27T07:00:43Z</time>
      </trkpt>
      <trkpt lat="42.101513" lon="1.633924">
        <ele>1289.3</ele>
        <time>2017-07-27T07:00:47Z</time>
      </trkpt>
      <trkpt lat="42.101586" lon="1.634133">
        <ele>1290.2</ele>
        <time>2017-07-27T07:01:00Z</time>
      </trkpt>
      <trkpt lat="42.101673" lon="1.634319">
        <ele>1292.2</ele>
        <time>2017-07-27T07:01:14Z</time>
      </trkpt>
      <trkpt lat="42.101700" lon="1.634374">
        <ele>1292.2</ele>
        <time>2017-07-27T07:01:19Z</time>
      </trkpt>
      <trkpt lat="42.101775" lon="1.634430">
        <ele>1292.6</ele>
        <time>2017-07-27T07:01:26Z</time>
      </trkpt>
      <trkpt lat="42.101968" lon="1.634529">
        <ele>1294.1</ele>
        <time>2017-07-27T07:01:42Z</time>
      </trkpt>
      <trkpt lat="42.102115" lon="1.634611">
        <ele>1295.0</ele>
        <time>2017-07-27T07:01:54Z</time>
      </trkpt>
      <trkpt lat="42.102147" lon="1.634640">
        <ele>1294.6</ele>
        <time>2017-07-27T07:01:57Z</time>
      </trkpt>
      <trkpt lat="42.102201" lon="1.634696">
        <ele>1295.0</ele>
        <time>2017-07-27T07:02:02Z</time>
      </trkpt>
      <trkpt lat="42.102376" lon="1.634880">
        <ele>1297.0</ele>
        <time>2017-07-27T07:02:18Z</time>
      </trkpt>
      <trkpt lat="42.102539" lon="1.635050">
        <ele>1298.9</ele>
        <time>2017-07-27T07:02:34Z</time>
      </trkpt>
      <trkpt lat="42.102699" lon="1.635215">
        <ele>1298.4</ele>
        <time>2017-07-27T07:02:48Z</time>
      </trkpt>
      <trkpt lat="42.102770" lon="1.635319">
        <ele>1298.9</ele>
        <time>2017-07-27T07:02:56Z</time>
      </trkpt>
      <trkpt lat="42.102919" lon="1.635502">
        <ele>1300.8</ele>
        <time>2017-07-27T07:03:11Z</time>
      </trkpt>
      <trkpt lat="42.102950" lon="1.635562">
        <ele>1301.3</ele>
        <time>2017-07-27T07:03:15Z</time>
      </trkpt>
      <trkpt lat="42.102969" lon="1.635599">
        <ele>1301.3</ele>
        <time>2017-07-27T07:03:24Z</time>
      </trkpt>
      <trkpt lat="42.102856" lon="1.635424">
        <ele>1299.8</ele>
        <time>2017-07-27T07:03:36Z</time>
      </trkpt>
      <trkpt lat="42.102746" lon="1.635303">
        <ele>1299.8</ele>
        <time>2017-07-27T07:03:51Z</time>
      </trkpt>
      <trkpt lat="42.102753" lon="1.635303">
        <ele>1298.9</ele>
        <time>2017-07-27T07:03:57Z</time>
      </trkpt>
      <trkpt lat="42.102806" lon="1.635356">
        <ele>1299.4</ele>
        <time>2017-07-27T07:04:01Z</time>
      </trkpt>
      <trkpt lat="42.102931" lon="1.635520">
        <ele>1301.3</ele>
        <time>2017-07-27T07:04:14Z</time>
      </trkpt>
      <trkpt lat="42.102993" lon="1.635694">
        <ele>1303.2</ele>
        <time>2017-07-27T07:04:26Z</time>
      </trkpt>
      <trkpt lat="42.102918" lon="1.635926">
        <ele>1304.2</ele>
        <time>2017-07-27T07:04:41Z</time>
      </trkpt>
      <trkpt lat="42.102817" lon="1.636116">
        <ele>1303.7</ele>
        <time>2017-07-27T07:04:54Z</time>
      </trkpt>
      <trkpt lat="42.102810" lon="1.636131">
        <ele>1305.1</ele>
        <time>2017-07-27T07:04:55Z</time>
      </trkpt>
      <trkpt lat="42.102785" lon="1.636203">
        <ele>1305.1</ele>
        <time>2017-07-27T07:04:59Z</time>
      </trkpt>
      <trkpt lat="42.102749" lon="1.636254">
        <ele>1305.6</ele>
        <time>2017-07-27T07:05:04Z</time>
      </trkpt>
      <trkpt lat="42.102691" lon="1.636419">
        <ele>1308.5</ele>
        <time>2017-07-27T07:05:17Z</time>
      </trkpt>
      <trkpt lat="42.102666" lon="1.636441">
        <ele>1309.0</ele>
        <time>2017-07-27T07:05:32Z</time>
      </trkpt>
      <trkpt lat="42.102655" lon="1.636469">
        <ele>1309.0</ele>
        <time>2017-07-27T07:05:38Z</time>
      </trkpt>
      <trkpt lat="42.102669" lon="1.636476">
        <ele>1309.4</ele>
        <time>2017-07-27T07:05:46Z</time>
      </trkpt>
      <trkpt lat="42.102626" lon="1.636515">
        <ele>1310.4</ele>
        <time>2017-07-27T07:05:52Z</time>
      </trkpt>
      <trkpt lat="42.102611" lon="1.636651">
        <ele>1312.3</ele>
        <time>2017-07-27T07:05:59Z</time>
      </trkpt>
      <trkpt lat="42.102619" lon="1.636783">
        <ele>1313.3</ele>
        <time>2017-07-27T07:06:07Z</time>
      </trkpt>
      <trkpt lat="42.102662" lon="1.636984">
        <ele>1315.7</ele>
        <time>2017-07-27T07:06:18Z</time>
      </trkpt>
      <trkpt lat="42.102682" lon="1.637080">
        <ele>1315.2</ele>
        <time>2017-07-27T07:06:23Z</time>
      </trkpt>
      <trkpt lat="42.102708" lon="1.637154">
        <ele>1315.7</ele>
        <time>2017-07-27T07:06:27Z</time>
      </trkpt>
      <trkpt lat="42.102718" lon="1.637279">
        <ele>1316.2</ele>
        <time>2017-07-27T07:06:34Z</time>
      </trkpt>
      <trkpt lat="42.102703" lon="1.637462">
        <ele>1317.1</ele>
        <time>2017-07-27T07:06:45Z</time>
      </trkpt>
      <trkpt lat="42.102718" lon="1.637560">
        <ele>1317.6</ele>
        <time>2017-07-27T07:06:50Z</time>
      </trkpt>
      <trkpt lat="42.102725" lon="1.637632">
        <ele>1318.1</ele>
        <time>2017-07-27T07:06:54Z</time>
      </trkpt>
      <trkpt lat="42.102730" lon="1.637853">
        <ele>1319.1</ele>
        <time>2017-07-27T07:07:05Z</time>
      </trkpt>
      <trkpt lat="42.102776" lon="1.638067">
        <ele>1321.0</ele>
        <time>2017-07-27T07:07:17Z</time>
      </trkpt>
      <trkpt lat="42.102784" lon="1.638181">
        <ele>1321.0</ele>
        <time>2017-07-27T07:07:23Z</time>
      </trkpt>
      <trkpt lat="42.102817" lon="1.638458">
        <ele>1321.9</ele>
        <time>2017-07-27T07:07:38Z</time>
      </trkpt>
      <trkpt lat="42.102825" lon="1.638702">
        <ele>1323.9</ele>
        <time>2017-07-27T07:07:51Z</time>
      </trkpt>
      <trkpt lat="42.102848" lon="1.638976">
        <ele>1324.8</ele>
        <time>2017-07-27T07:08:06Z</time>
      </trkpt>
      <trkpt lat="42.102875" lon="1.639092">
        <ele>1324.8</ele>
        <time>2017-07-27T07:08:20Z</time>
      </trkpt>
      <trkpt lat="42.102875" lon="1.639127">
        <ele>1325.8</ele>
        <time>2017-07-27T07:08:32Z</time>
      </trkpt>
      <trkpt lat="42.102881" lon="1.639135">
        <ele>1325.3</ele>
        <time>2017-07-27T07:08:33Z</time>
      </trkpt>
      <trkpt lat="42.102895" lon="1.639161">
        <ele>1325.3</ele>
        <time>2017-07-27T07:08:35Z</time>
      </trkpt>
      <trkpt lat="42.102922" lon="1.639276">
        <ele>1327.2</ele>
        <time>2017-07-27T07:08:43Z</time>
      </trkpt>
      <trkpt lat="42.103019" lon="1.639505">
        <ele>1328.7</ele>
        <time>2017-07-27T07:08:57Z</time>
      </trkpt>
      <trkpt lat="42.103141" lon="1.639681">
        <ele>1330.1</ele>
        <time>2017-07-27T07:09:11Z</time>
      </trkpt>
      <trkpt lat="42.103206" lon="1.639732">
        <ele>1330.6</ele>
        <time>2017-07-27T07:09:16Z</time>
      </trkpt>
      <trkpt lat="42.103393" lon="1.639742">
        <ele>1332.5</ele>
        <time>2017-07-27T07:09:31Z</time>
      </trkpt>
      <trkpt lat="42.103576" lon="1.639725">
        <ele>1334.9</ele>
        <time>2017-07-27T07:09:45Z</time>
      </trkpt>
      <trkpt lat="42.103737" lon="1.639753">
        <ele>1336.8</ele>
        <time>2017-07-27T07:09:58Z</time>
      </trkpt>
      <trkpt lat="42.103832" lon="1.639909">
        <ele>1338.8</ele>
        <time>2017-07-27T07:10:10Z</time>
      </trkpt>
      <trkpt lat="42.103837" lon="1.639985">
        <ele>1339.2</ele>
        <time>2017-07-27T07:10:15Z</time>
      </trkpt>
      <trkpt lat="42.103797" lon="1.640222">
        <ele>1340.2</ele>
        <time>2017-07-27T07:10:29Z</time>
      </trkpt>
      <trkpt lat="42.103728" lon="1.640495">
        <ele>1340.2</ele>
        <time>2017-07-27T07:10:44Z</time>
      </trkpt>
      <trkpt lat="42.103719" lon="1.640545">
        <ele>1340.2</ele>
        <time>2017-07-27T07:10:47Z</time>
      </trkpt>
      <trkpt lat="42.103741" lon="1.640838">
        <ele>1341.7</ele>
        <time>2017-07-27T07:11:03Z</time>
      </trkpt>
      <trkpt lat="42.103749" lon="1.640871">
        <ele>1342.6</ele>
        <time>2017-07-27T07:11:05Z</time>
      </trkpt>
      <trkpt lat="42.103780" lon="1.640957">
        <ele>1343.6</ele>
        <time>2017-07-27T07:11:11Z</time>
      </trkpt>
      <trkpt lat="42.103831" lon="1.640989">
        <ele>1343.6</ele>
        <time>2017-07-27T07:11:16Z</time>
      </trkpt>
      <trkpt lat="42.103975" lon="1.640831">
        <ele>1345.5</ele>
        <time>2017-07-27T07:11:32Z</time>
      </trkpt>
      <trkpt lat="42.104016" lon="1.640589">
        <ele>1346.9</ele>
        <time>2017-07-27T07:11:46Z</time>
      </trkpt>
      <trkpt lat="42.104048" lon="1.640417">
        <ele>1347.4</ele>
        <time>2017-07-27T07:11:55Z</time>
      </trkpt>
      <trkpt lat="42.104085" lon="1.640366">
        <ele>1347.4</ele>
        <time>2017-07-27T07:11:59Z</time>
      </trkpt>
      <trkpt lat="42.104235" lon="1.640271">
        <ele>1348.4</ele>
        <time>2017-07-27T07:12:12Z</time>
      </trkpt>
      <trkpt lat="42.104384" lon="1.640101">
        <ele>1349.3</ele>
        <time>2017-07-27T07:12:26Z</time>
      </trkpt>
      <trkpt lat="42.104550" lon="1.639926">
        <ele>1349.3</ele>
        <time>2017-07-27T07:12:41Z</time>
      </trkpt>
      <trkpt lat="42.104741" lon="1.639826">
        <ele>1351.3</ele>
        <time>2017-07-27T07:12:56Z</time>
      </trkpt>
      <trkpt lat="42.104896" lon="1.639705">
        <ele>1351.3</ele>
        <time>2017-07-27T07:13:09Z</time>
      </trkpt>
      <trkpt lat="42.104956" lon="1.639665">
        <ele>1351.3</ele>
        <time>2017-07-27T07:13:21Z</time>
      </trkpt>
      <trkpt lat="42.104971" lon="1.639659">
        <ele>1351.3</ele>
        <time>2017-07-27T07:13:24Z</time>
      </trkpt>
      <trkpt lat="42.104957" lon="1.639715">
        <ele>1351.3</ele>
        <time>2017-07-27T07:13:29Z</time>
      </trkpt>
      <trkpt lat="42.104952" lon="1.639805">
        <ele>1352.2</ele>
        <time>2017-07-27T07:13:33Z</time>
      </trkpt>
      <trkpt lat="42.104946" lon="1.639879">
        <ele>1352.7</ele>
        <time>2017-07-27T07:13:38Z</time>
      </trkpt>
      <trkpt lat="42.104921" lon="1.640003">
        <ele>1353.2</ele>
        <time>2017-07-27T07:13:46Z</time>
      </trkpt>
      <trkpt lat="42.104911" lon="1.640062">
        <ele>1354.2</ele>
        <time>2017-07-27T07:13:49Z</time>
      </trkpt>
      <trkpt lat="42.104899" lon="1.640106">
        <ele>1354.2</ele>
        <time>2017-07-27T07:13:54Z</time>
      </trkpt>
      <trkpt lat="42.104891" lon="1.640196">
        <ele>1355.1</ele>
        <time>2017-07-27T07:14:06Z</time>
      </trkpt>
      <trkpt lat="42.104888" lon="1.640252">
        <ele>1355.6</ele>
        <time>2017-07-27T07:14:11Z</time>
      </trkpt>
      <trkpt lat="42.104871" lon="1.640280">
        <ele>1355.6</ele>
        <time>2017-07-27T07:14:15Z</time>
      </trkpt>
      <trkpt lat="42.104818" lon="1.640346">
        <ele>1358.5</ele>
        <time>2017-07-27T07:14:24Z</time>
      </trkpt>
      <trkpt lat="42.104811" lon="1.640413">
        <ele>1359.4</ele>
        <time>2017-07-27T07:14:28Z</time>
      </trkpt>
      <trkpt lat="42.104901" lon="1.640501">
        <ele>1361.4</ele>
        <time>2017-07-27T07:14:41Z</time>
      </trkpt>
      <trkpt lat="42.104951" lon="1.640542">
        <ele>1364.2</ele>
        <time>2017-07-27T07:14:52Z</time>
      </trkpt>
      <trkpt lat="42.104972" lon="1.640561">
        <ele>1365.7</ele>
        <time>2017-07-27T07:15:06Z</time>
      </trkpt>
      <trkpt lat="42.104970" lon="1.640585">
        <ele>1365.7</ele>
        <time>2017-07-27T07:15:08Z</time>
      </trkpt>
      <trkpt lat="42.104975" lon="1.640639">
        <ele>1367.1</ele>
        <time>2017-07-27T07:15:15Z</time>
      </trkpt>
      <trkpt lat="42.105034" lon="1.640697">
        <ele>1370.5</ele>
        <time>2017-07-27T07:15:28Z</time>
      </trkpt>
      <trkpt lat="42.105060" lon="1.640752">
        <ele>1371.9</ele>
        <time>2017-07-27T07:15:34Z</time>
      </trkpt>
      <trkpt lat="42.105098" lon="1.640810">
        <ele>1373.9</ele>
        <time>2017-07-27T07:15:46Z</time>
      </trkpt>
      <trkpt lat="42.105138" lon="1.640875">
        <ele>1376.3</ele>
        <time>2017-07-27T07:15:58Z</time>
      </trkpt>
      <trkpt lat="42.105206" lon="1.640931">
        <ele>1379.2</ele>
        <time>2017-07-27T07:16:11Z</time>
      </trkpt>
      <trkpt lat="42.105238" lon="1.640986">
        <ele>1382.0</ele>
        <time>2017-07-27T07:16:22Z</time>
      </trkpt>
      <trkpt lat="42.105315" lon="1.641020">
        <ele>1384.9</ele>
        <time>2017-07-27T07:16:35Z</time>
      </trkpt>
      <trkpt lat="42.105399" lon="1.640994">
        <ele>1385.9</ele>
        <time>2017-07-27T07:16:47Z</time>
      </trkpt>
      <trkpt lat="42.105431" lon="1.641038">
        <ele>1387.8</ele>
        <time>2017-07-27T07:16:58Z</time>
      </trkpt>
      <trkpt lat="42.105481" lon="1.641089">
        <ele>1390.7</ele>
        <time>2017-07-27T07:17:10Z</time>
      </trkpt>
      <trkpt lat="42.105543" lon="1.641123">
        <ele>1393.6</ele>
        <time>2017-07-27T07:17:22Z</time>
      </trkpt>
      <trkpt lat="42.105604" lon="1.641136">
        <ele>1395.5</ele>
        <time>2017-07-27T07:17:34Z</time>
      </trkpt>
      <trkpt lat="42.105607" lon="1.641225">
        <ele>1397.9</ele>
        <time>2017-07-27T07:17:45Z</time>
      </trkpt>
      <trkpt lat="42.105644" lon="1.641291">
        <ele>1400.3</ele>
        <time>2017-07-27T07:17:56Z</time>
      </trkpt>
      <trkpt lat="42.105712" lon="1.641353">
        <ele>1403.2</ele>
        <time>2017-07-27T07:18:09Z</time>
      </trkpt>
      <trkpt lat="42.105765" lon="1.641375">
        <ele>1405.1</ele>
        <time>2017-07-27T07:18:19Z</time>
      </trkpt>
      <trkpt lat="42.105811" lon="1.641431">
        <ele>1408.0</ele>
        <time>2017-07-27T07:18:32Z</time>
      </trkpt>
      <trkpt lat="42.105855" lon="1.641489">
        <ele>1410.4</ele>
        <time>2017-07-27T07:18:44Z</time>
      </trkpt>
      <trkpt lat="42.105909" lon="1.641543">
        <ele>1413.3</ele>
        <time>2017-07-27T07:18:57Z</time>
      </trkpt>
      <trkpt lat="42.105955" lon="1.641595">
        <ele>1416.2</ele>
        <time>2017-07-27T07:19:10Z</time>
      </trkpt>
      <trkpt lat="42.106038" lon="1.641581">
        <ele>1418.6</ele>
        <time>2017-07-27T07:19:22Z</time>
      </trkpt>
      <trkpt lat="42.106070" lon="1.641622">
        <ele>1420.5</ele>
        <time>2017-07-27T07:19:29Z</time>
      </trkpt>
      <trkpt lat="42.106119" lon="1.641658">
        <ele>1422.4</ele>
        <time>2017-07-27T07:19:42Z</time>
      </trkpt>
      <trkpt lat="42.106161" lon="1.641751">
        <ele>1425.3</ele>
        <time>2017-07-27T07:19:54Z</time>
      </trkpt>
      <trkpt lat="42.106217" lon="1.641835">
        <ele>1427.7</ele>
        <time>2017-07-27T07:20:06Z</time>
      </trkpt>
      <trkpt lat="42.106268" lon="1.641920">
        <ele>1430.1</ele>
        <time>2017-07-27T07:20:18Z</time>
      </trkpt>
      <trkpt lat="42.106308" lon="1.641960">
        <ele>1432.0</ele>
        <time>2017-07-27T07:20:33Z</time>
      </trkpt>
      <trkpt lat="42.106373" lon="1.642029">
        <ele>1435.4</ele>
        <time>2017-07-27T07:20:45Z</time>
      </trkpt>
      <trkpt lat="42.106452" lon="1.642087">
        <ele>1437.8</ele>
        <time>2017-07-27T07:20:57Z</time>
      </trkpt>
      <trkpt lat="42.106532" lon="1.642105">
        <ele>1440.7</ele>
        <time>2017-07-27T07:21:08Z</time>
      </trkpt>
      <trkpt lat="42.106612" lon="1.642152">
        <ele>1443.1</ele>
        <time>2017-07-27T07:21:19Z</time>
      </trkpt>
      <trkpt lat="42.106712" lon="1.642193">
        <ele>1445.5</ele>
        <time>2017-07-27T07:21:32Z</time>
      </trkpt>
      <trkpt lat="42.106719" lon="1.642192">
        <ele>1446.4</ele>
        <time>2017-07-27T07:21:33Z</time>
      </trkpt>
      <trkpt lat="42.106740" lon="1.642201">
        <ele>1446.9</ele>
        <time>2017-07-27T07:21:35Z</time>
      </trkpt>
      <trkpt lat="42.106855" lon="1.642214">
        <ele>1449.3</ele>
        <time>2017-07-27T07:21:47Z</time>
      </trkpt>
      <trkpt lat="42.106899" lon="1.642196">
        <ele>1449.3</ele>
        <time>2017-07-27T07:21:51Z</time>
      </trkpt>
      <trkpt lat="42.107041" lon="1.642135">
        <ele>1451.7</ele>
        <time>2017-07-27T07:22:04Z</time>
      </trkpt>
      <trkpt lat="42.107136" lon="1.642157">
        <ele>1452.7</ele>
        <time>2017-07-27T07:22:18Z</time>
      </trkpt>
      <trkpt lat="42.107178" lon="1.642185">
        <ele>1453.2</ele>
        <time>2017-07-27T07:22:30Z</time>
      </trkpt>
      <trkpt lat="42.107173" lon="1.642185">
        <ele>1453.2</ele>
        <time>2017-07-27T07:22:32Z</time>
      </trkpt>
      <trkpt lat="42.107185" lon="1.642265">
        <ele>1453.7</ele>
        <time>2017-07-27T07:22:38Z</time>
      </trkpt>
      <trkpt lat="42.107230" lon="1.642489">
        <ele>1454.6</ele>
        <time>2017-07-27T07:22:53Z</time>
      </trkpt>
      <trkpt lat="42.107292" lon="1.642620">
        <ele>1454.1</ele>
        <time>2017-07-27T07:23:06Z</time>
      </trkpt>
      <trkpt lat="42.107408" lon="1.642751">
        <ele>1451.7</ele>
        <time>2017-07-27T07:23:19Z</time>
      </trkpt>
      <trkpt lat="42.107412" lon="1.642748">
        <ele>1450.8</ele>
        <time>2017-07-27T07:23:34Z</time>
      </trkpt>
      <trkpt lat="42.107408" lon="1.642749">
        <ele>1451.7</ele>
        <time>2017-07-27T07:23:47Z</time>
      </trkpt>
      <trkpt lat="42.107403" lon="1.642760">
        <ele>1451.2</ele>
        <time>2017-07-27T07:24:02Z</time>
      </trkpt>
      <trkpt lat="42.107400" lon="1.642764">
        <ele>1451.7</ele>
        <time>2017-07-27T07:24:38Z</time>
      </trkpt>
      <trkpt lat="42.107397" lon="1.642772">
        <ele>1451.7</ele>
        <time>2017-07-27T07:25:18Z</time>
      </trkpt>
      <trkpt lat="42.107394" lon="1.642770">
        <ele>1451.7</ele>
        <time>2017-07-27T07:25:55Z</time>
      </trkpt>
      <trkpt lat="42.107394" lon="1.642768">
        <ele>1452.7</ele>
        <time>2017-07-27T07:26:32Z</time>
      </trkpt>
      <trkpt lat="42.107394" lon="1.642769">
        <ele>1451.7</ele>
        <time>2017-07-27T07:27:08Z</time>
      </trkpt>
      <trkpt lat="42.107396" lon="1.642774">
        <ele>1451.7</ele>
        <time>2017-07-27T07:27:48Z</time>
      </trkpt>
      <trkpt lat="42.107395" lon="1.642775">
        <ele>1452.2</ele>
        <time>2017-07-27T07:28:25Z</time>
      </trkpt>
      <trkpt lat="42.107396" lon="1.642771">
        <ele>1452.7</ele>
        <time>2017-07-27T07:29:05Z</time>
      </trkpt>
      <trkpt lat="42.107398" lon="1.642768">
        <ele>1452.7</ele>
        <time>2017-07-27T07:29:44Z</time>
      </trkpt>
      <trkpt lat="42.107393" lon="1.642763">
        <ele>1453.2</ele>
        <time>2017-07-27T07:30:19Z</time>
      </trkpt>
      <trkpt lat="42.107390" lon="1.642752">
        <ele>1453.7</ele>
        <time>2017-07-27T07:30:43Z</time>
      </trkpt>
      <trkpt lat="42.107393" lon="1.642762">
        <ele>1453.2</ele>
        <time>2017-07-27T07:30:56Z</time>
      </trkpt>
      <trkpt lat="42.107394" lon="1.642762">
        <ele>1453.2</ele>
        <time>2017-07-27T07:31:35Z</time>
      </trkpt>
      <trkpt lat="42.107396" lon="1.642767">
        <ele>1453.2</ele>
        <time>2017-07-27T07:32:15Z</time>
      </trkpt>
      <trkpt lat="42.107393" lon="1.642765">
        <ele>1453.2</ele>
        <time>2017-07-27T07:32:53Z</time>
      </trkpt>
      <trkpt lat="42.107395" lon="1.642764">
        <ele>1453.7</ele>
        <time>2017-07-27T07:33:30Z</time>
      </trkpt>
      <trkpt lat="42.107396" lon="1.642769">
        <ele>1453.7</ele>
        <time>2017-07-27T07:34:09Z</time>
      </trkpt>
      <trkpt lat="42.107396" lon="1.642771">
        <ele>1453.7</ele>
        <time>2017-07-27T07:34:49Z</time>
      </trkpt>
      <trkpt lat="42.107402" lon="1.642768">
        <ele>1454.1</ele>
        <time>2017-07-27T07:35:28Z</time>
      </trkpt>
      <trkpt lat="42.107399" lon="1.642762">
        <ele>1453.7</ele>
        <time>2017-07-27T07:36:04Z</time>
      </trkpt>
      <trkpt lat="42.107401" lon="1.642767">
        <ele>1454.1</ele>
        <time>2017-07-27T07:36:41Z</time>
      </trkpt>
      <trkpt lat="42.107400" lon="1.642766">
        <ele>1453.7</ele>
        <time>2017-07-27T07:37:13Z</time>
      </trkpt>
      <trkpt lat="42.107401" lon="1.642768">
        <ele>1453.7</ele>
        <time>2017-07-27T07:37:52Z</time>
      </trkpt>
      <trkpt lat="42.107398" lon="1.642772">
        <ele>1453.7</ele>
        <time>2017-07-27T07:38:31Z</time>
      </trkpt>
      <trkpt lat="42.107396" lon="1.642765">
        <ele>1454.1</ele>
        <time>2017-07-27T07:39:11Z</time>
      </trkpt>
      <trkpt lat="42.107394" lon="1.642761">
        <ele>1454.6</ele>
        <time>2017-07-27T07:39:48Z</time>
      </trkpt>
      <trkpt lat="42.107395" lon="1.642765">
        <ele>1454.6</ele>
        <time>2017-07-27T07:40:28Z</time>
      </trkpt>
      <trkpt lat="42.107397" lon="1.642770">
        <ele>1454.6</ele>
        <time>2017-07-27T07:41:05Z</time>
      </trkpt>
      <trkpt lat="42.107395" lon="1.642768">
        <ele>1454.6</ele>
        <time>2017-07-27T07:41:42Z</time>
      </trkpt>
      <trkpt lat="42.107398" lon="1.642764">
        <ele>1455.1</ele>
        <time>2017-07-27T07:42:19Z</time>
      </trkpt>
      <trkpt lat="42.107401" lon="1.642764">
        <ele>1454.6</ele>
        <time>2017-07-27T07:42:58Z</time>
      </trkpt>
      <trkpt lat="42.107401" lon="1.642768">
        <ele>1455.1</ele>
        <time>2017-07-27T07:43:35Z</time>
      </trkpt>
      <trkpt lat="42.107403" lon="1.642769">
        <ele>1455.1</ele>
        <time>2017-07-27T07:44:13Z</time>
      </trkpt>
      <trkpt lat="42.107401" lon="1.642763">
        <ele>1454.6</ele>
        <time>2017-07-27T07:44:45Z</time>
      </trkpt>
      <trkpt lat="42.107397" lon="1.642767">
        <ele>1455.1</ele>
        <time>2017-07-27T07:45:19Z</time>
      </trkpt>
      <trkpt lat="42.107396" lon="1.642771">
        <ele>1455.1</ele>
        <time>2017-07-27T07:45:56Z</time>
      </trkpt>
      <trkpt lat="42.107396" lon="1.642776">
        <ele>1455.6</ele>
        <time>2017-07-27T07:46:36Z</time>
      </trkpt>
      <trkpt lat="42.107435" lon="1.642776">
        <ele>1452.7</ele>
        <time>2017-07-27T07:46:55Z</time>
      </trkpt>
      <trkpt lat="42.107435" lon="1.642773">
        <ele>1454.6</ele>
        <time>2017-07-27T07:46:57Z</time>
      </trkpt>
      <trkpt lat="42.107448" lon="1.642783">
        <ele>1454.1</ele>
        <time>2017-07-27T07:46:59Z</time>
      </trkpt>
      <trkpt lat="42.107453" lon="1.642697">
        <ele>1452.2</ele>
        <time>2017-07-27T07:47:11Z</time>
      </trkpt>
      <trkpt lat="42.107411" lon="1.642568">
        <ele>1449.3</ele>
        <time>2017-07-27T07:47:21Z</time>
      </trkpt>
      <trkpt lat="42.107389" lon="1.642482">
        <ele>1448.8</ele>
        <time>2017-07-27T07:47:36Z</time>
      </trkpt>
      <trkpt lat="42.107389" lon="1.642416">
        <ele>1446.4</ele>
        <time>2017-07-27T07:47:48Z</time>
      </trkpt>
      <trkpt lat="42.107394" lon="1.642308">
        <ele>1445.5</ele>
        <time>2017-07-27T07:47:56Z</time>
      </trkpt>
      <trkpt lat="42.107472" lon="1.642164">
        <ele>1443.1</ele>
        <time>2017-07-27T07:48:10Z</time>
      </trkpt>
      <trkpt lat="42.107558" lon="1.642069">
        <ele>1440.2</ele>
        <time>2017-07-27T07:48:23Z</time>
      </trkpt>
      <trkpt lat="42.107573" lon="1.642162">
        <ele>1437.8</ele>
        <time>2017-07-27T07:48:34Z</time>
      </trkpt>
      <trkpt lat="42.107565" lon="1.642204">
        <ele>1436.3</ele>
        <time>2017-07-27T07:48:38Z</time>
      </trkpt>
      <trkpt lat="42.107565" lon="1.642285">
        <ele>1434.4</ele>
        <time>2017-07-27T07:48:44Z</time>
      </trkpt>
      <trkpt lat="42.107568" lon="1.642300">
        <ele>1434.4</ele>
        <time>2017-07-27T07:48:45Z</time>
      </trkpt>
      <trkpt lat="42.107609" lon="1.642373">
        <ele>1432.0</ele>
        <time>2017-07-27T07:48:52Z</time>
      </trkpt>
      <trkpt lat="42.107656" lon="1.642275">
        <ele>1429.1</ele>
        <time>2017-07-27T07:49:03Z</time>
      </trkpt>
      <trkpt lat="42.107692" lon="1.642275">
        <ele>1426.2</ele>
        <time>2017-07-27T07:49:13Z</time>
      </trkpt>
      <trkpt lat="42.107701" lon="1.642304">
        <ele>1424.8</ele>
        <time>2017-07-27T07:49:16Z</time>
      </trkpt>
      <trkpt lat="42.107728" lon="1.642324">
        <ele>1422.4</ele>
        <time>2017-07-27T07:49:24Z</time>
      </trkpt>
      <trkpt lat="42.107796" lon="1.642416">
        <ele>1419.0</ele>
        <time>2017-07-27T07:49:34Z</time>
      </trkpt>
      <trkpt lat="42.107825" lon="1.642398">
        <ele>1418.1</ele>
        <time>2017-07-27T07:49:38Z</time>
      </trkpt>
      <trkpt lat="42.107853" lon="1.642415">
        <ele>1416.2</ele>
        <time>2017-07-27T07:49:46Z</time>
      </trkpt>
      <trkpt lat="42.107919" lon="1.642508">
        <ele>1412.8</ele>
        <time>2017-07-27T07:49:59Z</time>
      </trkpt>
      <trkpt lat="42.107982" lon="1.642592">
        <ele>1409.4</ele>
        <time>2017-07-27T07:50:09Z</time>
      </trkpt>
      <trkpt lat="42.108060" lon="1.642637">
        <ele>1406.6</ele>
        <time>2017-07-27T07:50:20Z</time>
      </trkpt>
      <trkpt lat="42.108119" lon="1.642670">
        <ele>1404.1</ele>
        <time>2017-07-27T07:50:28Z</time>
      </trkpt>
      <trkpt lat="42.108194" lon="1.642699">
        <ele>1401.3</ele>
        <time>2017-07-27T07:50:36Z</time>
      </trkpt>
      <trkpt lat="42.108291" lon="1.642704">
        <ele>1398.4</ele>
        <time>2017-07-27T07:50:47Z</time>
      </trkpt>
      <trkpt lat="42.108328" lon="1.642715">
        <ele>1396.9</ele>
        <time>2017-07-27T07:50:51Z</time>
      </trkpt>
      <trkpt lat="42.108454" lon="1.642775">
        <ele>1393.6</ele>
        <time>2017-07-27T07:51:04Z</time>
      </trkpt>
      <trkpt lat="42.108521" lon="1.642823">
        <ele>1390.7</ele>
        <time>2017-07-27T07:51:17Z</time>
      </trkpt>
      <trkpt lat="42.108587" lon="1.642846">
        <ele>1387.8</ele>
        <time>2017-07-27T07:51:27Z</time>
      </trkpt>
      <trkpt lat="42.108625" lon="1.642821">
        <ele>1384.9</ele>
        <time>2017-07-27T07:51:38Z</time>
      </trkpt>
      <trkpt lat="42.108637" lon="1.642768">
        <ele>1381.1</ele>
        <time>2017-07-27T07:51:43Z</time>
      </trkpt>
      <trkpt lat="42.108639" lon="1.642760">
        <ele>1383.0</ele>
        <time>2017-07-27T07:51:44Z</time>
      </trkpt>
      <trkpt lat="42.108638" lon="1.642710">
        <ele>1380.6</ele>
        <time>2017-07-27T07:51:54Z</time>
      </trkpt>
      <trkpt lat="42.108722" lon="1.642725">
        <ele>1378.2</ele>
        <time>2017-07-27T07:52:07Z</time>
      </trkpt>
      <trkpt lat="42.108689" lon="1.642658">
        <ele>1376.3</ele>
        <time>2017-07-27T07:52:19Z</time>
      </trkpt>
      <trkpt lat="42.108633" lon="1.642614">
        <ele>1373.4</ele>
        <time>2017-07-27T07:52:27Z</time>
      </trkpt>
      <trkpt lat="42.108552" lon="1.642564">
        <ele>1370.0</ele>
        <time>2017-07-27T07:52:38Z</time>
      </trkpt>
      <trkpt lat="42.108539" lon="1.642552">
        <ele>1369.5</ele>
        <time>2017-07-27T07:52:41Z</time>
      </trkpt>
      <trkpt lat="42.108488" lon="1.642542">
        <ele>1367.1</ele>
        <time>2017-07-27T07:52:50Z</time>
      </trkpt>
      <trkpt lat="42.108550" lon="1.642505">
        <ele>1365.7</ele>
        <time>2017-07-27T07:53:00Z</time>
      </trkpt>
      <trkpt lat="42.108567" lon="1.642494">
        <ele>1364.2</ele>
        <time>2017-07-27T07:53:03Z</time>
      </trkpt>
      <trkpt lat="42.108590" lon="1.642506">
        <ele>1363.3</ele>
        <time>2017-07-27T07:53:07Z</time>
      </trkpt>
      <trkpt lat="42.108647" lon="1.642500">
        <ele>1360.9</ele>
        <time>2017-07-27T07:53:11Z</time>
      </trkpt>
      <trkpt lat="42.108772" lon="1.642583">
        <ele>1360.9</ele>
        <time>2017-07-27T07:53:25Z</time>
      </trkpt>
      <trkpt lat="42.108873" lon="1.642644">
        <ele>1359.0</ele>
        <time>2017-07-27T07:53:34Z</time>
      </trkpt>
      <trkpt lat="42.108908" lon="1.642649">
        <ele>1358.0</ele>
        <time>2017-07-27T07:53:37Z</time>
      </trkpt>
      <trkpt lat="42.108949" lon="1.642683">
        <ele>1357.5</ele>
        <time>2017-07-27T07:53:40Z</time>
      </trkpt>
      <trkpt lat="42.108982" lon="1.642734">
        <ele>1356.6</ele>
        <time>2017-07-27T07:53:44Z</time>
      </trkpt>
      <trkpt lat="42.108988" lon="1.642755">
        <ele>1356.6</ele>
        <time>2017-07-27T07:53:46Z</time>
      </trkpt>
      <trkpt lat="42.108955" lon="1.642932">
        <ele>1352.7</ele>
        <time>2017-07-27T07:53:59Z</time>
      </trkpt>
      <trkpt lat="42.108966" lon="1.643037">
        <ele>1353.2</ele>
        <time>2017-07-27T07:54:06Z</time>
      </trkpt>
      <trkpt lat="42.109001" lon="1.643166">
        <ele>1351.3</ele>
        <time>2017-07-27T07:54:17Z</time>
      </trkpt>
      <trkpt lat="42.109002" lon="1.643196">
        <ele>1351.3</ele>
        <time>2017-07-27T07:54:19Z</time>
      </trkpt>
      <trkpt lat="42.109021" lon="1.643252">
        <ele>1350.8</ele>
        <time>2017-07-27T07:54:22Z</time>
      </trkpt>
      <trkpt lat="42.109075" lon="1.643372">
        <ele>1349.3</ele>
        <time>2017-07-27T07:54:32Z</time>
      </trkpt>
      <trkpt lat="42.109068" lon="1.643451">
        <ele>1348.4</ele>
        <time>2017-07-27T07:54:39Z</time>
      </trkpt>
      <trkpt lat="42.109147" lon="1.643609">
        <ele>1348.9</ele>
        <time>2017-07-27T07:54:52Z</time>
      </trkpt>
      <trkpt lat="42.109188" lon="1.643600">
        <ele>1347.4</ele>
        <time>2017-07-27T07:55:04Z</time>
      </trkpt>
      <trkpt lat="42.109185" lon="1.643583">
        <ele>1346.0</ele>
        <time>2017-07-27T07:55:07Z</time>
      </trkpt>
      <trkpt lat="42.109156" lon="1.643510">
        <ele>1343.1</ele>
        <time>2017-07-27T07:55:17Z</time>
      </trkpt>
      <trkpt lat="42.109163" lon="1.643477">
        <ele>1342.1</ele>
        <time>2017-07-27T07:55:20Z</time>
      </trkpt>
      <trkpt lat="42.109181" lon="1.643367">
        <ele>1341.7</ele>
        <time>2017-07-27T07:55:27Z</time>
      </trkpt>
      <trkpt lat="42.109163" lon="1.643196">
        <ele>1339.7</ele>
        <time>2017-07-27T07:55:37Z</time>
      </trkpt>
      <trkpt lat="42.109130" lon="1.643071">
        <ele>1339.2</ele>
        <time>2017-07-27T07:55:44Z</time>
      </trkpt>
      <trkpt lat="42.109143" lon="1.642906">
        <ele>1336.4</ele>
        <time>2017-07-27T07:55:58Z</time>
      </trkpt>
      <trkpt lat="42.109168" lon="1.642830">
        <ele>1333.5</ele>
        <time>2017-07-27T07:56:05Z</time>
      </trkpt>
      <trkpt lat="42.109172" lon="1.642808">
        <ele>1333.0</ele>
        <time>2017-07-27T07:56:07Z</time>
      </trkpt>
      <trkpt lat="42.109249" lon="1.642617">
        <ele>1330.6</ele>
        <time>2017-07-27T07:56:19Z</time>
      </trkpt>
      <trkpt lat="42.109251" lon="1.642487">
        <ele>1327.7</ele>
        <time>2017-07-27T07:56:28Z</time>
      </trkpt>
      <trkpt lat="42.109322" lon="1.642368">
        <ele>1325.8</ele>
        <time>2017-07-27T07:56:40Z</time>
      </trkpt>
      <trkpt lat="42.109349" lon="1.642357">
        <ele>1326.3</ele>
        <time>2017-07-27T07:56:43Z</time>
      </trkpt>
      <trkpt lat="42.109378" lon="1.642364">
        <ele>1325.8</ele>
        <time>2017-07-27T07:56:45Z</time>
      </trkpt>
      <trkpt lat="42.109515" lon="1.642305">
        <ele>1325.8</ele>
        <time>2017-07-27T07:56:56Z</time>
      </trkpt>
      <trkpt lat="42.109628" lon="1.642192">
        <ele>1327.7</ele>
        <time>2017-07-27T07:57:07Z</time>
      </trkpt>
      <trkpt lat="42.109724" lon="1.642107">
        <ele>1328.7</ele>
        <time>2017-07-27T07:57:19Z</time>
      </trkpt>
      <trkpt lat="42.109773" lon="1.642073">
        <ele>1330.1</ele>
        <time>2017-07-27T07:57:26Z</time>
      </trkpt>
      <trkpt lat="42.109818" lon="1.642053">
        <ele>1330.1</ele>
        <time>2017-07-27T07:57:29Z</time>
      </trkpt>
      <trkpt lat="42.109961" lon="1.641936">
        <ele>1332.5</ele>
        <time>2017-07-27T07:57:41Z</time>
      </trkpt>
      <trkpt lat="42.110102" lon="1.641871">
        <ele>1334.0</ele>
        <time>2017-07-27T07:57:53Z</time>
      </trkpt>
      <trkpt lat="42.110150" lon="1.641855">
        <ele>1334.4</ele>
        <time>2017-07-27T07:57:56Z</time>
      </trkpt>
      <trkpt lat="42.110178" lon="1.641843">
        <ele>1334.9</ele>
        <time>2017-07-27T07:57:58Z</time>
      </trkpt>
      <trkpt lat="42.110279" lon="1.641807">
        <ele>1335.4</ele>
        <time>2017-07-27T07:58:09Z</time>
      </trkpt>
      <trkpt lat="42.110385" lon="1.641744">
        <ele>1335.9</ele>
        <time>2017-07-27T07:58:17Z</time>
      </trkpt>
      <trkpt lat="42.110461" lon="1.641683">
        <ele>1337.8</ele>
        <time>2017-07-27T07:58:26Z</time>
      </trkpt>
      <trkpt lat="42.110508" lon="1.641626">
        <ele>1338.8</ele>
        <time>2017-07-27T07:58:31Z</time>
      </trkpt>
      <trkpt lat="42.110526" lon="1.641569">
        <ele>1339.2</ele>
        <time>2017-07-27T07:58:36Z</time>
      </trkpt>
      <trkpt lat="42.110606" lon="1.641486">
        <ele>1341.2</ele>
        <time>2017-07-27T07:58:47Z</time>
      </trkpt>
      <trkpt lat="42.110688" lon="1.641417">
        <ele>1341.2</ele>
        <time>2017-07-27T07:58:54Z</time>
      </trkpt>
      <trkpt lat="42.110725" lon="1.641394">
        <ele>1341.2</ele>
        <time>2017-07-27T07:58:57Z</time>
      </trkpt>
      <trkpt lat="42.110895" lon="1.641307">
        <ele>1341.7</ele>
        <time>2017-07-27T07:59:10Z</time>
      </trkpt>
      <trkpt lat="42.110907" lon="1.641307">
        <ele>1342.1</ele>
        <time>2017-07-27T07:59:11Z</time>
      </trkpt>
      <trkpt lat="42.111043" lon="1.641243">
        <ele>1342.6</ele>
        <time>2017-07-27T07:59:23Z</time>
      </trkpt>
      <trkpt lat="42.111073" lon="1.641132">
        <ele>1342.6</ele>
        <time>2017-07-27T07:59:31Z</time>
      </trkpt>
      <trkpt lat="42.111119" lon="1.641025">
        <ele>1341.2</ele>
        <time>2017-07-27T07:59:38Z</time>
      </trkpt>
      <trkpt lat="42.111232" lon="1.640949">
        <ele>1339.2</ele>
        <time>2017-07-27T07:59:49Z</time>
      </trkpt>
      <trkpt lat="42.111377" lon="1.640894">
        <ele>1337.3</ele>
        <time>2017-07-27T08:00:00Z</time>
      </trkpt>
      <trkpt lat="42.111395" lon="1.640870">
        <ele>1336.8</ele>
        <time>2017-07-27T08:00:02Z</time>
      </trkpt>
      <trkpt lat="42.111521" lon="1.640834">
        <ele>1334.0</ele>
        <time>2017-07-27T08:00:13Z</time>
      </trkpt>
      <trkpt lat="42.111545" lon="1.640829">
        <ele>1333.0</ele>
        <time>2017-07-27T08:00:16Z</time>
      </trkpt>
      <trkpt lat="42.111635" lon="1.640843">
        <ele>1329.2</ele>
        <time>2017-07-27T08:00:27Z</time>
      </trkpt>
      <trkpt lat="42.111647" lon="1.640844">
        <ele>1329.2</ele>
        <time>2017-07-27T08:00:28Z</time>
      </trkpt>
      <trkpt lat="42.111733" lon="1.640903">
        <ele>1325.8</ele>
        <time>2017-07-27T08:00:40Z</time>
      </trkpt>
      <trkpt lat="42.111753" lon="1.640933">
        <ele>1323.9</ele>
        <time>2017-07-27T08:00:44Z</time>
      </trkpt>
      <trkpt lat="42.111778" lon="1.640951">
        <ele>1322.9</ele>
        <time>2017-07-27T08:00:46Z</time>
      </trkpt>
      <trkpt lat="42.111904" lon="1.640969">
        <ele>1321.0</ele>
        <time>2017-07-27T08:00:57Z</time>
      </trkpt>
      <trkpt lat="42.111952" lon="1.640909">
        <ele>1317.6</ele>
        <time>2017-07-27T08:01:07Z</time>
      </trkpt>
      <trkpt lat="42.111952" lon="1.640860">
        <ele>1315.7</ele>
        <time>2017-07-27T08:01:16Z</time>
      </trkpt>
      <trkpt lat="42.111961" lon="1.640742">
        <ele>1312.8</ele>
        <time>2017-07-27T08:01:26Z</time>
      </trkpt>
      <trkpt lat="42.111982" lon="1.640690">
        <ele>1311.9</ele>
        <time>2017-07-27T08:01:29Z</time>
      </trkpt>
      <trkpt lat="42.112055" lon="1.640520">
        <ele>1310.4</ele>
        <time>2017-07-27T08:01:40Z</time>
      </trkpt>
      <trkpt lat="42.112070" lon="1.640392">
        <ele>1307.1</ele>
        <time>2017-07-27T08:01:50Z</time>
      </trkpt>
      <trkpt lat="42.112075" lon="1.640323">
        <ele>1304.2</ele>
        <time>2017-07-27T08:01:59Z</time>
      </trkpt>
      <trkpt lat="42.112081" lon="1.640265">
        <ele>1302.2</ele>
        <time>2017-07-27T08:02:09Z</time>
      </trkpt>
      <trkpt lat="42.112117" lon="1.640224">
        <ele>1299.4</ele>
        <time>2017-07-27T08:02:20Z</time>
      </trkpt>
      <trkpt lat="42.112117" lon="1.640223">
        <ele>1299.4</ele>
        <time>2017-07-27T08:02:21Z</time>
      </trkpt>
      <trkpt lat="42.112148" lon="1.640161">
        <ele>1297.4</ele>
        <time>2017-07-27T08:02:30Z</time>
      </trkpt>
      <trkpt lat="42.112152" lon="1.640081">
        <ele>1296.0</ele>
        <time>2017-07-27T08:02:38Z</time>
      </trkpt>
      <trkpt lat="42.112154" lon="1.640028">
        <ele>1293.1</ele>
        <time>2017-07-27T08:02:49Z</time>
      </trkpt>
      <trkpt lat="42.112160" lon="1.640021">
        <ele>1293.1</ele>
        <time>2017-07-27T08:02:50Z</time>
      </trkpt>
      <trkpt lat="42.112167" lon="1.639962">
        <ele>1291.7</ele>
        <time>2017-07-27T08:03:03Z</time>
      </trkpt>
      <trkpt lat="42.112140" lon="1.639934">
        <ele>1288.3</ele>
        <time>2017-07-27T08:03:11Z</time>
      </trkpt>
      <trkpt lat="42.112168" lon="1.639889">
        <ele>1286.9</ele>
        <time>2017-07-27T08:03:17Z</time>
      </trkpt>
      <trkpt lat="42.112180" lon="1.639823">
        <ele>1284.9</ele>
        <time>2017-07-27T08:03:25Z</time>
      </trkpt>
      <trkpt lat="42.112183" lon="1.639730">
        <ele>1282.5</ele>
        <time>2017-07-27T08:03:36Z</time>
      </trkpt>
      <trkpt lat="42.112185" lon="1.639722">
        <ele>1281.6</ele>
        <time>2017-07-27T08:03:38Z</time>
      </trkpt>
      <trkpt lat="42.112196" lon="1.639719">
        <ele>1280.6</ele>
        <time>2017-07-27T08:03:40Z</time>
      </trkpt>
      <trkpt lat="42.112230" lon="1.639631">
        <ele>1278.7</ele>
        <time>2017-07-27T08:03:50Z</time>
      </trkpt>
      <trkpt lat="42.112251" lon="1.639610">
        <ele>1278.2</ele>
        <time>2017-07-27T08:03:55Z</time>
      </trkpt>
      <trkpt lat="42.112290" lon="1.639549">
        <ele>1275.8</ele>
        <time>2017-07-27T08:04:03Z</time>
      </trkpt>
      <trkpt lat="42.112339" lon="1.639461">
        <ele>1272.9</ele>
        <time>2017-07-27T08:04:12Z</time>
      </trkpt>
      <trkpt lat="42.112339" lon="1.639385">
        <ele>1271.5</ele>
        <time>2017-07-27T08:04:19Z</time>
      </trkpt>
      <trkpt lat="42.112319" lon="1.639343">
        <ele>1267.6</ele>
        <time>2017-07-27T08:04:29Z</time>
      </trkpt>
      <trkpt lat="42.112266" lon="1.639263">
        <ele>1267.2</ele>
        <time>2017-07-27T08:04:39Z</time>
      </trkpt>
      <trkpt lat="42.112263" lon="1.639086">
        <ele>1264.3</ele>
        <time>2017-07-27T08:04:52Z</time>
      </trkpt>
      <trkpt lat="42.112280" lon="1.639019">
        <ele>1261.9</ele>
        <time>2017-07-27T08:04:59Z</time>
      </trkpt>
      <trkpt lat="42.112365" lon="1.638920">
        <ele>1258.0</ele>
        <time>2017-07-27T08:05:12Z</time>
      </trkpt>
      <trkpt lat="42.112397" lon="1.638826">
        <ele>1256.1</ele>
        <time>2017-07-27T08:05:22Z</time>
      </trkpt>
      <trkpt lat="42.112393" lon="1.638668">
        <ele>1253.2</ele>
        <time>2017-07-27T08:05:33Z</time>
      </trkpt>
      <trkpt lat="42.112431" lon="1.638549">
        <ele>1250.8</ele>
        <time>2017-07-27T08:05:44Z</time>
      </trkpt>
      <trkpt lat="42.112439" lon="1.638539">
        <ele>1250.8</ele>
        <time>2017-07-27T08:05:45Z</time>
      </trkpt>
      <trkpt lat="42.112467" lon="1.638465">
        <ele>1248.9</ele>
        <time>2017-07-27T08:05:54Z</time>
      </trkpt>
      <trkpt lat="42.112486" lon="1.638399">
        <ele>1247.0</ele>
        <time>2017-07-27T08:06:00Z</time>
      </trkpt>
      <trkpt lat="42.112514" lon="1.638308">
        <ele>1245.0</ele>
        <time>2017-07-27T08:06:07Z</time>
      </trkpt>
      <trkpt lat="42.112518" lon="1.638198">
        <ele>1243.1</ele>
        <time>2017-07-27T08:06:16Z</time>
      </trkpt>
      <trkpt lat="42.112529" lon="1.638134">
        <ele>1242.2</ele>
        <time>2017-07-27T08:06:21Z</time>
      </trkpt>
      <trkpt lat="42.112540" lon="1.638092">
        <ele>1241.2</ele>
        <time>2017-07-27T08:06:23Z</time>
      </trkpt>
      <trkpt lat="42.112552" lon="1.637999">
        <ele>1239.3</ele>
        <time>2017-07-27T08:06:31Z</time>
      </trkpt>
      <trkpt lat="42.112612" lon="1.637911">
        <ele>1237.3</ele>
        <time>2017-07-27T08:06:40Z</time>
      </trkpt>
      <trkpt lat="42.112641" lon="1.637869">
        <ele>1235.9</ele>
        <time>2017-07-27T08:06:45Z</time>
      </trkpt>
      <trkpt lat="42.112701" lon="1.637762">
        <ele>1233.0</ele>
        <time>2017-07-27T08:06:58Z</time>
      </trkpt>
      <trkpt lat="42.112703" lon="1.637692">
        <ele>1231.6</ele>
        <time>2017-07-27T08:07:03Z</time>
      </trkpt>
      <trkpt lat="42.112698" lon="1.637631">
        <ele>1230.1</ele>
        <time>2017-07-27T08:07:07Z</time>
      </trkpt>
      <trkpt lat="42.112673" lon="1.637613">
        <ele>1227.7</ele>
        <time>2017-07-27T08:07:14Z</time>
      </trkpt>
      <trkpt lat="42.112618" lon="1.637516">
        <ele>1224.9</ele>
        <time>2017-07-27T08:07:26Z</time>
      </trkpt>
      <trkpt lat="42.112623" lon="1.637375">
        <ele>1221.5</ele>
        <time>2017-07-27T08:07:38Z</time>
      </trkpt>
      <trkpt lat="42.112629" lon="1.637276">
        <ele>1219.6</ele>
        <time>2017-07-27T08:07:47Z</time>
      </trkpt>
      <trkpt lat="42.112658" lon="1.637241">
        <ele>1218.1</ele>
        <time>2017-07-27T08:07:50Z</time>
      </trkpt>
      <trkpt lat="42.112653" lon="1.637148">
        <ele>1217.2</ele>
        <time>2017-07-27T08:07:55Z</time>
      </trkpt>
      <trkpt lat="42.112639" lon="1.637036">
        <ele>1214.3</ele>
        <time>2017-07-27T08:08:05Z</time>
      </trkpt>
      <trkpt lat="42.112646" lon="1.636988">
        <ele>1212.8</ele>
        <time>2017-07-27T08:08:09Z</time>
      </trkpt>
      <trkpt lat="42.112657" lon="1.636907">
        <ele>1210.9</ele>
        <time>2017-07-27T08:08:15Z</time>
      </trkpt>
      <trkpt lat="42.112645" lon="1.636874">
        <ele>1210.4</ele>
        <time>2017-07-27T08:08:17Z</time>
      </trkpt>
      <trkpt lat="42.112645" lon="1.636755">
        <ele>1208.5</ele>
        <time>2017-07-27T08:08:28Z</time>
      </trkpt>
      <trkpt lat="42.112650" lon="1.636686">
        <ele>1207.6</ele>
        <time>2017-07-27T08:08:33Z</time>
      </trkpt>
      <trkpt lat="42.112656" lon="1.636636">
        <ele>1206.6</ele>
        <time>2017-07-27T08:08:38Z</time>
      </trkpt>
      <trkpt lat="42.112702" lon="1.636503">
        <ele>1203.7</ele>
        <time>2017-07-27T08:08:48Z</time>
      </trkpt>
      <trkpt lat="42.112724" lon="1.636349">
        <ele>1200.8</ele>
        <time>2017-07-27T08:09:01Z</time>
      </trkpt>
      <trkpt lat="42.112732" lon="1.636249">
        <ele>1197.5</ele>
        <time>2017-07-27T08:09:09Z</time>
      </trkpt>
      <trkpt lat="42.112818" lon="1.636274">
        <ele>1194.6</ele>
        <time>2017-07-27T08:09:18Z</time>
      </trkpt>
      <trkpt lat="42.112866" lon="1.636255">
        <ele>1192.2</ele>
        <time>2017-07-27T08:09:23Z</time>
      </trkpt>
      <trkpt lat="42.112900" lon="1.636253">
        <ele>1192.2</ele>
        <time>2017-07-27T08:09:24Z</time>
      </trkpt>
      <trkpt lat="42.112922" lon="1.636241">
        <ele>1191.2</ele>
        <time>2017-07-27T08:09:25Z</time>
      </trkpt>
      <trkpt lat="42.112980" lon="1.636260">
        <ele>1190.7</ele>
        <time>2017-07-27T08:09:29Z</time>
      </trkpt>
      <trkpt lat="42.112954" lon="1.636618">
        <ele>1190.2</ele>
        <time>2017-07-27T08:09:41Z</time>
      </trkpt>
      <trkpt lat="42.112909" lon="1.636585">
        <ele>1188.8</ele>
        <time>2017-07-27T08:09:47Z</time>
      </trkpt>
      <trkpt lat="42.112848" lon="1.636473">
        <ele>1185.9</ele>
        <time>2017-07-27T08:10:01Z</time>
      </trkpt>
      <trkpt lat="42.112842" lon="1.636401">
        <ele>1183.5</ele>
        <time>2017-07-27T08:10:07Z</time>
      </trkpt>
      <trkpt lat="42.112840" lon="1.636378">
        <ele>1183.5</ele>
        <time>2017-07-27T08:10:09Z</time>
      </trkpt>
      <trkpt lat="42.112816" lon="1.636288">
        <ele>1182.6</ele>
        <time>2017-07-27T08:10:16Z</time>
      </trkpt>
      <trkpt lat="42.112789" lon="1.636251">
        <ele>1182.6</ele>
        <time>2017-07-27T08:10:19Z</time>
      </trkpt>
      <trkpt lat="42.112690" lon="1.636067">
        <ele>1181.6</ele>
        <time>2017-07-27T08:10:32Z</time>
      </trkpt>
      <trkpt lat="42.112597" lon="1.635910">
        <ele>1181.1</ele>
        <time>2017-07-27T08:10:43Z</time>
      </trkpt>
      <trkpt lat="42.112578" lon="1.635839">
        <ele>1180.6</ele>
        <time>2017-07-27T08:10:47Z</time>
      </trkpt>
      <trkpt lat="42.112512" lon="1.635692">
        <ele>1177.3</ele>
        <time>2017-07-27T08:10:59Z</time>
      </trkpt>
      <trkpt lat="42.112504" lon="1.635604">
        <ele>1176.8</ele>
        <time>2017-07-27T08:11:05Z</time>
      </trkpt>
      <trkpt lat="42.112522" lon="1.635543">
        <ele>1176.3</ele>
        <time>2017-07-27T08:11:08Z</time>
      </trkpt>
      <trkpt lat="42.112610" lon="1.635350">
        <ele>1175.8</ele>
        <time>2017-07-27T08:11:19Z</time>
      </trkpt>
      <trkpt lat="42.112673" lon="1.635217">
        <ele>1175.8</ele>
        <time>2017-07-27T08:11:28Z</time>
      </trkpt>
      <trkpt lat="42.112684" lon="1.635144">
        <ele>1176.3</ele>
        <time>2017-07-27T08:11:33Z</time>
      </trkpt>
      <trkpt lat="42.112697" lon="1.635096">
        <ele>1175.8</ele>
        <time>2017-07-27T08:11:36Z</time>
      </trkpt>
      <trkpt lat="42.112737" lon="1.635002">
        <ele>1175.8</ele>
        <time>2017-07-27T08:11:41Z</time>
      </trkpt>
      <trkpt lat="42.112788" lon="1.634915">
        <ele>1176.3</ele>
        <time>2017-07-27T08:11:47Z</time>
      </trkpt>
      <trkpt lat="42.112832" lon="1.634874">
        <ele>1177.3</ele>
        <time>2017-07-27T08:11:52Z</time>
      </trkpt>
      <trkpt lat="42.112855" lon="1.634868">
        <ele>1177.3</ele>
        <time>2017-07-27T08:12:04Z</time>
      </trkpt>
      <trkpt lat="42.112849" lon="1.634857">
        <ele>1176.8</ele>
        <time>2017-07-27T08:12:26Z</time>
      </trkpt>
      <trkpt lat="42.112834" lon="1.634844">
        <ele>1176.8</ele>
        <time>2017-07-27T08:12:28Z</time>
      </trkpt>
      <trkpt lat="42.112807" lon="1.634698">
        <ele>1176.3</ele>
        <time>2017-07-27T08:12:37Z</time>
      </trkpt>
      <trkpt lat="42.112797" lon="1.634640">
        <ele>1175.8</ele>
        <time>2017-07-27T08:12:41Z</time>
      </trkpt>
      <trkpt lat="42.112801" lon="1.634610">
        <ele>1176.3</ele>
        <time>2017-07-27T08:12:43Z</time>
      </trkpt>
      <trkpt lat="42.112900" lon="1.634409">
        <ele>1173.9</ele>
        <time>2017-07-27T08:12:56Z</time>
      </trkpt>
      <trkpt lat="42.112928" lon="1.634344">
        <ele>1172.9</ele>
        <time>2017-07-27T08:13:01Z</time>
      </trkpt>
      <trkpt lat="42.112932" lon="1.634250">
        <ele>1172.5</ele>
        <time>2017-07-27T08:13:06Z</time>
      </trkpt>
      <trkpt lat="42.112900" lon="1.634083">
        <ele>1171.0</ele>
        <time>2017-07-27T08:13:15Z</time>
      </trkpt>
      <trkpt lat="42.112905" lon="1.634021">
        <ele>1170.1</ele>
        <time>2017-07-27T08:13:19Z</time>
      </trkpt>
      <trkpt lat="42.113046" lon="1.633841">
        <ele>1168.6</ele>
        <time>2017-07-27T08:13:33Z</time>
      </trkpt>
      <trkpt lat="42.113121" lon="1.633768">
        <ele>1167.7</ele>
        <time>2017-07-27T08:13:40Z</time>
      </trkpt>
      <trkpt lat="42.113137" lon="1.633632">
        <ele>1164.8</ele>
        <time>2017-07-27T08:13:51Z</time>
      </trkpt>
      <trkpt lat="42.113130" lon="1.633599">
        <ele>1163.8</ele>
        <time>2017-07-27T08:13:53Z</time>
      </trkpt>
      <trkpt lat="42.113128" lon="1.633513">
        <ele>1161.9</ele>
        <time>2017-07-27T08:13:58Z</time>
      </trkpt>
      <trkpt lat="42.113137" lon="1.633467">
        <ele>1160.9</ele>
        <time>2017-07-27T08:14:01Z</time>
      </trkpt>
      <trkpt lat="42.113133" lon="1.633404">
        <ele>1159.5</ele>
        <time>2017-07-27T08:14:05Z</time>
      </trkpt>
      <trkpt lat="42.113122" lon="1.633375">
        <ele>1160.0</ele>
        <time>2017-07-27T08:14:07Z</time>
      </trkpt>
      <trkpt lat="42.113116" lon="1.633279">
        <ele>1157.6</ele>
        <time>2017-07-27T08:14:14Z</time>
      </trkpt>
      <trkpt lat="42.113108" lon="1.633200">
        <ele>1156.1</ele>
        <time>2017-07-27T08:14:18Z</time>
      </trkpt>
      <trkpt lat="42.113114" lon="1.633103">
        <ele>1154.7</ele>
        <time>2017-07-27T08:14:24Z</time>
      </trkpt>
      <trkpt lat="42.113147" lon="1.632870">
        <ele>1151.3</ele>
        <time>2017-07-27T08:14:37Z</time>
      </trkpt>
      <trkpt lat="42.113154" lon="1.632865">
        <ele>1151.3</ele>
        <time>2017-07-27T08:14:38Z</time>
      </trkpt>
      <trkpt lat="42.113195" lon="1.632757">
        <ele>1150.3</ele>
        <time>2017-07-27T08:14:43Z</time>
      </trkpt>
      <trkpt lat="42.113198" lon="1.632613">
        <ele>1149.4</ele>
        <time>2017-07-27T08:14:51Z</time>
      </trkpt>
      <trkpt lat="42.113209" lon="1.632501">
        <ele>1149.4</ele>
        <time>2017-07-27T08:14:56Z</time>
      </trkpt>
      <trkpt lat="42.113198" lon="1.632440">
        <ele>1148.9</ele>
        <time>2017-07-27T08:14:59Z</time>
      </trkpt>
      <trkpt lat="42.113194" lon="1.632349">
        <ele>1148.9</ele>
        <time>2017-07-27T08:15:03Z</time>
      </trkpt>
      <trkpt lat="42.113135" lon="1.632196">
        <ele>1147.0</ele>
        <time>2017-07-27T08:15:12Z</time>
      </trkpt>
      <trkpt lat="42.113122" lon="1.632116">
        <ele>1145.6</ele>
        <time>2017-07-27T08:15:17Z</time>
      </trkpt>
      <trkpt lat="42.113084" lon="1.632074">
        <ele>1144.6</ele>
        <time>2017-07-27T08:15:21Z</time>
      </trkpt>
      <trkpt lat="42.113034" lon="1.632013">
        <ele>1142.7</ele>
        <time>2017-07-27T08:15:26Z</time>
      </trkpt>
      <trkpt lat="42.113014" lon="1.631912">
        <ele>1142.2</ele>
        <time>2017-07-27T08:15:33Z</time>
      </trkpt>
      <trkpt lat="42.113106" lon="1.631722">
        <ele>1143.1</ele>
        <time>2017-07-27T08:15:47Z</time>
      </trkpt>
      <trkpt lat="42.113149" lon="1.631636">
        <ele>1143.1</ele>
        <time>2017-07-27T08:15:53Z</time>
      </trkpt>
      <trkpt lat="42.113186" lon="1.631570">
        <ele>1143.1</ele>
        <time>2017-07-27T08:15:58Z</time>
      </trkpt>
      <trkpt lat="42.113233" lon="1.631438">
        <ele>1141.7</ele>
        <time>2017-07-27T08:16:06Z</time>
      </trkpt>
      <trkpt lat="42.113313" lon="1.631268">
        <ele>1137.9</ele>
        <time>2017-07-27T08:16:18Z</time>
      </trkpt>
      <trkpt lat="42.113398" lon="1.631060">
        <ele>1134.5</ele>
        <time>2017-07-27T08:16:30Z</time>
      </trkpt>
      <trkpt lat="42.113377" lon="1.630971">
        <ele>1133.5</ele>
        <time>2017-07-27T08:16:35Z</time>
      </trkpt>
      <trkpt lat="42.113380" lon="1.630936">
        <ele>1133.1</ele>
        <time>2017-07-27T08:16:37Z</time>
      </trkpt>
      <trkpt lat="42.113373" lon="1.630777">
        <ele>1132.1</ele>
        <time>2017-07-27T08:16:48Z</time>
      </trkpt>
      <trkpt lat="42.113359" lon="1.630667">
        <ele>1129.2</ele>
        <time>2017-07-27T08:16:59Z</time>
      </trkpt>
      <trkpt lat="42.113354" lon="1.630617">
        <ele>1128.2</ele>
        <time>2017-07-27T08:17:03Z</time>
      </trkpt>
      <trkpt lat="42.113404" lon="1.630427">
        <ele>1124.4</ele>
        <time>2017-07-27T08:17:16Z</time>
      </trkpt>
      <trkpt lat="42.113404" lon="1.630390">
        <ele>1124.4</ele>
        <time>2017-07-27T08:17:18Z</time>
      </trkpt>
      <trkpt lat="42.113400" lon="1.630352">
        <ele>1123.4</ele>
        <time>2017-07-27T08:17:20Z</time>
      </trkpt>
      <trkpt lat="42.113372" lon="1.630205">
        <ele>1123.0</ele>
        <time>2017-07-27T08:17:26Z</time>
      </trkpt>
      <trkpt lat="42.113341" lon="1.630063">
        <ele>1122.0</ele>
        <time>2017-07-27T08:17:32Z</time>
      </trkpt>
      <trkpt lat="42.113279" lon="1.629898">
        <ele>1119.1</ele>
        <time>2017-07-27T08:17:42Z</time>
      </trkpt>
      <trkpt lat="42.113273" lon="1.629797">
        <ele>1118.6</ele>
        <time>2017-07-27T08:17:48Z</time>
      </trkpt>
      <trkpt lat="42.113357" lon="1.629673">
        <ele>1117.7</ele>
        <time>2017-07-27T08:17:57Z</time>
      </trkpt>
      <trkpt lat="42.113420" lon="1.629418">
        <ele>1114.3</ele>
        <time>2017-07-27T08:18:10Z</time>
      </trkpt>
      <trkpt lat="42.113414" lon="1.629240">
        <ele>1111.4</ele>
        <time>2017-07-27T08:18:22Z</time>
      </trkpt>
      <trkpt lat="42.113417" lon="1.629074">
        <ele>1110.0</ele>
        <time>2017-07-27T08:18:32Z</time>
      </trkpt>
      <trkpt lat="42.113421" lon="1.629019">
        <ele>1109.5</ele>
        <time>2017-07-27T08:18:35Z</time>
      </trkpt>
      <trkpt lat="42.113462" lon="1.628786">
        <ele>1110.0</ele>
        <time>2017-07-27T08:18:47Z</time>
      </trkpt>
      <trkpt lat="42.113489" lon="1.628655">
        <ele>1109.5</ele>
        <time>2017-07-27T08:18:54Z</time>
      </trkpt>
      <trkpt lat="42.113493" lon="1.628600">
        <ele>1109.5</ele>
        <time>2017-07-27T08:18:57Z</time>
      </trkpt>
      <trkpt lat="42.113506" lon="1.628562">
        <ele>1109.5</ele>
        <time>2017-07-27T08:18:59Z</time>
      </trkpt>
      <trkpt lat="42.113513" lon="1.628519">
        <ele>1110.0</ele>
        <time>2017-07-27T08:19:02Z</time>
      </trkpt>
      <trkpt lat="42.113479" lon="1.628501">
        <ele>1110.0</ele>
        <time>2017-07-27T08:19:14Z</time>
      </trkpt>
      <trkpt lat="42.113452" lon="1.628556">
        <ele>1110.5</ele>
        <time>2017-07-27T08:19:25Z</time>
      </trkpt>
      <trkpt lat="42.113436" lon="1.628599">
        <ele>1110.9</ele>
        <time>2017-07-27T08:19:29Z</time>
      </trkpt>
      <trkpt lat="42.113409" lon="1.628666">
        <ele>1112.4</ele>
        <time>2017-07-27T08:19:45Z</time>
      </trkpt>
      <trkpt lat="42.113374" lon="1.628720">
        <ele>1114.3</ele>
        <time>2017-07-27T08:19:55Z</time>
      </trkpt>
      <trkpt lat="42.113249" lon="1.628893">
        <ele>1115.7</ele>
        <time>2017-07-27T08:20:09Z</time>
      </trkpt>
      <trkpt lat="42.113221" lon="1.628955">
        <ele>1119.1</ele>
        <time>2017-07-27T08:20:17Z</time>
      </trkpt>
      <trkpt lat="42.113214" lon="1.628964">
        <ele>1119.1</ele>
        <time>2017-07-27T08:20:18Z</time>
      </trkpt>
      <trkpt lat="42.113154" lon="1.629064">
        <ele>1120.6</ele>
        <time>2017-07-27T08:20:30Z</time>
      </trkpt>
      <trkpt lat="42.113137" lon="1.629160">
        <ele>1123.0</ele>
        <time>2017-07-27T08:20:41Z</time>
      </trkpt>
      <trkpt lat="42.113068" lon="1.629259">
        <ele>1123.4</ele>
        <time>2017-07-27T08:20:53Z</time>
      </trkpt>
      <trkpt lat="42.113035" lon="1.629340">
        <ele>1122.5</ele>
        <time>2017-07-27T08:21:03Z</time>
      </trkpt>
      <trkpt lat="42.112897" lon="1.629481">
        <ele>1121.5</ele>
        <time>2017-07-27T08:21:15Z</time>
      </trkpt>
      <trkpt lat="42.112879" lon="1.629489">
        <ele>1120.6</ele>
        <time>2017-07-27T08:21:17Z</time>
      </trkpt>
      <trkpt lat="42.112818" lon="1.629607">
        <ele>1122.5</ele>
        <time>2017-07-27T08:21:28Z</time>
      </trkpt>
      <trkpt lat="42.112755" lon="1.629722">
        <ele>1123.9</ele>
        <time>2017-07-27T08:21:40Z</time>
      </trkpt>
      <trkpt lat="42.112746" lon="1.629750">
        <ele>1124.9</ele>
        <time>2017-07-27T08:21:44Z</time>
      </trkpt>
      <trkpt lat="42.112681" lon="1.629788">
        <ele>1123.9</ele>
        <time>2017-07-27T08:21:49Z</time>
      </trkpt>
      <trkpt lat="42.112656" lon="1.629785">
        <ele>1124.4</ele>
        <time>2017-07-27T08:21:51Z</time>
      </trkpt>
      <trkpt lat="42.112592" lon="1.629818">
        <ele>1125.4</ele>
        <time>2017-07-27T08:22:02Z</time>
      </trkpt>
      <trkpt lat="42.112540" lon="1.629891">
        <ele>1126.8</ele>
        <time>2017-07-27T08:22:10Z</time>
      </trkpt>
      <trkpt lat="42.112441" lon="1.629936">
        <ele>1129.2</ele>
        <time>2017-07-27T08:22:21Z</time>
      </trkpt>
      <trkpt lat="42.112343" lon="1.629958">
        <ele>1127.8</ele>
        <time>2017-07-27T08:22:30Z</time>
      </trkpt>
      <trkpt lat="42.112174" lon="1.629895">
        <ele>1127.8</ele>
        <time>2017-07-27T08:22:42Z</time>
      </trkpt>
      <trkpt lat="42.112082" lon="1.629827">
        <ele>1129.7</ele>
        <time>2017-07-27T08:22:52Z</time>
      </trkpt>
      <trkpt lat="42.112054" lon="1.629684">
        <ele>1132.1</ele>
        <time>2017-07-27T08:23:03Z</time>
      </trkpt>
      <trkpt lat="42.112014" lon="1.629620">
        <ele>1133.5</ele>
        <time>2017-07-27T08:23:15Z</time>
      </trkpt>
      <trkpt lat="42.111983" lon="1.629593">
        <ele>1135.0</ele>
        <time>2017-07-27T08:23:35Z</time>
      </trkpt>
      <trkpt lat="42.111896" lon="1.629503">
        <ele>1136.9</ele>
        <time>2017-07-27T08:23:45Z</time>
      </trkpt>
      <trkpt lat="42.111800" lon="1.629448">
        <ele>1138.8</ele>
        <time>2017-07-27T08:23:57Z</time>
      </trkpt>
      <trkpt lat="42.111783" lon="1.629449">
        <ele>1138.3</ele>
        <time>2017-07-27T08:23:59Z</time>
      </trkpt>
      <trkpt lat="42.111693" lon="1.629461">
        <ele>1138.8</ele>
        <time>2017-07-27T08:24:05Z</time>
      </trkpt>
      <trkpt lat="42.111624" lon="1.629464">
        <ele>1138.8</ele>
        <time>2017-07-27T08:24:12Z</time>
      </trkpt>
      <trkpt lat="42.111578" lon="1.629420">
        <ele>1138.8</ele>
        <time>2017-07-27T08:24:17Z</time>
      </trkpt>
      <trkpt lat="42.111546" lon="1.629289">
        <ele>1136.4</ele>
        <time>2017-07-27T08:24:27Z</time>
      </trkpt>
      <trkpt lat="42.111485" lon="1.629184">
        <ele>1135.0</ele>
        <time>2017-07-27T08:24:37Z</time>
      </trkpt>
      <trkpt lat="42.111468" lon="1.629057">
        <ele>1135.9</ele>
        <time>2017-07-27T08:24:47Z</time>
      </trkpt>
      <trkpt lat="42.111420" lon="1.628931">
        <ele>1136.4</ele>
        <time>2017-07-27T08:24:57Z</time>
      </trkpt>
      <trkpt lat="42.111391" lon="1.628875">
        <ele>1136.9</ele>
        <time>2017-07-27T08:25:02Z</time>
      </trkpt>
      <trkpt lat="42.111339" lon="1.628838">
        <ele>1139.3</ele>
        <time>2017-07-27T08:25:08Z</time>
      </trkpt>
      <trkpt lat="42.111304" lon="1.628805">
        <ele>1139.3</ele>
        <time>2017-07-27T08:25:13Z</time>
      </trkpt>
      <trkpt lat="42.111242" lon="1.628761">
        <ele>1141.2</ele>
        <time>2017-07-27T08:25:18Z</time>
      </trkpt>
      <trkpt lat="42.111187" lon="1.628727">
        <ele>1140.7</ele>
        <time>2017-07-27T08:25:26Z</time>
      </trkpt>
      <trkpt lat="42.111080" lon="1.628707">
        <ele>1137.4</ele>
        <time>2017-07-27T08:25:37Z</time>
      </trkpt>
      <trkpt lat="42.111031" lon="1.628725">
        <ele>1136.4</ele>
        <time>2017-07-27T08:25:42Z</time>
      </trkpt>
      <trkpt lat="42.110936" lon="1.628673">
        <ele>1137.4</ele>
        <time>2017-07-27T08:25:51Z</time>
      </trkpt>
      <trkpt lat="42.110899" lon="1.628598">
        <ele>1138.8</ele>
        <time>2017-07-27T08:25:59Z</time>
      </trkpt>
      <trkpt lat="42.110863" lon="1.628445">
        <ele>1139.3</ele>
        <time>2017-07-27T08:26:08Z</time>
      </trkpt>
      <trkpt lat="42.110833" lon="1.628383">
        <ele>1139.3</ele>
        <time>2017-07-27T08:26:13Z</time>
      </trkpt>
      <trkpt lat="42.110784" lon="1.628220">
        <ele>1140.7</ele>
        <time>2017-07-27T08:26:24Z</time>
      </trkpt>
      <trkpt lat="42.110756" lon="1.628096">
        <ele>1140.3</ele>
        <time>2017-07-27T08:26:33Z</time>
      </trkpt>
      <trkpt lat="42.110768" lon="1.627968">
        <ele>1139.8</ele>
        <time>2017-07-27T08:26:45Z</time>
      </trkpt>
      <trkpt lat="42.110787" lon="1.627923">
        <ele>1139.3</ele>
        <time>2017-07-27T08:26:54Z</time>
      </trkpt>
      <trkpt lat="42.110794" lon="1.627903">
        <ele>1138.8</ele>
        <time>2017-07-27T08:26:56Z</time>
      </trkpt>
      <trkpt lat="42.110812" lon="1.627862">
        <ele>1138.8</ele>
        <time>2017-07-27T08:26:59Z</time>
      </trkpt>
      <trkpt lat="42.110788" lon="1.627730">
        <ele>1136.9</ele>
        <time>2017-07-27T08:27:09Z</time>
      </trkpt>
      <trkpt lat="42.110780" lon="1.627675">
        <ele>1136.4</ele>
        <time>2017-07-27T08:27:13Z</time>
      </trkpt>
      <trkpt lat="42.110769" lon="1.627543">
        <ele>1137.4</ele>
        <time>2017-07-27T08:27:22Z</time>
      </trkpt>
      <trkpt lat="42.110813" lon="1.627365">
        <ele>1138.3</ele>
        <time>2017-07-27T08:27:31Z</time>
      </trkpt>
      <trkpt lat="42.110878" lon="1.627270">
        <ele>1139.3</ele>
        <time>2017-07-27T08:27:38Z</time>
      </trkpt>
      <trkpt lat="42.110852" lon="1.627134">
        <ele>1137.9</ele>
        <time>2017-07-27T08:27:49Z</time>
      </trkpt>
      <trkpt lat="42.110801" lon="1.627040">
        <ele>1136.9</ele>
        <time>2017-07-27T08:27:58Z</time>
      </trkpt>
      <trkpt lat="42.110776" lon="1.626979">
        <ele>1135.9</ele>
        <time>2017-07-27T08:28:05Z</time>
      </trkpt>
      <trkpt lat="42.110796" lon="1.626800">
        <ele>1135.0</ele>
        <time>2017-07-27T08:28:16Z</time>
      </trkpt>
      <trkpt lat="42.110797" lon="1.626734">
        <ele>1134.0</ele>
        <time>2017-07-27T08:28:20Z</time>
      </trkpt>
      <trkpt lat="42.110762" lon="1.626535">
        <ele>1132.6</ele>
        <time>2017-07-27T08:28:31Z</time>
      </trkpt>
      <trkpt lat="42.110780" lon="1.626348">
        <ele>1132.1</ele>
        <time>2017-07-27T08:28:42Z</time>
      </trkpt>
      <trkpt lat="42.110738" lon="1.626155">
        <ele>1131.1</ele>
        <time>2017-07-27T08:28:53Z</time>
      </trkpt>
      <trkpt lat="42.110659" lon="1.625977">
        <ele>1131.6</ele>
        <time>2017-07-27T08:29:05Z</time>
      </trkpt>
      <trkpt lat="42.110637" lon="1.625944">
        <ele>1131.6</ele>
        <time>2017-07-27T08:29:08Z</time>
      </trkpt>
      <trkpt lat="42.110547" lon="1.625785">
        <ele>1131.1</ele>
        <time>2017-07-27T08:29:20Z</time>
      </trkpt>
      <trkpt lat="42.110535" lon="1.625785">
        <ele>1131.1</ele>
        <time>2017-07-27T08:29:21Z</time>
      </trkpt>
      <trkpt lat="42.110495" lon="1.625765">
        <ele>1132.1</ele>
        <time>2017-07-27T08:29:25Z</time>
      </trkpt>
      <trkpt lat="42.110372" lon="1.625709">
        <ele>1132.1</ele>
        <time>2017-07-27T08:29:36Z</time>
      </trkpt>
      <trkpt lat="42.110361" lon="1.625699">
        <ele>1132.1</ele>
        <time>2017-07-27T08:29:37Z</time>
      </trkpt>
      <trkpt lat="42.110267" lon="1.625662">
        <ele>1131.1</ele>
        <time>2017-07-27T08:29:44Z</time>
      </trkpt>
      <trkpt lat="42.110166" lon="1.625578">
        <ele>1132.6</ele>
        <time>2017-07-27T08:29:55Z</time>
      </trkpt>
      <trkpt lat="42.110147" lon="1.625576">
        <ele>1132.6</ele>
        <time>2017-07-27T08:29:57Z</time>
      </trkpt>
      <trkpt lat="42.110129" lon="1.625522">
        <ele>1131.1</ele>
        <time>2017-07-27T08:30:01Z</time>
      </trkpt>
      <trkpt lat="42.110110" lon="1.625453">
        <ele>1131.6</ele>
        <time>2017-07-27T08:30:05Z</time>
      </trkpt>
      <trkpt lat="42.110135" lon="1.625376">
        <ele>1130.7</ele>
        <time>2017-07-27T08:30:10Z</time>
      </trkpt>
      <trkpt lat="42.110143" lon="1.625329">
        <ele>1130.7</ele>
        <time>2017-07-27T08:30:12Z</time>
      </trkpt>
      <trkpt lat="42.110151" lon="1.625228">
        <ele>1129.7</ele>
        <time>2017-07-27T08:30:16Z</time>
      </trkpt>
      <trkpt lat="42.110156" lon="1.625142">
        <ele>1128.7</ele>
        <time>2017-07-27T08:30:20Z</time>
      </trkpt>
      <trkpt lat="42.110088" lon="1.624984">
        <ele>1127.8</ele>
        <time>2017-07-27T08:30:32Z</time>
      </trkpt>
      <trkpt lat="42.110076" lon="1.624974">
        <ele>1127.3</ele>
        <time>2017-07-27T08:30:33Z</time>
      </trkpt>
      <trkpt lat="42.110047" lon="1.624905">
        <ele>1126.8</ele>
        <time>2017-07-27T08:30:39Z</time>
      </trkpt>
      <trkpt lat="42.110061" lon="1.624693">
        <ele>1126.3</ele>
        <time>2017-07-27T08:30:51Z</time>
      </trkpt>
      <trkpt lat="42.110041" lon="1.624499">
        <ele>1125.8</ele>
        <time>2017-07-27T08:31:01Z</time>
      </trkpt>
      <trkpt lat="42.110072" lon="1.624360">
        <ele>1122.5</ele>
        <time>2017-07-27T08:31:11Z</time>
      </trkpt>
      <trkpt lat="42.110074" lon="1.624269">
        <ele>1121.0</ele>
        <time>2017-07-27T08:31:19Z</time>
      </trkpt>
      <trkpt lat="42.110118" lon="1.624213">
        <ele>1120.1</ele>
        <time>2017-07-27T08:31:24Z</time>
      </trkpt>
      <trkpt lat="42.110142" lon="1.624187">
        <ele>1119.1</ele>
        <time>2017-07-27T08:31:26Z</time>
      </trkpt>
      <trkpt lat="42.110176" lon="1.624135">
        <ele>1116.7</ele>
        <time>2017-07-27T08:31:30Z</time>
      </trkpt>
      <trkpt lat="42.110212" lon="1.624086">
        <ele>1115.7</ele>
        <time>2017-07-27T08:31:34Z</time>
      </trkpt>
      <trkpt lat="42.110260" lon="1.623928">
        <ele>1113.3</ele>
        <time>2017-07-27T08:31:45Z</time>
      </trkpt>
      <trkpt lat="42.110276" lon="1.623829">
        <ele>1112.4</ele>
        <time>2017-07-27T08:31:50Z</time>
      </trkpt>
      <trkpt lat="42.110247" lon="1.623621">
        <ele>1110.0</ele>
        <time>2017-07-27T08:32:00Z</time>
      </trkpt>
      <trkpt lat="42.110241" lon="1.623546">
        <ele>1109.5</ele>
        <time>2017-07-27T08:32:04Z</time>
      </trkpt>
      <trkpt lat="42.110213" lon="1.623469">
        <ele>1107.6</ele>
        <time>2017-07-27T08:32:14Z</time>
      </trkpt>
      <trkpt lat="42.110181" lon="1.623414">
        <ele>1107.1</ele>
        <time>2017-07-27T08:32:19Z</time>
      </trkpt>
      <trkpt lat="42.110164" lon="1.623336">
        <ele>1106.6</ele>
        <time>2017-07-27T08:32:24Z</time>
      </trkpt>
      <trkpt lat="42.110145" lon="1.623237">
        <ele>1104.7</ele>
        <time>2017-07-27T08:32:31Z</time>
      </trkpt>
      <trkpt lat="42.110159" lon="1.623197">
        <ele>1103.2</ele>
        <time>2017-07-27T08:32:34Z</time>
      </trkpt>
      <trkpt lat="42.110226" lon="1.623122">
        <ele>1100.8</ele>
        <time>2017-07-27T08:32:42Z</time>
      </trkpt>
      <trkpt lat="42.110263" lon="1.623083">
        <ele>1100.4</ele>
        <time>2017-07-27T08:32:45Z</time>
      </trkpt>
      <trkpt lat="42.110282" lon="1.623055">
        <ele>1099.4</ele>
        <time>2017-07-27T08:32:47Z</time>
      </trkpt>
      <trkpt lat="42.110328" lon="1.622918">
        <ele>1096.5</ele>
        <time>2017-07-27T08:32:57Z</time>
      </trkpt>
      <trkpt lat="42.110352" lon="1.622827">
        <ele>1094.6</ele>
        <time>2017-07-27T08:33:04Z</time>
      </trkpt>
      <trkpt lat="42.110373" lon="1.622755">
        <ele>1094.1</ele>
        <time>2017-07-27T08:33:09Z</time>
      </trkpt>
      <trkpt lat="42.110368" lon="1.622674">
        <ele>1091.7</ele>
        <time>2017-07-27T08:33:19Z</time>
      </trkpt>
      <trkpt lat="42.110322" lon="1.622541">
        <ele>1088.3</ele>
        <time>2017-07-27T08:33:29Z</time>
      </trkpt>
      <trkpt lat="42.110315" lon="1.622533">
        <ele>1088.8</ele>
        <time>2017-07-27T08:33:30Z</time>
      </trkpt>
      <trkpt lat="42.110287" lon="1.622415">
        <ele>1085.9</ele>
        <time>2017-07-27T08:33:38Z</time>
      </trkpt>
      <trkpt lat="42.110293" lon="1.622368">
        <ele>1085.0</ele>
        <time>2017-07-27T08:33:43Z</time>
      </trkpt>
      <trkpt lat="42.110346" lon="1.622220">
        <ele>1084.0</ele>
        <time>2017-07-27T08:33:52Z</time>
      </trkpt>
      <trkpt lat="42.110379" lon="1.622138">
        <ele>1082.1</ele>
        <time>2017-07-27T08:33:56Z</time>
      </trkpt>
      <trkpt lat="42.110421" lon="1.621945">
        <ele>1079.2</ele>
        <time>2017-07-27T08:34:07Z</time>
      </trkpt>
      <trkpt lat="42.110407" lon="1.621896">
        <ele>1078.7</ele>
        <time>2017-07-27T08:34:10Z</time>
      </trkpt>
      <trkpt lat="42.110365" lon="1.621842">
        <ele>1077.8</ele>
        <time>2017-07-27T08:34:14Z</time>
      </trkpt>
      <trkpt lat="42.110330" lon="1.621750">
        <ele>1076.8</ele>
        <time>2017-07-27T08:34:21Z</time>
      </trkpt>
      <trkpt lat="42.110291" lon="1.621701">
        <ele>1075.4</ele>
        <time>2017-07-27T08:34:25Z</time>
      </trkpt>
      <trkpt lat="42.110182" lon="1.621586">
        <ele>1072.0</ele>
        <time>2017-07-27T08:34:38Z</time>
      </trkpt>
      <trkpt lat="42.110136" lon="1.621504">
        <ele>1069.6</ele>
        <time>2017-07-27T08:34:51Z</time>
      </trkpt>
      <trkpt lat="42.110144" lon="1.621453">
        <ele>1067.2</ele>
        <time>2017-07-27T08:35:03Z</time>
      </trkpt>
      <trkpt lat="42.110144" lon="1.621449">
        <ele>1066.2</ele>
        <time>2017-07-27T08:35:05Z</time>
      </trkpt>
      <trkpt lat="42.110168" lon="1.621439">
        <ele>1064.8</ele>
        <time>2017-07-27T08:35:08Z</time>
      </trkpt>
      <trkpt lat="42.110184" lon="1.621399">
        <ele>1064.3</ele>
        <time>2017-07-27T08:35:16Z</time>
      </trkpt>
      <trkpt lat="42.110190" lon="1.621386">
        <ele>1063.8</ele>
        <time>2017-07-27T08:35:25Z</time>
      </trkpt>
      <trkpt lat="42.110193" lon="1.621391">
        <ele>1063.4</ele>
        <time>2017-07-27T08:35:56Z</time>
      </trkpt>
      <trkpt lat="42.110191" lon="1.621376">
        <ele>1063.8</ele>
        <time>2017-07-27T08:36:13Z</time>
      </trkpt>
      <trkpt lat="42.110201" lon="1.621374">
        <ele>1062.4</ele>
        <time>2017-07-27T08:36:36Z</time>
      </trkpt>
      <trkpt lat="42.110214" lon="1.621354">
        <ele>1063.4</ele>
        <time>2017-07-27T08:36:49Z</time>
      </trkpt>
      <trkpt lat="42.110215" lon="1.621351">
        <ele>1063.4</ele>
        <time>2017-07-27T08:36:54Z</time>
      </trkpt>
      <trkpt lat="42.110219" lon="1.621313">
        <ele>1063.4</ele>
        <time>2017-07-27T08:37:01Z</time>
      </trkpt>
      <trkpt lat="42.110185" lon="1.621226">
        <ele>1061.9</ele>
        <time>2017-07-27T08:37:11Z</time>
      </trkpt>
      <trkpt lat="42.110229" lon="1.621148">
        <ele>1060.9</ele>
        <time>2017-07-27T08:37:20Z</time>
      </trkpt>
      <trkpt lat="42.110234" lon="1.621114">
        <ele>1060.9</ele>
        <time>2017-07-27T08:37:23Z</time>
      </trkpt>
      <trkpt lat="42.110244" lon="1.621084">
        <ele>1060.5</ele>
        <time>2017-07-27T08:37:25Z</time>
      </trkpt>
      <trkpt lat="42.110256" lon="1.621058">
        <ele>1060.0</ele>
        <time>2017-07-27T08:37:28Z</time>
      </trkpt>
      <trkpt lat="42.110285" lon="1.620988">
        <ele>1059.5</ele>
        <time>2017-07-27T08:37:33Z</time>
      </trkpt>
      <trkpt lat="42.110288" lon="1.620783">
        <ele>1059.0</ele>
        <time>2017-07-27T08:37:41Z</time>
      </trkpt>
      <trkpt lat="42.110309" lon="1.620764">
        <ele>1058.6</ele>
        <time>2017-07-27T08:37:43Z</time>
      </trkpt>
      <trkpt lat="42.110349" lon="1.620688">
        <ele>1058.1</ele>
        <time>2017-07-27T08:37:49Z</time>
      </trkpt>
      <trkpt lat="42.110344" lon="1.620603">
        <ele>1057.1</ele>
        <time>2017-07-27T08:37:54Z</time>
      </trkpt>
      <trkpt lat="42.110340" lon="1.620570">
        <ele>1057.6</ele>
        <time>2017-07-27T08:37:56Z</time>
      </trkpt>
      <trkpt lat="42.110344" lon="1.620496">
        <ele>1057.6</ele>
        <time>2017-07-27T08:38:00Z</time>
      </trkpt>
      <trkpt lat="42.110310" lon="1.620431">
        <ele>1058.1</ele>
        <time>2017-07-27T08:38:05Z</time>
      </trkpt>
      <trkpt lat="42.110283" lon="1.620395">
        <ele>1058.1</ele>
        <time>2017-07-27T08:38:09Z</time>
      </trkpt>
      <trkpt lat="42.110315" lon="1.620180">
        <ele>1058.6</ele>
        <time>2017-07-27T08:38:19Z</time>
      </trkpt>
      <trkpt lat="42.110333" lon="1.620150">
        <ele>1059.0</ele>
        <time>2017-07-27T08:38:22Z</time>
      </trkpt>
      <trkpt lat="42.110357" lon="1.619925">
        <ele>1060.5</ele>
        <time>2017-07-27T08:38:35Z</time>
      </trkpt>
      <trkpt lat="42.110384" lon="1.619880">
        <ele>1060.9</ele>
        <time>2017-07-27T08:38:39Z</time>
      </trkpt>
      <trkpt lat="42.110507" lon="1.619665">
        <ele>1062.9</ele>
        <time>2017-07-27T08:38:53Z</time>
      </trkpt>
      <trkpt lat="42.110509" lon="1.619632">
        <ele>1062.9</ele>
        <time>2017-07-27T08:38:55Z</time>
      </trkpt>
      <trkpt lat="42.110477" lon="1.619511">
        <ele>1062.4</ele>
        <time>2017-07-27T08:39:02Z</time>
      </trkpt>
      <trkpt lat="42.110448" lon="1.619397">
        <ele>1061.4</ele>
        <time>2017-07-27T08:39:09Z</time>
      </trkpt>
      <trkpt lat="42.110407" lon="1.619306">
        <ele>1060.5</ele>
        <time>2017-07-27T08:39:15Z</time>
      </trkpt>
      <trkpt lat="42.110371" lon="1.619246">
        <ele>1060.0</ele>
        <time>2017-07-27T08:39:19Z</time>
      </trkpt>
      <trkpt lat="42.110366" lon="1.619213">
        <ele>1060.0</ele>
        <time>2017-07-27T08:39:21Z</time>
      </trkpt>
      <trkpt lat="42.110357" lon="1.619069">
        <ele>1058.6</ele>
        <time>2017-07-27T08:39:30Z</time>
      </trkpt>
      <trkpt lat="42.110361" lon="1.618950">
        <ele>1056.6</ele>
        <time>2017-07-27T08:39:39Z</time>
      </trkpt>
      <trkpt lat="42.110361" lon="1.618924">
        <ele>1055.7</ele>
        <time>2017-07-27T08:39:41Z</time>
      </trkpt>
      <trkpt lat="42.110350" lon="1.618844">
        <ele>1054.2</ele>
        <time>2017-07-27T08:39:47Z</time>
      </trkpt>
      <trkpt lat="42.110330" lon="1.618790">
        <ele>1054.2</ele>
        <time>2017-07-27T08:39:50Z</time>
      </trkpt>
      <trkpt lat="42.110335" lon="1.618728">
        <ele>1054.2</ele>
        <time>2017-07-27T08:39:53Z</time>
      </trkpt>
      <trkpt lat="42.110398" lon="1.618633">
        <ele>1054.7</ele>
        <time>2017-07-27T08:39:59Z</time>
      </trkpt>
      <trkpt lat="42.110404" lon="1.618575">
        <ele>1056.2</ele>
        <time>2017-07-27T08:40:03Z</time>
      </trkpt>
      <trkpt lat="42.110395" lon="1.618475">
        <ele>1056.2</ele>
        <time>2017-07-27T08:40:10Z</time>
      </trkpt>
      <trkpt lat="42.110415" lon="1.618359">
        <ele>1056.6</ele>
        <time>2017-07-27T08:40:17Z</time>
      </trkpt>
      <trkpt lat="42.110441" lon="1.618288">
        <ele>1056.2</ele>
        <time>2017-07-27T08:40:21Z</time>
      </trkpt>
      <trkpt lat="42.110498" lon="1.618247">
        <ele>1056.2</ele>
        <time>2017-07-27T08:40:25Z</time>
      </trkpt>
      <trkpt lat="42.110514" lon="1.618190">
        <ele>1055.7</ele>
        <time>2017-07-27T08:40:29Z</time>
      </trkpt>
      <trkpt lat="42.110494" lon="1.617985">
        <ele>1055.7</ele>
        <time>2017-07-27T08:40:39Z</time>
      </trkpt>
      <trkpt lat="42.110523" lon="1.617901">
        <ele>1055.7</ele>
        <time>2017-07-27T08:40:44Z</time>
      </trkpt>
      <trkpt lat="42.110544" lon="1.617828">
        <ele>1055.7</ele>
        <time>2017-07-27T08:40:48Z</time>
      </trkpt>
      <trkpt lat="42.110571" lon="1.617774">
        <ele>1055.7</ele>
        <time>2017-07-27T08:40:52Z</time>
      </trkpt>
      <trkpt lat="42.110581" lon="1.617667">
        <ele>1054.7</ele>
        <time>2017-07-27T08:40:58Z</time>
      </trkpt>
      <trkpt lat="42.110546" lon="1.617575">
        <ele>1053.7</ele>
        <time>2017-07-27T08:41:09Z</time>
      </trkpt>
      <trkpt lat="42.110523" lon="1.617559">
        <ele>1053.3</ele>
        <time>2017-07-27T08:41:12Z</time>
      </trkpt>
      <trkpt lat="42.110485" lon="1.617434">
        <ele>1051.8</ele>
        <time>2017-07-27T08:41:22Z</time>
      </trkpt>
      <trkpt lat="42.110428" lon="1.617376">
        <ele>1051.8</ele>
        <time>2017-07-27T08:41:27Z</time>
      </trkpt>
      <trkpt lat="42.110401" lon="1.617307">
        <ele>1050.9</ele>
        <time>2017-07-27T08:41:33Z</time>
      </trkpt>
      <trkpt lat="42.110434" lon="1.617124">
        <ele>1050.4</ele>
        <time>2017-07-27T08:41:43Z</time>
      </trkpt>
      <trkpt lat="42.110420" lon="1.616979">
        <ele>1049.9</ele>
        <time>2017-07-27T08:41:51Z</time>
      </trkpt>
      <trkpt lat="42.110460" lon="1.616919">
        <ele>1050.4</ele>
        <time>2017-07-27T08:41:55Z</time>
      </trkpt>
      <trkpt lat="42.110492" lon="1.616825">
        <ele>1050.4</ele>
        <time>2017-07-27T08:42:01Z</time>
      </trkpt>
      <trkpt lat="42.110508" lon="1.616759">
        <ele>1049.9</ele>
        <time>2017-07-27T08:42:05Z</time>
      </trkpt>
      <trkpt lat="42.110526" lon="1.616674">
        <ele>1049.9</ele>
        <time>2017-07-27T08:42:10Z</time>
      </trkpt>
      <trkpt lat="42.110501" lon="1.616590">
        <ele>1048.9</ele>
        <time>2017-07-27T08:42:15Z</time>
      </trkpt>
      <trkpt lat="42.110427" lon="1.616524">
        <ele>1047.5</ele>
        <time>2017-07-27T08:42:21Z</time>
      </trkpt>
      <trkpt lat="42.110274" lon="1.616473">
        <ele>1045.1</ele>
        <time>2017-07-27T08:42:30Z</time>
      </trkpt>
      <trkpt lat="42.110203" lon="1.616323">
        <ele>1046.1</ele>
        <time>2017-07-27T08:42:43Z</time>
      </trkpt>
      <trkpt lat="42.110192" lon="1.616290">
        <ele>1047.0</ele>
        <time>2017-07-27T08:42:46Z</time>
      </trkpt>
      <trkpt lat="42.110165" lon="1.616228">
        <ele>1047.5</ele>
        <time>2017-07-27T08:42:50Z</time>
      </trkpt>
      <trkpt lat="42.110143" lon="1.616096">
        <ele>1048.9</ele>
        <time>2017-07-27T08:42:59Z</time>
      </trkpt>
      <trkpt lat="42.110119" lon="1.615910">
        <ele>1049.9</ele>
        <time>2017-07-27T08:43:11Z</time>
      </trkpt>
      <trkpt lat="42.110118" lon="1.615892">
        <ele>1050.4</ele>
        <time>2017-07-27T08:43:12Z</time>
      </trkpt>
      <trkpt lat="42.110125" lon="1.615813">
        <ele>1050.9</ele>
        <time>2017-07-27T08:43:16Z</time>
      </trkpt>
      <trkpt lat="42.110114" lon="1.615786">
        <ele>1051.8</ele>
        <time>2017-07-27T08:43:18Z</time>
      </trkpt>
      <trkpt lat="42.110119" lon="1.615713">
        <ele>1052.3</ele>
        <time>2017-07-27T08:43:22Z</time>
      </trkpt>
      <trkpt lat="42.110182" lon="1.615528">
        <ele>1054.2</ele>
        <time>2017-07-27T08:43:34Z</time>
      </trkpt>
      <trkpt lat="42.110214" lon="1.615344">
        <ele>1056.2</ele>
        <time>2017-07-27T08:43:46Z</time>
      </trkpt>
      <trkpt lat="42.110215" lon="1.615298">
        <ele>1054.7</ele>
        <time>2017-07-27T08:43:49Z</time>
      </trkpt>
      <trkpt lat="42.110144" lon="1.615119">
        <ele>1053.3</ele>
        <time>2017-07-27T08:44:00Z</time>
      </trkpt>
      <trkpt lat="42.110087" lon="1.614909">
        <ele>1051.3</ele>
        <time>2017-07-27T08:44:13Z</time>
      </trkpt>
      <trkpt lat="42.110057" lon="1.614856">
        <ele>1050.4</ele>
        <time>2017-07-27T08:44:16Z</time>
      </trkpt>
      <trkpt lat="42.110034" lon="1.614742">
        <ele>1049.4</ele>
        <time>2017-07-27T08:44:24Z</time>
      </trkpt>
      <trkpt lat="42.110018" lon="1.614733">
        <ele>1049.4</ele>
        <time>2017-07-27T08:44:26Z</time>
      </trkpt>
      <trkpt lat="42.109997" lon="1.614657">
        <ele>1048.4</ele>
        <time>2017-07-27T08:44:30Z</time>
      </trkpt>
      <trkpt lat="42.109952" lon="1.614592">
        <ele>1048.0</ele>
        <time>2017-07-27T08:44:34Z</time>
      </trkpt>
      <trkpt lat="42.109921" lon="1.614524">
        <ele>1048.0</ele>
        <time>2017-07-27T08:44:38Z</time>
      </trkpt>
      <trkpt lat="42.109913" lon="1.614465">
        <ele>1047.5</ele>
        <time>2017-07-27T08:44:42Z</time>
      </trkpt>
      <trkpt lat="42.109920" lon="1.614421">
        <ele>1047.0</ele>
        <time>2017-07-27T08:44:44Z</time>
      </trkpt>
      <trkpt lat="42.109904" lon="1.614229">
        <ele>1046.1</ele>
        <time>2017-07-27T08:44:53Z</time>
      </trkpt>
      <trkpt lat="42.109898" lon="1.614093">
        <ele>1045.6</ele>
        <time>2017-07-27T08:45:00Z</time>
      </trkpt>
      <trkpt lat="42.109856" lon="1.613916">
        <ele>1045.1</ele>
        <time>2017-07-27T08:45:11Z</time>
      </trkpt>
      <trkpt lat="42.109830" lon="1.613778">
        <ele>1045.1</ele>
        <time>2017-07-27T08:45:18Z</time>
      </trkpt>
      <trkpt lat="42.109806" lon="1.613558">
        <ele>1044.1</ele>
        <time>2017-07-27T08:45:28Z</time>
      </trkpt>
      <trkpt lat="42.109845" lon="1.613463">
        <ele>1044.1</ele>
        <time>2017-07-27T08:45:33Z</time>
      </trkpt>
      <trkpt lat="42.109901" lon="1.613341">
        <ele>1043.2</ele>
        <time>2017-07-27T08:45:42Z</time>
      </trkpt>
      <trkpt lat="42.109925" lon="1.613224">
        <ele>1042.7</ele>
        <time>2017-07-27T08:45:47Z</time>
      </trkpt>
      <trkpt lat="42.109906" lon="1.613160">
        <ele>1041.7</ele>
        <time>2017-07-27T08:45:50Z</time>
      </trkpt>
      <trkpt lat="42.109919" lon="1.613065">
        <ele>1042.2</ele>
        <time>2017-07-27T08:45:55Z</time>
      </trkpt>
      <trkpt lat="42.109825" lon="1.612835">
        <ele>1040.8</ele>
        <time>2017-07-27T08:46:09Z</time>
      </trkpt>
      <trkpt lat="42.109755" lon="1.612726">
        <ele>1038.8</ele>
        <time>2017-07-27T08:46:18Z</time>
      </trkpt>
      <trkpt lat="42.109746" lon="1.612703">
        <ele>1038.4</ele>
        <time>2017-07-27T08:46:19Z</time>
      </trkpt>
      <trkpt lat="42.109736" lon="1.612622">
        <ele>1038.4</ele>
        <time>2017-07-27T08:46:24Z</time>
      </trkpt>
      <trkpt lat="42.109692" lon="1.612523">
        <ele>1037.9</ele>
        <time>2017-07-27T08:46:29Z</time>
      </trkpt>
      <trkpt lat="42.109683" lon="1.612422">
        <ele>1037.4</ele>
        <time>2017-07-27T08:46:35Z</time>
      </trkpt>
      <trkpt lat="42.109699" lon="1.612344">
        <ele>1036.4</ele>
        <time>2017-07-27T08:46:39Z</time>
      </trkpt>
      <trkpt lat="42.109750" lon="1.612196">
        <ele>1036.4</ele>
        <time>2017-07-27T08:46:53Z</time>
      </trkpt>
      <trkpt lat="42.109758" lon="1.612184">
        <ele>1036.0</ele>
        <time>2017-07-27T08:47:15Z</time>
      </trkpt>
      <trkpt lat="42.109844" lon="1.612150">
        <ele>1035.5</ele>
        <time>2017-07-27T08:47:27Z</time>
      </trkpt>
      <trkpt lat="42.109910" lon="1.612152">
        <ele>1036.0</ele>
        <time>2017-07-27T08:47:37Z</time>
      </trkpt>
      <trkpt lat="42.109952" lon="1.612156">
        <ele>1035.5</ele>
        <time>2017-07-27T08:47:40Z</time>
      </trkpt>
      <trkpt lat="42.110053" lon="1.612108">
        <ele>1035.0</ele>
        <time>2017-07-27T08:47:52Z</time>
      </trkpt>
      <trkpt lat="42.110097" lon="1.611960">
        <ele>1034.0</ele>
        <time>2017-07-27T08:48:04Z</time>
      </trkpt>
      <trkpt lat="42.110096" lon="1.611930">
        <ele>1034.5</ele>
        <time>2017-07-27T08:48:20Z</time>
      </trkpt>
      <trkpt lat="42.110118" lon="1.611894">
        <ele>1034.0</ele>
        <time>2017-07-27T08:48:23Z</time>
      </trkpt>
      <trkpt lat="42.110135" lon="1.611870">
        <ele>1034.5</ele>
        <time>2017-07-27T08:48:25Z</time>
      </trkpt>
      <trkpt lat="42.110141" lon="1.611807">
        <ele>1034.0</ele>
        <time>2017-07-27T08:48:28Z</time>
      </trkpt>
      <trkpt lat="42.110130" lon="1.611764">
        <ele>1034.0</ele>
        <time>2017-07-27T08:48:31Z</time>
      </trkpt>
      <trkpt lat="42.110118" lon="1.611756">
        <ele>1034.0</ele>
        <time>2017-07-27T08:48:33Z</time>
      </trkpt>
      <trkpt lat="42.110092" lon="1.611747">
        <ele>1034.0</ele>
        <time>2017-07-27T08:48:36Z</time>
      </trkpt>
      <trkpt lat="42.110086" lon="1.611696">
        <ele>1033.6</ele>
        <time>2017-07-27T08:48:39Z</time>
      </trkpt>
      <trkpt lat="42.110078" lon="1.611600">
        <ele>1033.6</ele>
        <time>2017-07-27T08:48:44Z</time>
      </trkpt>
      <trkpt lat="42.110067" lon="1.611575">
        <ele>1033.1</ele>
        <time>2017-07-27T08:48:46Z</time>
      </trkpt>
      <trkpt lat="42.110168" lon="1.611225">
        <ele>1032.1</ele>
        <time>2017-07-27T08:49:00Z</time>
      </trkpt>
      <trkpt lat="42.110310" lon="1.611159">
        <ele>1031.2</ele>
        <time>2017-07-27T08:49:11Z</time>
      </trkpt>
      <trkpt lat="42.110364" lon="1.611103">
        <ele>1031.2</ele>
        <time>2017-07-27T08:49:31Z</time>
      </trkpt>
      <trkpt lat="42.110387" lon="1.611059">
        <ele>1030.2</ele>
        <time>2017-07-27T08:49:38Z</time>
      </trkpt>
      <trkpt lat="42.110433" lon="1.610976">
        <ele>1029.7</ele>
        <time>2017-07-27T08:49:43Z</time>
      </trkpt>
      <trkpt lat="42.110513" lon="1.610822">
        <ele>1029.2</ele>
        <time>2017-07-27T08:50:02Z</time>
      </trkpt>
      <trkpt lat="42.110491" lon="1.610799">
        <ele>1028.3</ele>
        <time>2017-07-27T08:50:09Z</time>
      </trkpt>
      <trkpt lat="42.110587" lon="1.610733">
        <ele>1025.9</ele>
        <time>2017-07-27T08:50:21Z</time>
      </trkpt>
      <trkpt lat="42.110603" lon="1.610702">
        <ele>1025.4</ele>
        <time>2017-07-27T08:50:43Z</time>
      </trkpt>
      <trkpt lat="42.110600" lon="1.610701">
        <ele>1021.1</ele>
        <time>2017-07-27T08:50:53Z</time>
      </trkpt>
      <trkpt lat="42.110598" lon="1.610703">
        <ele>1025.9</ele>
        <time>2017-07-27T08:50:54Z</time>
      </trkpt>
      <trkpt lat="42.110601" lon="1.610697">
        <ele>1025.4</ele>
        <time>2017-07-27T08:51:01Z</time>
      </trkpt>
      <trkpt lat="42.110672" lon="1.610608">
        <ele>1022.0</ele>
        <time>2017-07-27T08:51:09Z</time>
      </trkpt>
      <trkpt lat="42.110741" lon="1.610525">
        <ele>1019.6</ele>
        <time>2017-07-27T08:51:21Z</time>
      </trkpt>
      <trkpt lat="42.110747" lon="1.610481">
        <ele>1019.6</ele>
        <time>2017-07-27T08:51:26Z</time>
      </trkpt>
      <trkpt lat="42.110759" lon="1.610455">
        <ele>1018.7</ele>
        <time>2017-07-27T08:51:28Z</time>
      </trkpt>
      <trkpt lat="42.110837" lon="1.610382">
        <ele>1017.2</ele>
        <time>2017-07-27T08:51:34Z</time>
      </trkpt>
      <trkpt lat="42.110865" lon="1.610346">
        <ele>1016.7</ele>
        <time>2017-07-27T08:51:37Z</time>
      </trkpt>
      <trkpt lat="42.110907" lon="1.610260">
        <ele>1013.8</ele>
        <time>2017-07-27T08:51:43Z</time>
      </trkpt>
      <trkpt lat="42.110914" lon="1.610223">
        <ele>1013.8</ele>
        <time>2017-07-27T08:51:45Z</time>
      </trkpt>
      <trkpt lat="42.110977" lon="1.610068">
        <ele>1011.9</ele>
        <time>2017-07-27T08:51:56Z</time>
      </trkpt>
      <trkpt lat="42.111002" lon="1.610033">
        <ele>1010.5</ele>
        <time>2017-07-27T08:52:00Z</time>
      </trkpt>
      <trkpt lat="42.111012" lon="1.609936">
        <ele>1008.1</ele>
        <time>2017-07-27T08:52:08Z</time>
      </trkpt>
      <trkpt lat="42.111007" lon="1.609844">
        <ele>1005.7</ele>
        <time>2017-07-27T08:52:14Z</time>
      </trkpt>
      <trkpt lat="42.111020" lon="1.609776">
        <ele>1005.7</ele>
        <time>2017-07-27T08:52:18Z</time>
      </trkpt>
      <trkpt lat="42.111034" lon="1.609660">
        <ele>1001.3</ele>
        <time>2017-07-27T08:52:28Z</time>
      </trkpt>
      <trkpt lat="42.111039" lon="1.609648">
        <ele>1000.9</ele>
        <time>2017-07-27T08:52:29Z</time>
      </trkpt>
      <trkpt lat="42.111034" lon="1.609581">
        <ele>999.9</ele>
        <time>2017-07-27T08:52:33Z</time>
      </trkpt>
      <trkpt lat="42.111039" lon="1.609458">
        <ele>998.0</ele>
        <time>2017-07-27T08:52:40Z</time>
      </trkpt>
      <trkpt lat="42.111014" lon="1.609316">
        <ele>995.1</ele>
        <time>2017-07-27T08:52:49Z</time>
      </trkpt>
      <trkpt lat="42.111007" lon="1.609290">
        <ele>994.6</ele>
        <time>2017-07-27T08:52:51Z</time>
      </trkpt>
      <trkpt lat="42.110993" lon="1.609267">
        <ele>993.7</ele>
        <time>2017-07-27T08:52:53Z</time>
      </trkpt>
      <trkpt lat="42.110994" lon="1.609244">
        <ele>992.2</ele>
        <time>2017-07-27T08:52:59Z</time>
      </trkpt>
      <trkpt lat="42.111057" lon="1.609242">
        <ele>989.3</ele>
        <time>2017-07-27T08:53:11Z</time>
      </trkpt>
      <trkpt lat="42.111062" lon="1.609175">
        <ele>985.5</ele>
        <time>2017-07-27T08:53:18Z</time>
      </trkpt>
      <trkpt lat="42.111028" lon="1.609073">
        <ele>984.5</ele>
        <time>2017-07-27T08:53:29Z</time>
      </trkpt>
      <trkpt lat="42.111015" lon="1.609043">
        <ele>983.6</ele>
        <time>2017-07-27T08:53:33Z</time>
      </trkpt>
      <trkpt lat="42.110989" lon="1.608950">
        <ele>981.6</ele>
        <time>2017-07-27T08:53:40Z</time>
      </trkpt>
      <trkpt lat="42.110965" lon="1.608894">
        <ele>981.2</ele>
        <time>2017-07-27T08:53:44Z</time>
      </trkpt>
      <trkpt lat="42.110948" lon="1.608782">
        <ele>979.7</ele>
        <time>2017-07-27T08:53:52Z</time>
      </trkpt>
      <trkpt lat="42.110929" lon="1.608735">
        <ele>978.8</ele>
        <time>2017-07-27T08:53:57Z</time>
      </trkpt>
      <trkpt lat="42.110941" lon="1.608683">
        <ele>978.8</ele>
        <time>2017-07-27T08:54:00Z</time>
      </trkpt>
      <trkpt lat="42.110965" lon="1.608603">
        <ele>977.8</ele>
        <time>2017-07-27T08:54:05Z</time>
      </trkpt>
      <trkpt lat="42.110978" lon="1.608567">
        <ele>977.3</ele>
        <time>2017-07-27T08:54:10Z</time>
      </trkpt>
      <trkpt lat="42.110941" lon="1.608366">
        <ele>975.9</ele>
        <time>2017-07-27T08:54:21Z</time>
      </trkpt>
      <trkpt lat="42.111027" lon="1.608302">
        <ele>974.0</ele>
        <time>2017-07-27T08:54:33Z</time>
      </trkpt>
      <trkpt lat="42.111044" lon="1.608256">
        <ele>973.5</ele>
        <time>2017-07-27T08:54:43Z</time>
      </trkpt>
      <trkpt lat="42.111055" lon="1.608222">
        <ele>971.5</ele>
        <time>2017-07-27T08:54:46Z</time>
      </trkpt>
      <trkpt lat="42.111122" lon="1.608130">
        <ele>967.2</ele>
        <time>2017-07-27T08:54:56Z</time>
      </trkpt>
      <trkpt lat="42.111169" lon="1.608052">
        <ele>964.3</ele>
        <time>2017-07-27T08:55:06Z</time>
      </trkpt>
      <trkpt lat="42.111168" lon="1.608003">
        <ele>963.4</ele>
        <time>2017-07-27T08:55:10Z</time>
      </trkpt>
      <trkpt lat="42.111219" lon="1.607933">
        <ele>959.0</ele>
        <time>2017-07-27T08:55:22Z</time>
      </trkpt>
      <trkpt lat="42.111242" lon="1.607898">
        <ele>957.6</ele>
        <time>2017-07-27T08:55:25Z</time>
      </trkpt>
      <trkpt lat="42.111308" lon="1.607767">
        <ele>954.7</ele>
        <time>2017-07-27T08:55:36Z</time>
      </trkpt>
      <trkpt lat="42.111370" lon="1.607680">
        <ele>952.3</ele>
        <time>2017-07-27T08:55:45Z</time>
      </trkpt>
      <trkpt lat="42.111393" lon="1.607634">
        <ele>950.9</ele>
        <time>2017-07-27T08:55:52Z</time>
      </trkpt>
      <trkpt lat="42.111410" lon="1.607622">
        <ele>949.4</ele>
        <time>2017-07-27T08:55:54Z</time>
      </trkpt>
      <trkpt lat="42.111450" lon="1.607583">
        <ele>948.0</ele>
        <time>2017-07-27T08:56:00Z</time>
      </trkpt>
      <trkpt lat="42.111504" lon="1.607549">
        <ele>946.1</ele>
        <time>2017-07-27T08:56:08Z</time>
      </trkpt>
      <trkpt lat="42.111541" lon="1.607554">
        <ele>944.6</ele>
        <time>2017-07-27T08:56:10Z</time>
      </trkpt>
      <trkpt lat="42.111602" lon="1.607529">
        <ele>942.7</ele>
        <time>2017-07-27T08:56:15Z</time>
      </trkpt>
      <trkpt lat="42.111696" lon="1.607462">
        <ele>939.3</ele>
        <time>2017-07-27T08:56:25Z</time>
      </trkpt>
      <trkpt lat="42.111745" lon="1.607432">
        <ele>936.9</ele>
        <time>2017-07-27T08:56:31Z</time>
      </trkpt>
      <trkpt lat="42.111813" lon="1.607393">
        <ele>934.1</ele>
        <time>2017-07-27T08:56:38Z</time>
      </trkpt>
      <trkpt lat="42.111813" lon="1.607390">
        <ele>934.1</ele>
        <time>2017-07-27T08:56:39Z</time>
      </trkpt>
      <trkpt lat="42.111884" lon="1.607378">
        <ele>930.2</ele>
        <time>2017-07-27T08:56:48Z</time>
      </trkpt>
      <trkpt lat="42.111898" lon="1.607379">
        <ele>929.7</ele>
        <time>2017-07-27T08:56:50Z</time>
      </trkpt>
      <trkpt lat="42.111982" lon="1.607348">
        <ele>925.9</ele>
        <time>2017-07-27T08:57:02Z</time>
      </trkpt>
      <trkpt lat="42.112023" lon="1.607309">
        <ele>924.5</ele>
        <time>2017-07-27T08:57:06Z</time>
      </trkpt>
      <trkpt lat="42.112089" lon="1.607236">
        <ele>922.0</ele>
        <time>2017-07-27T08:57:13Z</time>
      </trkpt>
      <trkpt lat="42.112121" lon="1.607220">
        <ele>921.1</ele>
        <time>2017-07-27T08:57:16Z</time>
      </trkpt>
      <trkpt lat="42.112173" lon="1.607206">
        <ele>921.1</ele>
        <time>2017-07-27T08:57:30Z</time>
      </trkpt>
      <trkpt lat="42.112181" lon="1.607155">
        <ele>919.2</ele>
        <time>2017-07-27T08:57:45Z</time>
      </trkpt>
      <trkpt lat="42.112173" lon="1.607048">
        <ele>916.7</ele>
        <time>2017-07-27T08:57:52Z</time>
      </trkpt>
      <trkpt lat="42.112181" lon="1.607003">
        <ele>915.3</ele>
        <time>2017-07-27T08:57:55Z</time>
      </trkpt>
      <trkpt lat="42.112165" lon="1.606899">
        <ele>912.9</ele>
        <time>2017-07-27T08:58:03Z</time>
      </trkpt>
      <trkpt lat="42.112167" lon="1.606805">
        <ele>909.5</ele>
        <time>2017-07-27T08:58:11Z</time>
      </trkpt>
      <trkpt lat="42.112143" lon="1.606638">
        <ele>906.7</ele>
        <time>2017-07-27T08:58:22Z</time>
      </trkpt>
      <trkpt lat="42.112186" lon="1.606555">
        <ele>904.7</ele>
        <time>2017-07-27T08:58:28Z</time>
      </trkpt>
      <trkpt lat="42.112206" lon="1.606425">
        <ele>902.3</ele>
        <time>2017-07-27T08:58:36Z</time>
      </trkpt>
      <trkpt lat="42.112221" lon="1.606404">
        <ele>901.8</ele>
        <time>2017-07-27T08:58:38Z</time>
      </trkpt>
      <trkpt lat="42.112244" lon="1.606398">
        <ele>900.9</ele>
        <time>2017-07-27T08:58:40Z</time>
      </trkpt>
      <trkpt lat="42.112319" lon="1.606432">
        <ele>897.0</ele>
        <time>2017-07-27T08:58:49Z</time>
      </trkpt>
      <trkpt lat="42.112304" lon="1.606488">
        <ele>895.6</ele>
        <time>2017-07-27T08:58:54Z</time>
      </trkpt>
      <trkpt lat="42.112394" lon="1.606460">
        <ele>894.2</ele>
        <time>2017-07-27T08:59:05Z</time>
      </trkpt>
      <trkpt lat="42.112390" lon="1.606448">
        <ele>894.2</ele>
        <time>2017-07-27T08:59:06Z</time>
      </trkpt>
      <trkpt lat="42.112397" lon="1.606408">
        <ele>894.2</ele>
        <time>2017-07-27T08:59:09Z</time>
      </trkpt>
      <trkpt lat="42.112372" lon="1.606362">
        <ele>893.2</ele>
        <time>2017-07-27T08:59:18Z</time>
      </trkpt>
      <trkpt lat="42.112365" lon="1.606299">
        <ele>891.8</ele>
        <time>2017-07-27T08:59:22Z</time>
      </trkpt>
      <trkpt lat="42.112343" lon="1.606148">
        <ele>890.8</ele>
        <time>2017-07-27T08:59:31Z</time>
      </trkpt>
      <trkpt lat="42.112362" lon="1.606079">
        <ele>887.9</ele>
        <time>2017-07-27T08:59:44Z</time>
      </trkpt>
      <trkpt lat="42.112395" lon="1.606008">
        <ele>888.9</ele>
        <time>2017-07-27T08:59:49Z</time>
      </trkpt>
      <trkpt lat="42.112416" lon="1.605913">
        <ele>888.4</ele>
        <time>2017-07-27T08:59:55Z</time>
      </trkpt>
      <trkpt lat="42.112428" lon="1.605907">
        <ele>887.4</ele>
        <time>2017-07-27T08:59:56Z</time>
      </trkpt>
      <trkpt lat="42.112498" lon="1.605748">
        <ele>887.4</ele>
        <time>2017-07-27T09:00:04Z</time>
      </trkpt>
      <trkpt lat="42.112583" lon="1.605658">
        <ele>886.5</ele>
        <time>2017-07-27T09:00:11Z</time>
      </trkpt>
      <trkpt lat="42.112677" lon="1.605553">
        <ele>885.5</ele>
        <time>2017-07-27T09:00:19Z</time>
      </trkpt>
      <trkpt lat="42.112687" lon="1.605518">
        <ele>885.5</ele>
        <time>2017-07-27T09:00:21Z</time>
      </trkpt>
      <trkpt lat="42.112724" lon="1.605420">
        <ele>885.5</ele>
        <time>2017-07-27T09:00:27Z</time>
      </trkpt>
      <trkpt lat="42.112719" lon="1.605347">
        <ele>885.0</ele>
        <time>2017-07-27T09:00:31Z</time>
      </trkpt>
      <trkpt lat="42.112691" lon="1.605146">
        <ele>884.5</ele>
        <time>2017-07-27T09:00:42Z</time>
      </trkpt>
      <trkpt lat="42.112786" lon="1.604956">
        <ele>885.0</ele>
        <time>2017-07-27T09:00:53Z</time>
      </trkpt>
      <trkpt lat="42.112780" lon="1.604921">
        <ele>885.5</ele>
        <time>2017-07-27T09:00:55Z</time>
      </trkpt>
      <trkpt lat="42.112783" lon="1.604771">
        <ele>886.0</ele>
        <time>2017-07-27T09:01:04Z</time>
      </trkpt>
      <trkpt lat="42.112777" lon="1.604737">
        <ele>885.5</ele>
        <time>2017-07-27T09:01:06Z</time>
      </trkpt>
      <trkpt lat="42.112778" lon="1.604702">
        <ele>885.0</ele>
        <time>2017-07-27T09:01:08Z</time>
      </trkpt>
      <trkpt lat="42.112767" lon="1.604672">
        <ele>885.5</ele>
        <time>2017-07-27T09:01:10Z</time>
      </trkpt>
      <trkpt lat="42.112704" lon="1.604481">
        <ele>886.0</ele>
        <time>2017-07-27T09:01:19Z</time>
      </trkpt>
      <trkpt lat="42.112699" lon="1.604418">
        <ele>886.0</ele>
        <time>2017-07-27T09:01:22Z</time>
      </trkpt>
      <trkpt lat="42.112714" lon="1.604386">
        <ele>886.0</ele>
        <time>2017-07-27T09:01:24Z</time>
      </trkpt>
      <trkpt lat="42.112713" lon="1.604164">
        <ele>887.4</ele>
        <time>2017-07-27T09:01:38Z</time>
      </trkpt>
      <trkpt lat="42.112721" lon="1.604131">
        <ele>887.9</ele>
        <time>2017-07-27T09:01:40Z</time>
      </trkpt>
      <trkpt lat="42.112779" lon="1.603925">
        <ele>888.9</ele>
        <time>2017-07-27T09:01:52Z</time>
      </trkpt>
      <trkpt lat="42.112794" lon="1.603888">
        <ele>888.9</ele>
        <time>2017-07-27T09:01:54Z</time>
      </trkpt>
      <trkpt lat="42.112779" lon="1.603782">
        <ele>890.3</ele>
        <time>2017-07-27T09:02:01Z</time>
      </trkpt>
      <trkpt lat="42.112790" lon="1.603717">
        <ele>890.8</ele>
        <time>2017-07-27T09:02:05Z</time>
      </trkpt>
      <trkpt lat="42.112828" lon="1.603501">
        <ele>890.3</ele>
        <time>2017-07-27T09:02:18Z</time>
      </trkpt>
      <trkpt lat="42.112847" lon="1.603465">
        <ele>890.8</ele>
        <time>2017-07-27T09:02:20Z</time>
      </trkpt>
      <trkpt lat="42.112840" lon="1.603365">
        <ele>892.2</ele>
        <time>2017-07-27T09:02:26Z</time>
      </trkpt>
      <trkpt lat="42.112884" lon="1.603212">
        <ele>892.2</ele>
        <time>2017-07-27T09:02:34Z</time>
      </trkpt>
      <trkpt lat="42.112935" lon="1.602996">
        <ele>892.2</ele>
        <time>2017-07-27T09:02:47Z</time>
      </trkpt>
      <trkpt lat="42.113046" lon="1.602856">
        <ele>892.7</ele>
        <time>2017-07-27T09:02:55Z</time>
      </trkpt>
      <trkpt lat="42.113064" lon="1.602785">
        <ele>894.2</ele>
        <time>2017-07-27T09:02:59Z</time>
      </trkpt>
      <trkpt lat="42.113093" lon="1.602692">
        <ele>895.1</ele>
        <time>2017-07-27T09:03:04Z</time>
      </trkpt>
      <trkpt lat="42.113099" lon="1.602615">
        <ele>895.1</ele>
        <time>2017-07-27T09:03:14Z</time>
      </trkpt>
      <trkpt lat="42.113107" lon="1.602591">
        <ele>894.6</ele>
        <time>2017-07-27T09:03:16Z</time>
      </trkpt>
      <trkpt lat="42.113176" lon="1.602422">
        <ele>894.6</ele>
        <time>2017-07-27T09:03:27Z</time>
      </trkpt>
      <trkpt lat="42.113258" lon="1.602277">
        <ele>896.6</ele>
        <time>2017-07-27T09:03:39Z</time>
      </trkpt>
      <trkpt lat="42.113288" lon="1.602178">
        <ele>899.0</ele>
        <time>2017-07-27T09:03:45Z</time>
      </trkpt>
      <trkpt lat="42.113311" lon="1.601970">
        <ele>899.5</ele>
        <time>2017-07-27T09:04:00Z</time>
      </trkpt>
      <trkpt lat="42.113420" lon="1.601762">
        <ele>900.4</ele>
        <time>2017-07-27T09:04:13Z</time>
      </trkpt>
      <trkpt lat="42.113418" lon="1.601741">
        <ele>899.9</ele>
        <time>2017-07-27T09:04:14Z</time>
      </trkpt>
      <trkpt lat="42.113419" lon="1.601697">
        <ele>899.9</ele>
        <time>2017-07-27T09:04:16Z</time>
      </trkpt>
      <trkpt lat="42.113386" lon="1.601634">
        <ele>899.5</ele>
        <time>2017-07-27T09:04:20Z</time>
      </trkpt>
      <trkpt lat="42.113339" lon="1.601557">
        <ele>899.0</ele>
        <time>2017-07-27T09:04:25Z</time>
      </trkpt>
      <trkpt lat="42.113251" lon="1.601493">
        <ele>897.5</ele>
        <time>2017-07-27T09:04:31Z</time>
      </trkpt>
      <trkpt lat="42.113229" lon="1.601418">
        <ele>896.1</ele>
        <time>2017-07-27T09:04:43Z</time>
      </trkpt>
      <trkpt lat="42.113147" lon="1.601346">
        <ele>894.2</ele>
        <time>2017-07-27T09:04:52Z</time>
      </trkpt>
      <trkpt lat="42.113030" lon="1.601243">
        <ele>892.2</ele>
        <time>2017-07-27T09:05:04Z</time>
      </trkpt>
      <trkpt lat="42.113012" lon="1.601232">
        <ele>891.3</ele>
        <time>2017-07-27T09:05:05Z</time>
      </trkpt>
      <trkpt lat="42.112988" lon="1.601201">
        <ele>890.8</ele>
        <time>2017-07-27T09:05:07Z</time>
      </trkpt>
      <trkpt lat="42.112951" lon="1.601147">
        <ele>887.0</ele>
        <time>2017-07-27T09:05:10Z</time>
      </trkpt>
      <trkpt lat="42.112937" lon="1.601127">
        <ele>890.3</ele>
        <time>2017-07-27T09:05:11Z</time>
      </trkpt>
      <trkpt lat="42.112882" lon="1.601034">
        <ele>889.4</ele>
        <time>2017-07-27T09:05:17Z</time>
      </trkpt>
      <trkpt lat="42.112848" lon="1.600988">
        <ele>888.9</ele>
        <time>2017-07-27T09:05:20Z</time>
      </trkpt>
      <trkpt lat="42.112845" lon="1.600849">
        <ele>885.5</ele>
        <time>2017-07-27T09:05:29Z</time>
      </trkpt>
      <trkpt lat="42.112762" lon="1.600725">
        <ele>882.2</ele>
        <time>2017-07-27T09:05:40Z</time>
      </trkpt>
      <trkpt lat="42.112706" lon="1.600636">
        <ele>880.7</ele>
        <time>2017-07-27T09:05:46Z</time>
      </trkpt>
      <trkpt lat="42.112629" lon="1.600567">
        <ele>878.8</ele>
        <time>2017-07-27T09:05:53Z</time>
      </trkpt>
      <trkpt lat="42.112583" lon="1.600475">
        <ele>879.7</ele>
        <time>2017-07-27T09:06:00Z</time>
      </trkpt>
      <trkpt lat="42.112549" lon="1.600431">
        <ele>879.7</ele>
        <time>2017-07-27T09:06:03Z</time>
      </trkpt>
      <trkpt lat="42.112477" lon="1.600362">
        <ele>879.7</ele>
        <time>2017-07-27T09:06:08Z</time>
      </trkpt>
      <trkpt lat="42.112276" lon="1.600202">
        <ele>879.7</ele>
        <time>2017-07-27T09:06:23Z</time>
      </trkpt>
      <trkpt lat="42.112077" lon="1.600127">
        <ele>876.9</ele>
        <time>2017-07-27T09:06:37Z</time>
      </trkpt>
      <trkpt lat="42.111874" lon="1.599983">
        <ele>874.9</ele>
        <time>2017-07-27T09:06:51Z</time>
      </trkpt>
      <trkpt lat="42.111837" lon="1.599960">
        <ele>874.5</ele>
        <time>2017-07-27T09:06:54Z</time>
      </trkpt>
      <trkpt lat="42.111809" lon="1.599944">
        <ele>874.0</ele>
        <time>2017-07-27T09:06:57Z</time>
      </trkpt>
      <trkpt lat="42.111711" lon="1.599960">
        <ele>872.0</ele>
        <time>2017-07-27T09:07:04Z</time>
      </trkpt>
      <trkpt lat="42.111491" lon="1.599963">
        <ele>871.1</ele>
        <time>2017-07-27T09:07:19Z</time>
      </trkpt>
      <trkpt lat="42.111312" lon="1.599970">
        <ele>869.7</ele>
        <time>2017-07-27T09:07:29Z</time>
      </trkpt>
      <trkpt lat="42.111270" lon="1.599962">
        <ele>868.7</ele>
        <time>2017-07-27T09:07:33Z</time>
      </trkpt>
      <trkpt lat="42.111238" lon="1.599970">
        <ele>868.2</ele>
        <time>2017-07-27T09:07:41Z</time>
      </trkpt>
      <trkpt lat="42.111137" lon="1.599810">
        <ele>864.4</ele>
        <time>2017-07-27T09:07:54Z</time>
      </trkpt>
      <trkpt lat="42.111081" lon="1.599802">
        <ele>864.4</ele>
        <time>2017-07-27T09:07:59Z</time>
      </trkpt>
      <trkpt lat="42.111051" lon="1.599814">
        <ele>863.4</ele>
        <time>2017-07-27T09:08:02Z</time>
      </trkpt>
      <trkpt lat="42.111021" lon="1.599872">
        <ele>862.4</ele>
        <time>2017-07-27T09:08:06Z</time>
      </trkpt>
      <trkpt lat="42.110981" lon="1.599945">
        <ele>862.0</ele>
        <time>2017-07-27T09:08:11Z</time>
      </trkpt>
      <trkpt lat="42.110947" lon="1.599994">
        <ele>861.5</ele>
        <time>2017-07-27T09:08:15Z</time>
      </trkpt>
      <trkpt lat="42.110758" lon="1.600176">
        <ele>859.1</ele>
        <time>2017-07-27T09:08:30Z</time>
      </trkpt>
      <trkpt lat="42.110603" lon="1.600275">
        <ele>857.2</ele>
        <time>2017-07-27T09:08:42Z</time>
      </trkpt>
      <trkpt lat="42.110450" lon="1.600365">
        <ele>854.7</ele>
        <time>2017-07-27T09:08:53Z</time>
      </trkpt>
      <trkpt lat="42.110424" lon="1.600487">
        <ele>853.8</ele>
        <time>2017-07-27T09:09:00Z</time>
      </trkpt>
      <trkpt lat="42.110334" lon="1.600715">
        <ele>851.9</ele>
        <time>2017-07-27T09:09:13Z</time>
      </trkpt>
      <trkpt lat="42.110217" lon="1.600857">
        <ele>850.4</ele>
        <time>2017-07-27T09:09:25Z</time>
      </trkpt>
      <trkpt lat="42.110198" lon="1.600880">
        <ele>854.3</ele>
        <time>2017-07-27T09:09:27Z</time>
      </trkpt>
      <trkpt lat="42.110191" lon="1.600890">
        <ele>850.9</ele>
        <time>2017-07-27T09:09:28Z</time>
      </trkpt>
      <trkpt lat="42.110154" lon="1.600928">
        <ele>850.9</ele>
        <time>2017-07-27T09:09:32Z</time>
      </trkpt>
      <trkpt lat="42.110039" lon="1.601015">
        <ele>847.5</ele>
        <time>2017-07-27T09:09:42Z</time>
      </trkpt>
      <trkpt lat="42.109870" lon="1.601188">
        <ele>846.6</ele>
        <time>2017-07-27T09:09:56Z</time>
      </trkpt>
      <trkpt lat="42.109820" lon="1.601275">
        <ele>845.1</ele>
        <time>2017-07-27T09:10:02Z</time>
      </trkpt>
      <trkpt lat="42.109798" lon="1.601304">
        <ele>845.1</ele>
        <time>2017-07-27T09:10:04Z</time>
      </trkpt>
      <trkpt lat="42.109694" lon="1.601433">
        <ele>842.2</ele>
        <time>2017-07-27T09:10:14Z</time>
      </trkpt>
      <trkpt lat="42.109643" lon="1.601540">
        <ele>841.3</ele>
        <time>2017-07-27T09:10:22Z</time>
      </trkpt>
      <trkpt lat="42.109615" lon="1.601672">
        <ele>837.9</ele>
        <time>2017-07-27T09:10:30Z</time>
      </trkpt>
      <trkpt lat="42.109604" lon="1.601733">
        <ele>837.9</ele>
        <time>2017-07-27T09:10:33Z</time>
      </trkpt>
      <trkpt lat="42.109593" lon="1.601775">
        <ele>837.9</ele>
        <time>2017-07-27T09:10:35Z</time>
      </trkpt>
      <trkpt lat="42.109504" lon="1.601844">
        <ele>836.0</ele>
        <time>2017-07-27T09:10:44Z</time>
      </trkpt>
      <trkpt lat="42.109423" lon="1.601920">
        <ele>835.5</ele>
        <time>2017-07-27T09:10:51Z</time>
      </trkpt>
      <trkpt lat="42.109369" lon="1.601911">
        <ele>833.6</ele>
        <time>2017-07-27T09:11:03Z</time>
      </trkpt>
      <trkpt lat="42.109358" lon="1.601911">
        <ele>841.3</ele>
        <time>2017-07-27T09:11:05Z</time>
      </trkpt>
      <trkpt lat="42.109352" lon="1.601905">
        <ele>835.0</ele>
        <time>2017-07-27T09:11:06Z</time>
      </trkpt>
      <trkpt lat="42.109362" lon="1.601885">
        <ele>834.6</ele>
        <time>2017-07-27T09:11:23Z</time>
      </trkpt>
      <trkpt lat="42.109359" lon="1.601864">
        <ele>831.7</ele>
        <time>2017-07-27T09:11:55Z</time>
      </trkpt>
      <trkpt lat="42.109356" lon="1.601864">
        <ele>835.0</ele>
        <time>2017-07-27T09:12:00Z</time>
      </trkpt>
    </trkseg>
  </trk>
</gpx>
